<?xml version="1.0" encoding="UTF-8" standalone="no" ?>
<gpx xmlns="http://www.topografix.com/GPX/1/1" xmlns:gpxtpx="http://www.garmin.com/xmlschemas/TrackPointExtension/v1" creator="OruxMaps v.6.0.7" version="1.1" xmlns:xsi="http://www.w3.org/2001/XMLSchema-instance" xsi:schemaLocation="http://www.topografix.com/GPX/1/1 http://www.topografix.com/GPX/1/1/gpx.xsd">
<metadata>
<name><![CDATA[nes ziona full]]></name>
<desc><![CDATA[]]></desc>
<link href="http://www.oruxmaps.com">
<text>OruxMaps</text>
</link>
<time>2015-05-01T05:12:04Z</time><bounds maxlat="31.9641226" maxlon="34.8215236" minlat="31.9003246" minlon="34.7716712"/>
</metadata>
<wpt lat="31.9629708" lon="34.7890798">
<ele>57.03</ele>
<time>2015-05-01T05:12:05Z</time>
<name><![CDATA[0007706]]></name>
<desc><![CDATA[]]></desc>
<sym>Waypoint</sym>
<type>Starting Point</type>
<extensions>
<om:oruxmapsextensions xmlns:om="http://www.oruxmaps.com/oruxmapsextensions/1/0">
<om:ext type="ICON" subtype="0">38</om:ext>
</om:oruxmapsextensions>
</extensions>
</wpt>
<wpt lat="31.9627628" lon="34.7892310">
<ele>57.76</ele>
<time>2015-05-01T08:40:24Z</time>
<name><![CDATA[0007707]]></name>
<desc><![CDATA[<br /><h3>Name: Segment 1</h3><br /><p>Start time: 05/01/2015 08:12</p><p>Finish time: 05/01/2015 11:39</p><p>Distance: 30.4km (03:27)</p><p>Moving time: 02:19</p><p>Average speed: 8.8km/h</p><p>Avg. Speed Mov.: 13km/h</p><p>Max. Speed: 35.8km/h</p><p>Minimum altitude: 15m</p><p>Maximum altitude: 72m</p><p>Ascent speed: 276.4m/h</p><p>Descent speed: -381.6m/h</p><p>Elevation gain: 383m</p><p>Elevation loss: -385m</p><p>Ascent time: 01:23</p><p>Descent time: 01:00</p>]]></desc>
<sym>Waypoint</sym>
<type>Finishing Point</type>
<extensions>
<om:oruxmapsextensions xmlns:om="http://www.oruxmaps.com/oruxmapsextensions/1/0">
<om:ext type="ICON" subtype="0">15</om:ext>
</om:oruxmapsextensions>
</extensions>
</wpt>
<trk>
<name><![CDATA[nes ziona full]]></name>
<desc><![CDATA[<h1>OruxMaps</h1><br /><hr align="center" width="480" style="height: 2px; width: 517px"/><h2>Name: nes ziona full</h2><br /><p>Start time: 05/01/2015 08:12</p><p>Finish time: 05/01/2015 11:39</p><p>Distance: 30.4km (03:27)</p><p>Moving time: 02:20</p><p>Average speed: 8.8km/h</p><p>Avg. Speed Mov.: 13km/h</p><p>Max. Speed: 35.8km/h</p><p>Minimum altitude: 15m</p><p>Maximum altitude: 72m</p><p>Ascent speed: 276.4m/h</p><p>Descent speed: -381.6m/h</p><p>Elevation gain: 383m</p><p>Elevation loss: -385m</p><p>Ascent time: 01:23</p><p>Descent time: 01:00</p><hr align="center" width="480" style="height: 2px; width: 517px"/>]]></desc>
<type>Mountain biking</type>
<extensions>
<om:oruxmapsextensions xmlns:om="http://www.oruxmaps.com/oruxmapsextensions/1/0">
<om:ext type="TYPE" subtype="0">6</om:ext>
</om:oruxmapsextensions>
</extensions>
<trkseg>
<trkpt lat="31.9629708" lon="34.7890798">
<ele>57.03</ele>
<time>2015-05-01T05:12:04Z</time>
</trkpt>
<trkpt lat="31.9627899" lon="34.7890937">
<ele>57.03</ele>
<time>2015-05-01T05:12:19Z</time>
</trkpt>
<trkpt lat="31.9626957" lon="34.7892764">
<ele>56.31</ele>
<time>2015-05-01T05:14:17Z</time>
</trkpt>
<trkpt lat="31.9627624" lon="34.7894994">
<ele>56.48</ele>
<time>2015-05-01T05:16:22Z</time>
</trkpt>
<trkpt lat="31.9627761" lon="34.7897156">
<ele>56.36</ele>
<time>2015-05-01T05:16:27Z</time>
</trkpt>
<trkpt lat="31.9629697" lon="34.7897509">
<ele>56.29</ele>
<time>2015-05-01T05:16:32Z</time>
</trkpt>
<trkpt lat="31.9631729" lon="34.7897672">
<ele>56.46</ele>
<time>2015-05-01T05:16:37Z</time>
</trkpt>
<trkpt lat="31.9633868" lon="34.7897439">
<ele>56.95</ele>
<time>2015-05-01T05:16:42Z</time>
</trkpt>
<trkpt lat="31.9635687" lon="34.7897969">
<ele>56.33</ele>
<time>2015-05-01T05:16:46Z</time>
</trkpt>
<trkpt lat="31.9636222" lon="34.7900026">
<ele>54.59</ele>
<time>2015-05-01T05:16:50Z</time>
</trkpt>
<trkpt lat="31.9635579" lon="34.7902325">
<ele>52.99</ele>
<time>2015-05-01T05:16:55Z</time>
</trkpt>
<trkpt lat="31.9635027" lon="34.7904480">
<ele>51.85</ele>
<time>2015-05-01T05:16:59Z</time>
</trkpt>
<trkpt lat="31.9634767" lon="34.7906623">
<ele>50.99</ele>
<time>2015-05-01T05:17:03Z</time>
</trkpt>
<trkpt lat="31.9634966" lon="34.7908732">
<ele>49.71</ele>
<time>2015-05-01T05:17:07Z</time>
</trkpt>
<trkpt lat="31.9634785" lon="34.7911148">
<ele>50.05</ele>
<time>2015-05-01T05:17:11Z</time>
</trkpt>
<trkpt lat="31.9634356" lon="34.7913277">
<ele>50.96</ele>
<time>2015-05-01T05:17:15Z</time>
</trkpt>
<trkpt lat="31.9633897" lon="34.7915457">
<ele>51.55</ele>
<time>2015-05-01T05:17:19Z</time>
</trkpt>
<trkpt lat="31.9633690" lon="34.7917604">
<ele>52.31</ele>
<time>2015-05-01T05:17:24Z</time>
</trkpt>
<trkpt lat="31.9635432" lon="34.7918885">
<ele>52.43</ele>
<time>2015-05-01T05:17:30Z</time>
</trkpt>
<trkpt lat="31.9637273" lon="34.7919555">
<ele>53.75</ele>
<time>2015-05-01T05:17:34Z</time>
</trkpt>
<trkpt lat="31.9639454" lon="34.7920240">
<ele>53.79</ele>
<time>2015-05-01T05:17:39Z</time>
</trkpt>
<trkpt lat="31.9641226" lon="34.7921524">
<ele>56.35</ele>
<time>2015-05-01T05:17:44Z</time>
</trkpt>
<trkpt lat="31.9641177" lon="34.7923924">
<ele>56.96</ele>
<time>2015-05-01T05:17:48Z</time>
</trkpt>
<trkpt lat="31.9640981" lon="34.7926368">
<ele>56.49</ele>
<time>2015-05-01T05:17:53Z</time>
</trkpt>
<trkpt lat="31.9640759" lon="34.7928816">
<ele>53.01</ele>
<time>2015-05-01T05:17:58Z</time>
</trkpt>
<trkpt lat="31.9638655" lon="34.7929492">
<ele>52.92</ele>
<time>2015-05-01T05:18:03Z</time>
</trkpt>
<trkpt lat="31.9636518" lon="34.7928480">
<ele>53.62</ele>
<time>2015-05-01T05:18:07Z</time>
</trkpt>
<trkpt lat="31.9634789" lon="34.7927573">
<ele>56.48</ele>
<time>2015-05-01T05:18:11Z</time>
</trkpt>
<trkpt lat="31.9633046" lon="34.7926910">
<ele>58.19</ele>
<time>2015-05-01T05:18:15Z</time>
</trkpt>
<trkpt lat="31.9630943" lon="34.7926232">
<ele>58.22</ele>
<time>2015-05-01T05:18:20Z</time>
</trkpt>
<trkpt lat="31.9629030" lon="34.7925701">
<ele>58.13</ele>
<time>2015-05-01T05:18:24Z</time>
</trkpt>
<trkpt lat="31.9627234" lon="34.7925084">
<ele>58.37</ele>
<time>2015-05-01T05:18:29Z</time>
</trkpt>
<trkpt lat="31.9625352" lon="34.7924470">
<ele>58.17</ele>
<time>2015-05-01T05:18:33Z</time>
</trkpt>
<trkpt lat="31.9623493" lon="34.7923841">
<ele>58.65</ele>
<time>2015-05-01T05:18:37Z</time>
</trkpt>
<trkpt lat="31.9621313" lon="34.7923026">
<ele>59.12</ele>
<time>2015-05-01T05:18:42Z</time>
</trkpt>
<trkpt lat="31.9619410" lon="34.7922477">
<ele>58.26</ele>
<time>2015-05-01T05:18:46Z</time>
</trkpt>
<trkpt lat="31.9617294" lon="34.7921823">
<ele>58.29</ele>
<time>2015-05-01T05:18:51Z</time>
</trkpt>
<trkpt lat="31.9615351" lon="34.7921236">
<ele>58.69</ele>
<time>2015-05-01T05:18:56Z</time>
</trkpt>
<trkpt lat="31.9613413" lon="34.7920503">
<ele>60.35</ele>
<time>2015-05-01T05:19:01Z</time>
</trkpt>
<trkpt lat="31.9611471" lon="34.7920047">
<ele>60.41</ele>
<time>2015-05-01T05:19:07Z</time>
</trkpt>
<trkpt lat="31.9609484" lon="34.7919394">
<ele>60.26</ele>
<time>2015-05-01T05:19:13Z</time>
</trkpt>
<trkpt lat="31.9607489" lon="34.7918775">
<ele>60.48</ele>
<time>2015-05-01T05:19:19Z</time>
</trkpt>
<trkpt lat="31.9605727" lon="34.7917924">
<ele>61.20</ele>
<time>2015-05-01T05:19:26Z</time>
</trkpt>
<trkpt lat="31.9603805" lon="34.7917994">
<ele>61.89</ele>
<time>2015-05-01T05:19:32Z</time>
</trkpt>
<trkpt lat="31.9601855" lon="34.7917458">
<ele>62.15</ele>
<time>2015-05-01T05:19:38Z</time>
</trkpt>
<trkpt lat="31.9599848" lon="34.7916371">
<ele>62.81</ele>
<time>2015-05-01T05:19:43Z</time>
</trkpt>
<trkpt lat="31.9597760" lon="34.7915801">
<ele>63.41</ele>
<time>2015-05-01T05:19:48Z</time>
</trkpt>
<trkpt lat="31.9595846" lon="34.7915357">
<ele>63.64</ele>
<time>2015-05-01T05:19:53Z</time>
</trkpt>
<trkpt lat="31.9594115" lon="34.7914702">
<ele>62.61</ele>
<time>2015-05-01T05:19:57Z</time>
</trkpt>
<trkpt lat="31.9592111" lon="34.7913790">
<ele>61.90</ele>
<time>2015-05-01T05:20:02Z</time>
</trkpt>
<trkpt lat="31.9590221" lon="34.7913006">
<ele>62.91</ele>
<time>2015-05-01T05:20:07Z</time>
</trkpt>
<trkpt lat="31.9588224" lon="34.7912389">
<ele>63.28</ele>
<time>2015-05-01T05:20:12Z</time>
</trkpt>
<trkpt lat="31.9586348" lon="34.7911828">
<ele>63.17</ele>
<time>2015-05-01T05:20:17Z</time>
</trkpt>
<trkpt lat="31.9584346" lon="34.7911146">
<ele>62.99</ele>
<time>2015-05-01T05:20:23Z</time>
</trkpt>
<trkpt lat="31.9582444" lon="34.7910413">
<ele>62.81</ele>
<time>2015-05-01T05:20:29Z</time>
</trkpt>
<trkpt lat="31.9580541" lon="34.7909805">
<ele>62.75</ele>
<time>2015-05-01T05:20:34Z</time>
</trkpt>
<trkpt lat="31.9578815" lon="34.7909087">
<ele>62.75</ele>
<time>2015-05-01T05:20:39Z</time>
</trkpt>
<trkpt lat="31.9576842" lon="34.7908676">
<ele>62.88</ele>
<time>2015-05-01T05:20:44Z</time>
</trkpt>
<trkpt lat="31.9574975" lon="34.7908391">
<ele>63.00</ele>
<time>2015-05-01T05:20:49Z</time>
</trkpt>
<trkpt lat="31.9573177" lon="34.7907616">
<ele>62.97</ele>
<time>2015-05-01T05:20:54Z</time>
</trkpt>
<trkpt lat="31.9571183" lon="34.7906908">
<ele>63.16</ele>
<time>2015-05-01T05:20:59Z</time>
</trkpt>
<trkpt lat="31.9569271" lon="34.7906342">
<ele>63.13</ele>
<time>2015-05-01T05:21:04Z</time>
</trkpt>
<trkpt lat="31.9567145" lon="34.7905778">
<ele>62.48</ele>
<time>2015-05-01T05:21:09Z</time>
</trkpt>
<trkpt lat="31.9565214" lon="34.7905167">
<ele>61.55</ele>
<time>2015-05-01T05:21:13Z</time>
</trkpt>
<trkpt lat="31.9563010" lon="34.7904393">
<ele>60.64</ele>
<time>2015-05-01T05:21:17Z</time>
</trkpt>
<trkpt lat="31.9560962" lon="34.7903734">
<ele>59.94</ele>
<time>2015-05-01T05:21:21Z</time>
</trkpt>
<trkpt lat="31.9559123" lon="34.7903473">
<ele>59.77</ele>
<time>2015-05-01T05:21:25Z</time>
</trkpt>
<trkpt lat="31.9557401" lon="34.7902614">
<ele>59.69</ele>
<time>2015-05-01T05:21:32Z</time>
</trkpt>
<trkpt lat="31.9555624" lon="34.7902116">
<ele>59.19</ele>
<time>2015-05-01T05:21:44Z</time>
</trkpt>
<trkpt lat="31.9553552" lon="34.7901494">
<ele>58.48</ele>
<time>2015-05-01T05:22:16Z</time>
</trkpt>
<trkpt lat="31.9551643" lon="34.7901623">
<ele>56.58</ele>
<time>2015-05-01T05:23:34Z</time>
</trkpt>
<trkpt lat="31.9549824" lon="34.7901241">
<ele>55.70</ele>
<time>2015-05-01T05:23:38Z</time>
</trkpt>
<trkpt lat="31.9547828" lon="34.7900740">
<ele>54.32</ele>
<time>2015-05-01T05:23:42Z</time>
</trkpt>
<trkpt lat="31.9545455" lon="34.7900103">
<ele>53.28</ele>
<time>2015-05-01T05:23:46Z</time>
</trkpt>
<trkpt lat="31.9543670" lon="34.7899644">
<ele>53.02</ele>
<time>2015-05-01T05:23:49Z</time>
</trkpt>
<trkpt lat="31.9541800" lon="34.7899175">
<ele>52.83</ele>
<time>2015-05-01T05:23:52Z</time>
</trkpt>
<trkpt lat="31.9539963" lon="34.7898657">
<ele>52.82</ele>
<time>2015-05-01T05:23:55Z</time>
</trkpt>
<trkpt lat="31.9538192" lon="34.7898149">
<ele>53.28</ele>
<time>2015-05-01T05:23:58Z</time>
</trkpt>
<trkpt lat="31.9535918" lon="34.7897478">
<ele>54.40</ele>
<time>2015-05-01T05:24:02Z</time>
</trkpt>
<trkpt lat="31.9533676" lon="34.7896824">
<ele>56.42</ele>
<time>2015-05-01T05:24:06Z</time>
</trkpt>
<trkpt lat="31.9531697" lon="34.7896179">
<ele>58.47</ele>
<time>2015-05-01T05:24:10Z</time>
</trkpt>
<trkpt lat="31.9529734" lon="34.7895536">
<ele>59.11</ele>
<time>2015-05-01T05:24:14Z</time>
</trkpt>
<trkpt lat="31.9527927" lon="34.7894929">
<ele>59.13</ele>
<time>2015-05-01T05:24:18Z</time>
</trkpt>
<trkpt lat="31.9525959" lon="34.7894381">
<ele>58.67</ele>
<time>2015-05-01T05:24:22Z</time>
</trkpt>
<trkpt lat="31.9523885" lon="34.7893773">
<ele>59.70</ele>
<time>2015-05-01T05:24:26Z</time>
</trkpt>
<trkpt lat="31.9521909" lon="34.7893190">
<ele>60.40</ele>
<time>2015-05-01T05:24:30Z</time>
</trkpt>
<trkpt lat="31.9519981" lon="34.7892617">
<ele>61.00</ele>
<time>2015-05-01T05:24:34Z</time>
</trkpt>
<trkpt lat="31.9518107" lon="34.7892078">
<ele>61.38</ele>
<time>2015-05-01T05:24:38Z</time>
</trkpt>
<trkpt lat="31.9516106" lon="34.7891488">
<ele>60.40</ele>
<time>2015-05-01T05:24:43Z</time>
</trkpt>
<trkpt lat="31.9514299" lon="34.7890862">
<ele>58.91</ele>
<time>2015-05-01T05:24:47Z</time>
</trkpt>
<trkpt lat="31.9512229" lon="34.7890077">
<ele>58.81</ele>
<time>2015-05-01T05:24:51Z</time>
</trkpt>
<trkpt lat="31.9510362" lon="34.7889214">
<ele>58.84</ele>
<time>2015-05-01T05:24:55Z</time>
</trkpt>
<trkpt lat="31.9508635" lon="34.7888579">
<ele>58.58</ele>
<time>2015-05-01T05:24:58Z</time>
</trkpt>
<trkpt lat="31.9506942" lon="34.7887823">
<ele>58.30</ele>
<time>2015-05-01T05:25:01Z</time>
</trkpt>
<trkpt lat="31.9505114" lon="34.7887134">
<ele>58.07</ele>
<time>2015-05-01T05:25:05Z</time>
</trkpt>
<trkpt lat="31.9506539" lon="34.7888889">
<ele>56.59</ele>
<time>2015-05-01T05:26:05Z</time>
</trkpt>
<trkpt lat="31.9508443" lon="34.7889806">
<ele>56.12</ele>
<time>2015-05-01T05:26:10Z</time>
</trkpt>
<trkpt lat="31.9510527" lon="34.7890819">
<ele>54.12</ele>
<time>2015-05-01T05:26:15Z</time>
</trkpt>
<trkpt lat="31.9512362" lon="34.7891659">
<ele>52.60</ele>
<time>2015-05-01T05:26:19Z</time>
</trkpt>
<trkpt lat="31.9514176" lon="34.7892338">
<ele>52.09</ele>
<time>2015-05-01T05:26:23Z</time>
</trkpt>
<trkpt lat="31.9514842" lon="34.7894604">
<ele>51.99</ele>
<time>2015-05-01T05:26:28Z</time>
</trkpt>
<trkpt lat="31.9514629" lon="34.7896710">
<ele>51.24</ele>
<time>2015-05-01T05:26:31Z</time>
</trkpt>
<trkpt lat="31.9514387" lon="34.7899001">
<ele>50.58</ele>
<time>2015-05-01T05:26:35Z</time>
</trkpt>
<trkpt lat="31.9514155" lon="34.7901200">
<ele>49.09</ele>
<time>2015-05-01T05:26:39Z</time>
</trkpt>
<trkpt lat="31.9514013" lon="34.7903407">
<ele>48.86</ele>
<time>2015-05-01T05:26:43Z</time>
</trkpt>
<trkpt lat="31.9513917" lon="34.7905659">
<ele>49.75</ele>
<time>2015-05-01T05:26:47Z</time>
</trkpt>
<trkpt lat="31.9513823" lon="34.7907818">
<ele>50.54</ele>
<time>2015-05-01T05:26:51Z</time>
</trkpt>
<trkpt lat="31.9513600" lon="34.7909979">
<ele>50.21</ele>
<time>2015-05-01T05:26:55Z</time>
</trkpt>
<trkpt lat="31.9513331" lon="34.7912114">
<ele>50.85</ele>
<time>2015-05-01T05:26:59Z</time>
</trkpt>
<trkpt lat="31.9512981" lon="34.7914560">
<ele>53.34</ele>
<time>2015-05-01T05:27:04Z</time>
</trkpt>
<trkpt lat="31.9512494" lon="34.7916786">
<ele>54.36</ele>
<time>2015-05-01T05:27:09Z</time>
</trkpt>
<trkpt lat="31.9511903" lon="34.7919146">
<ele>53.76</ele>
<time>2015-05-01T05:27:15Z</time>
</trkpt>
<trkpt lat="31.9511043" lon="34.7921400">
<ele>54.40</ele>
<time>2015-05-01T05:27:20Z</time>
</trkpt>
<trkpt lat="31.9509747" lon="34.7923418">
<ele>55.22</ele>
<time>2015-05-01T05:27:25Z</time>
</trkpt>
<trkpt lat="31.9508970" lon="34.7925405">
<ele>56.38</ele>
<time>2015-05-01T05:27:30Z</time>
</trkpt>
<trkpt lat="31.9508916" lon="34.7927693">
<ele>56.84</ele>
<time>2015-05-01T05:27:35Z</time>
</trkpt>
<trkpt lat="31.9509066" lon="34.7929854">
<ele>56.41</ele>
<time>2015-05-01T05:27:39Z</time>
</trkpt>
<trkpt lat="31.9508892" lon="34.7932043">
<ele>56.13</ele>
<time>2015-05-01T05:27:43Z</time>
</trkpt>
<trkpt lat="31.9508431" lon="34.7934406">
<ele>55.41</ele>
<time>2015-05-01T05:27:47Z</time>
</trkpt>
<trkpt lat="31.9507883" lon="34.7936815">
<ele>54.90</ele>
<time>2015-05-01T05:27:51Z</time>
</trkpt>
<trkpt lat="31.9507364" lon="34.7939023">
<ele>54.94</ele>
<time>2015-05-01T05:27:55Z</time>
</trkpt>
<trkpt lat="31.9506865" lon="34.7941232">
<ele>55.03</ele>
<time>2015-05-01T05:27:59Z</time>
</trkpt>
<trkpt lat="31.9506143" lon="34.7943623">
<ele>53.91</ele>
<time>2015-05-01T05:28:04Z</time>
</trkpt>
<trkpt lat="31.9505261" lon="34.7945555">
<ele>53.43</ele>
<time>2015-05-01T05:28:10Z</time>
</trkpt>
<trkpt lat="31.9504740" lon="34.7948034">
<ele>53.60</ele>
<time>2015-05-01T05:28:48Z</time>
</trkpt>
<trkpt lat="31.9504181" lon="34.7950280">
<ele>53.94</ele>
<time>2015-05-01T05:28:52Z</time>
</trkpt>
<trkpt lat="31.9503500" lon="34.7952864">
<ele>53.48</ele>
<time>2015-05-01T05:28:56Z</time>
</trkpt>
<trkpt lat="31.9502892" lon="34.7954883">
<ele>53.60</ele>
<time>2015-05-01T05:28:59Z</time>
</trkpt>
<trkpt lat="31.9502322" lon="34.7956969">
<ele>52.24</ele>
<time>2015-05-01T05:29:02Z</time>
</trkpt>
<trkpt lat="31.9501723" lon="34.7959220">
<ele>50.05</ele>
<time>2015-05-01T05:29:05Z</time>
</trkpt>
<trkpt lat="31.9501087" lon="34.7961484">
<ele>48.64</ele>
<time>2015-05-01T05:29:08Z</time>
</trkpt>
<trkpt lat="31.9500504" lon="34.7963610">
<ele>47.71</ele>
<time>2015-05-01T05:29:11Z</time>
</trkpt>
<trkpt lat="31.9499927" lon="34.7965830">
<ele>46.92</ele>
<time>2015-05-01T05:29:14Z</time>
</trkpt>
<trkpt lat="31.9499258" lon="34.7968410">
<ele>45.83</ele>
<time>2015-05-01T05:29:18Z</time>
</trkpt>
<trkpt lat="31.9498662" lon="34.7970632">
<ele>44.43</ele>
<time>2015-05-01T05:29:21Z</time>
</trkpt>
<trkpt lat="31.9497971" lon="34.7973141">
<ele>43.77</ele>
<time>2015-05-01T05:29:25Z</time>
</trkpt>
<trkpt lat="31.9497178" lon="34.7975669">
<ele>46.69</ele>
<time>2015-05-01T05:29:29Z</time>
</trkpt>
<trkpt lat="31.9496420" lon="34.7978133">
<ele>47.18</ele>
<time>2015-05-01T05:29:33Z</time>
</trkpt>
<trkpt lat="31.9495901" lon="34.7980419">
<ele>45.36</ele>
<time>2015-05-01T05:29:37Z</time>
</trkpt>
<trkpt lat="31.9495191" lon="34.7982887">
<ele>43.57</ele>
<time>2015-05-01T05:29:41Z</time>
</trkpt>
<trkpt lat="31.9494544" lon="34.7985042">
<ele>43.03</ele>
<time>2015-05-01T05:29:45Z</time>
</trkpt>
<trkpt lat="31.9493758" lon="34.7987377">
<ele>43.19</ele>
<time>2015-05-01T05:29:49Z</time>
</trkpt>
<trkpt lat="31.9493109" lon="34.7989402">
<ele>43.26</ele>
<time>2015-05-01T05:29:52Z</time>
</trkpt>
<trkpt lat="31.9492292" lon="34.7991899">
<ele>43.54</ele>
<time>2015-05-01T05:29:56Z</time>
</trkpt>
<trkpt lat="31.9491667" lon="34.7994165">
<ele>42.88</ele>
<time>2015-05-01T05:30:00Z</time>
</trkpt>
<trkpt lat="31.9491038" lon="34.7996754">
<ele>42.02</ele>
<time>2015-05-01T05:30:04Z</time>
</trkpt>
<trkpt lat="31.9490239" lon="34.7999289">
<ele>42.99</ele>
<time>2015-05-01T05:30:08Z</time>
</trkpt>
<trkpt lat="31.9489023" lon="34.8001429">
<ele>43.92</ele>
<time>2015-05-01T05:30:12Z</time>
</trkpt>
<trkpt lat="31.9487571" lon="34.8003491">
<ele>44.32</ele>
<time>2015-05-01T05:30:16Z</time>
</trkpt>
<trkpt lat="31.9485996" lon="34.8005268">
<ele>44.49</ele>
<time>2015-05-01T05:30:20Z</time>
</trkpt>
<trkpt lat="31.9484371" lon="34.8006745">
<ele>44.86</ele>
<time>2015-05-01T05:30:24Z</time>
</trkpt>
<trkpt lat="31.9482584" lon="34.8008185">
<ele>44.77</ele>
<time>2015-05-01T05:30:28Z</time>
</trkpt>
<trkpt lat="31.9480842" lon="34.8009228">
<ele>43.60</ele>
<time>2015-05-01T05:30:32Z</time>
</trkpt>
<trkpt lat="31.9478846" lon="34.8010125">
<ele>43.03</ele>
<time>2015-05-01T05:30:36Z</time>
</trkpt>
<trkpt lat="31.9476673" lon="34.8011117">
<ele>41.82</ele>
<time>2015-05-01T05:30:41Z</time>
</trkpt>
<trkpt lat="31.9474710" lon="34.8012042">
<ele>41.84</ele>
<time>2015-05-01T05:30:45Z</time>
</trkpt>
<trkpt lat="31.9472733" lon="34.8012038">
<ele>41.31</ele>
<time>2015-05-01T05:30:49Z</time>
</trkpt>
<trkpt lat="31.9470697" lon="34.8011792">
<ele>40.25</ele>
<time>2015-05-01T05:30:53Z</time>
</trkpt>
<trkpt lat="31.9468359" lon="34.8011528">
<ele>38.96</ele>
<time>2015-05-01T05:30:57Z</time>
</trkpt>
<trkpt lat="31.9466006" lon="34.8011196">
<ele>38.96</ele>
<time>2015-05-01T05:31:01Z</time>
</trkpt>
<trkpt lat="31.9463753" lon="34.8010710">
<ele>39.43</ele>
<time>2015-05-01T05:31:05Z</time>
</trkpt>
<trkpt lat="31.9461411" lon="34.8010390">
<ele>39.47</ele>
<time>2015-05-01T05:31:09Z</time>
</trkpt>
<trkpt lat="31.9459572" lon="34.8010151">
<ele>39.30</ele>
<time>2015-05-01T05:31:12Z</time>
</trkpt>
<trkpt lat="31.9457308" lon="34.8009753">
<ele>40.08</ele>
<time>2015-05-01T05:31:16Z</time>
</trkpt>
<trkpt lat="31.9455007" lon="34.8009274">
<ele>40.79</ele>
<time>2015-05-01T05:31:20Z</time>
</trkpt>
<trkpt lat="31.9452983" lon="34.8008812">
<ele>40.83</ele>
<time>2015-05-01T05:31:24Z</time>
</trkpt>
<trkpt lat="31.9450808" lon="34.8008435">
<ele>40.70</ele>
<time>2015-05-01T05:31:28Z</time>
</trkpt>
<trkpt lat="31.9449004" lon="34.8008194">
<ele>41.07</ele>
<time>2015-05-01T05:31:32Z</time>
</trkpt>
<trkpt lat="31.9447198" lon="34.8008284">
<ele>41.66</ele>
<time>2015-05-01T05:32:12Z</time>
</trkpt>
<trkpt lat="31.9445285" lon="34.8009199">
<ele>40.14</ele>
<time>2015-05-01T05:32:16Z</time>
</trkpt>
<trkpt lat="31.9443067" lon="34.8009435">
<ele>38.40</ele>
<time>2015-05-01T05:32:20Z</time>
</trkpt>
<trkpt lat="31.9441169" lon="34.8009205">
<ele>38.14</ele>
<time>2015-05-01T05:32:23Z</time>
</trkpt>
<trkpt lat="31.9439388" lon="34.8008882">
<ele>37.84</ele>
<time>2015-05-01T05:32:26Z</time>
</trkpt>
<trkpt lat="31.9437427" lon="34.8008531">
<ele>37.83</ele>
<time>2015-05-01T05:32:29Z</time>
</trkpt>
<trkpt lat="31.9435631" lon="34.8008159">
<ele>38.49</ele>
<time>2015-05-01T05:32:32Z</time>
</trkpt>
<trkpt lat="31.9433773" lon="34.8007855">
<ele>38.79</ele>
<time>2015-05-01T05:32:35Z</time>
</trkpt>
<trkpt lat="31.9431896" lon="34.8007540">
<ele>37.91</ele>
<time>2015-05-01T05:32:38Z</time>
</trkpt>
<trkpt lat="31.9430027" lon="34.8007235">
<ele>37.10</ele>
<time>2015-05-01T05:32:41Z</time>
</trkpt>
<trkpt lat="31.9428027" lon="34.8006905">
<ele>36.68</ele>
<time>2015-05-01T05:32:44Z</time>
</trkpt>
<trkpt lat="31.9426116" lon="34.8006607">
<ele>36.81</ele>
<time>2015-05-01T05:32:47Z</time>
</trkpt>
<trkpt lat="31.9424224" lon="34.8006327">
<ele>37.05</ele>
<time>2015-05-01T05:32:50Z</time>
</trkpt>
<trkpt lat="31.9422329" lon="34.8006046">
<ele>37.32</ele>
<time>2015-05-01T05:32:53Z</time>
</trkpt>
<trkpt lat="31.9420493" lon="34.8005796">
<ele>37.55</ele>
<time>2015-05-01T05:32:56Z</time>
</trkpt>
<trkpt lat="31.9418631" lon="34.8005540">
<ele>37.17</ele>
<time>2015-05-01T05:32:59Z</time>
</trkpt>
<trkpt lat="31.9416774" lon="34.8005261">
<ele>36.93</ele>
<time>2015-05-01T05:33:02Z</time>
</trkpt>
<trkpt lat="31.9414835" lon="34.8004938">
<ele>37.19</ele>
<time>2015-05-01T05:33:05Z</time>
</trkpt>
<trkpt lat="31.9412981" lon="34.8004606">
<ele>37.64</ele>
<time>2015-05-01T05:33:08Z</time>
</trkpt>
<trkpt lat="31.9411109" lon="34.8004333">
<ele>38.12</ele>
<time>2015-05-01T05:33:11Z</time>
</trkpt>
<trkpt lat="31.9409314" lon="34.8004101">
<ele>38.87</ele>
<time>2015-05-01T05:33:14Z</time>
</trkpt>
<trkpt lat="31.9407321" lon="34.8003780">
<ele>38.91</ele>
<time>2015-05-01T05:33:18Z</time>
</trkpt>
<trkpt lat="31.9405117" lon="34.8003447">
<ele>37.95</ele>
<time>2015-05-01T05:33:22Z</time>
</trkpt>
<trkpt lat="31.9403190" lon="34.8003133">
<ele>36.53</ele>
<time>2015-05-01T05:33:27Z</time>
</trkpt>
<trkpt lat="31.9401285" lon="34.8002826">
<ele>36.10</ele>
<time>2015-05-01T05:33:32Z</time>
</trkpt>
<trkpt lat="31.9399093" lon="34.8002436">
<ele>35.89</ele>
<time>2015-05-01T05:33:36Z</time>
</trkpt>
<trkpt lat="31.9396990" lon="34.8002126">
<ele>36.44</ele>
<time>2015-05-01T05:33:40Z</time>
</trkpt>
<trkpt lat="31.9394819" lon="34.8001833">
<ele>37.37</ele>
<time>2015-05-01T05:33:44Z</time>
</trkpt>
<trkpt lat="31.9392484" lon="34.8001631">
<ele>37.24</ele>
<time>2015-05-01T05:33:48Z</time>
</trkpt>
<trkpt lat="31.9390291" lon="34.8001356">
<ele>37.46</ele>
<time>2015-05-01T05:33:52Z</time>
</trkpt>
<trkpt lat="31.9388042" lon="34.8001024">
<ele>37.88</ele>
<time>2015-05-01T05:33:56Z</time>
</trkpt>
<trkpt lat="31.9386170" lon="34.8000780">
<ele>38.03</ele>
<time>2015-05-01T05:33:59Z</time>
</trkpt>
<trkpt lat="31.9383918" lon="34.8000374">
<ele>38.85</ele>
<time>2015-05-01T05:34:03Z</time>
</trkpt>
<trkpt lat="31.9381647" lon="34.8000063">
<ele>39.37</ele>
<time>2015-05-01T05:34:07Z</time>
</trkpt>
<trkpt lat="31.9379633" lon="34.7999663">
<ele>38.76</ele>
<time>2015-05-01T05:34:11Z</time>
</trkpt>
<trkpt lat="31.9377474" lon="34.7999259">
<ele>37.57</ele>
<time>2015-05-01T05:34:15Z</time>
</trkpt>
<trkpt lat="31.9375428" lon="34.7998960">
<ele>35.65</ele>
<time>2015-05-01T05:34:19Z</time>
</trkpt>
<trkpt lat="31.9373341" lon="34.7998493">
<ele>35.48</ele>
<time>2015-05-01T05:34:23Z</time>
</trkpt>
<trkpt lat="31.9371224" lon="34.7998090">
<ele>36.81</ele>
<time>2015-05-01T05:34:27Z</time>
</trkpt>
<trkpt lat="31.9369385" lon="34.7997747">
<ele>36.99</ele>
<time>2015-05-01T05:34:31Z</time>
</trkpt>
<trkpt lat="31.9367490" lon="34.7996625">
<ele>34.91</ele>
<time>2015-05-01T05:34:36Z</time>
</trkpt>
<trkpt lat="31.9368079" lon="34.7994332">
<ele>35.13</ele>
<time>2015-05-01T05:34:40Z</time>
</trkpt>
<trkpt lat="31.9368686" lon="34.7992067">
<ele>34.80</ele>
<time>2015-05-01T05:34:45Z</time>
</trkpt>
<trkpt lat="31.9369062" lon="34.7989646">
<ele>35.60</ele>
<time>2015-05-01T05:34:50Z</time>
</trkpt>
<trkpt lat="31.9369425" lon="34.7987283">
<ele>36.32</ele>
<time>2015-05-01T05:34:55Z</time>
</trkpt>
<trkpt lat="31.9369850" lon="34.7985133">
<ele>36.60</ele>
<time>2015-05-01T05:35:00Z</time>
</trkpt>
<trkpt lat="31.9370322" lon="34.7982991">
<ele>37.80</ele>
<time>2015-05-01T05:35:05Z</time>
</trkpt>
<trkpt lat="31.9370696" lon="34.7980912">
<ele>38.45</ele>
<time>2015-05-01T05:35:10Z</time>
</trkpt>
<trkpt lat="31.9371074" lon="34.7978815">
<ele>38.77</ele>
<time>2015-05-01T05:35:15Z</time>
</trkpt>
<trkpt lat="31.9371616" lon="34.7976690">
<ele>39.44</ele>
<time>2015-05-01T05:35:21Z</time>
</trkpt>
<trkpt lat="31.9372286" lon="34.7974378">
<ele>40.16</ele>
<time>2015-05-01T05:35:27Z</time>
</trkpt>
<trkpt lat="31.9372825" lon="34.7972112">
<ele>40.76</ele>
<time>2015-05-01T05:35:32Z</time>
</trkpt>
<trkpt lat="31.9373214" lon="34.7969855">
<ele>41.64</ele>
<time>2015-05-01T05:35:37Z</time>
</trkpt>
<trkpt lat="31.9373534" lon="34.7967567">
<ele>41.98</ele>
<time>2015-05-01T05:35:42Z</time>
</trkpt>
<trkpt lat="31.9373775" lon="34.7965248">
<ele>42.23</ele>
<time>2015-05-01T05:35:47Z</time>
</trkpt>
<trkpt lat="31.9373831" lon="34.7962840">
<ele>42.52</ele>
<time>2015-05-01T05:35:53Z</time>
</trkpt>
<trkpt lat="31.9375124" lon="34.7961069">
<ele>43.01</ele>
<time>2015-05-01T05:35:59Z</time>
</trkpt>
<trkpt lat="31.9376846" lon="34.7962102">
<ele>43.79</ele>
<time>2015-05-01T05:36:05Z</time>
</trkpt>
<trkpt lat="31.9378543" lon="34.7963541">
<ele>44.55</ele>
<time>2015-05-01T05:36:11Z</time>
</trkpt>
<trkpt lat="31.9380328" lon="34.7964605">
<ele>46.38</ele>
<time>2015-05-01T05:36:15Z</time>
</trkpt>
<trkpt lat="31.9382036" lon="34.7965452">
<ele>48.04</ele>
<time>2015-05-01T05:36:18Z</time>
</trkpt>
<trkpt lat="31.9383741" lon="34.7966299">
<ele>48.46</ele>
<time>2015-05-01T05:36:21Z</time>
</trkpt>
<trkpt lat="31.9385840" lon="34.7966321">
<ele>48.67</ele>
<time>2015-05-01T05:36:25Z</time>
</trkpt>
<trkpt lat="31.9388160" lon="34.7966567">
<ele>50.57</ele>
<time>2015-05-01T05:36:30Z</time>
</trkpt>
<trkpt lat="31.9390058" lon="34.7966647">
<ele>50.31</ele>
<time>2015-05-01T05:36:34Z</time>
</trkpt>
<trkpt lat="31.9392150" lon="34.7966541">
<ele>50.65</ele>
<time>2015-05-01T05:36:38Z</time>
</trkpt>
<trkpt lat="31.9393950" lon="34.7966532">
<ele>50.01</ele>
<time>2015-05-01T05:36:41Z</time>
</trkpt>
<trkpt lat="31.9395995" lon="34.7966402">
<ele>48.73</ele>
<time>2015-05-01T05:36:45Z</time>
</trkpt>
<trkpt lat="31.9398129" lon="34.7965293">
<ele>48.55</ele>
<time>2015-05-01T05:36:49Z</time>
</trkpt>
<trkpt lat="31.9400270" lon="34.7964225">
<ele>50.61</ele>
<time>2015-05-01T05:36:53Z</time>
</trkpt>
<trkpt lat="31.9402455" lon="34.7963457">
<ele>52.67</ele>
<time>2015-05-01T05:36:57Z</time>
</trkpt>
<trkpt lat="31.9403997" lon="34.7961839">
<ele>52.61</ele>
<time>2015-05-01T05:37:03Z</time>
</trkpt>
<trkpt lat="31.9404149" lon="34.7959711">
<ele>51.94</ele>
<time>2015-05-01T05:37:08Z</time>
</trkpt>
<trkpt lat="31.9404151" lon="34.7957387">
<ele>51.26</ele>
<time>2015-05-01T05:37:13Z</time>
</trkpt>
<trkpt lat="31.9404177" lon="34.7954983">
<ele>49.98</ele>
<time>2015-05-01T05:37:20Z</time>
</trkpt>
<trkpt lat="31.9404096" lon="34.7952672">
<ele>49.30</ele>
<time>2015-05-01T05:37:27Z</time>
</trkpt>
<trkpt lat="31.9404031" lon="34.7950403">
<ele>48.59</ele>
<time>2015-05-01T05:37:35Z</time>
</trkpt>
<trkpt lat="31.9403847" lon="34.7948148">
<ele>48.49</ele>
<time>2015-05-01T05:37:42Z</time>
</trkpt>
<trkpt lat="31.9403736" lon="34.7945592">
<ele>48.08</ele>
<time>2015-05-01T05:37:47Z</time>
</trkpt>
<trkpt lat="31.9403607" lon="34.7943126">
<ele>47.62</ele>
<time>2015-05-01T05:37:52Z</time>
</trkpt>
<trkpt lat="31.9403327" lon="34.7940916">
<ele>47.39</ele>
<time>2015-05-01T05:37:56Z</time>
</trkpt>
<trkpt lat="31.9405166" lon="34.7939781">
<ele>48.07</ele>
<time>2015-05-01T05:38:06Z</time>
</trkpt>
<trkpt lat="31.9407203" lon="34.7939524">
<ele>50.66</ele>
<time>2015-05-01T05:38:11Z</time>
</trkpt>
<trkpt lat="31.9408482" lon="34.7938020">
<ele>51.17</ele>
<time>2015-05-01T05:38:15Z</time>
</trkpt>
<trkpt lat="31.9409183" lon="34.7935805">
<ele>51.17</ele>
<time>2015-05-01T05:38:25Z</time>
</trkpt>
<trkpt lat="31.9408751" lon="34.7933735">
<ele>51.59</ele>
<time>2015-05-01T05:38:32Z</time>
</trkpt>
<trkpt lat="31.9407935" lon="34.7931712">
<ele>52.38</ele>
<time>2015-05-01T05:38:38Z</time>
</trkpt>
<trkpt lat="31.9405893" lon="34.7931020">
<ele>53.25</ele>
<time>2015-05-01T05:38:45Z</time>
</trkpt>
<trkpt lat="31.9404036" lon="34.7930121">
<ele>53.74</ele>
<time>2015-05-01T05:38:51Z</time>
</trkpt>
<trkpt lat="31.9402755" lon="34.7928561">
<ele>54.45</ele>
<time>2015-05-01T05:38:57Z</time>
</trkpt>
<trkpt lat="31.9401093" lon="34.7927568">
<ele>54.77</ele>
<time>2015-05-01T05:39:02Z</time>
</trkpt>
<trkpt lat="31.9399072" lon="34.7926935">
<ele>55.63</ele>
<time>2015-05-01T05:39:06Z</time>
</trkpt>
<trkpt lat="31.9397191" lon="34.7926350">
<ele>56.29</ele>
<time>2015-05-01T05:39:10Z</time>
</trkpt>
<trkpt lat="31.9395265" lon="34.7925183">
<ele>55.61</ele>
<time>2015-05-01T05:39:19Z</time>
</trkpt>
<trkpt lat="31.9393315" lon="34.7924290">
<ele>54.81</ele>
<time>2015-05-01T05:39:25Z</time>
</trkpt>
<trkpt lat="31.9391419" lon="34.7923840">
<ele>54.51</ele>
<time>2015-05-01T05:39:31Z</time>
</trkpt>
<trkpt lat="31.9389401" lon="34.7923581">
<ele>53.80</ele>
<time>2015-05-01T05:39:36Z</time>
</trkpt>
<trkpt lat="31.9387510" lon="34.7923730">
<ele>52.39</ele>
<time>2015-05-01T05:39:40Z</time>
</trkpt>
<trkpt lat="31.9385221" lon="34.7924115">
<ele>50.67</ele>
<time>2015-05-01T05:39:44Z</time>
</trkpt>
<trkpt lat="31.9382878" lon="34.7924490">
<ele>49.23</ele>
<time>2015-05-01T05:39:48Z</time>
</trkpt>
<trkpt lat="31.9380922" lon="34.7924833">
<ele>48.26</ele>
<time>2015-05-01T05:39:51Z</time>
</trkpt>
<trkpt lat="31.9378943" lon="34.7925243">
<ele>47.15</ele>
<time>2015-05-01T05:39:54Z</time>
</trkpt>
<trkpt lat="31.9376792" lon="34.7925032">
<ele>47.76</ele>
<time>2015-05-01T05:39:58Z</time>
</trkpt>
<trkpt lat="31.9376370" lon="34.7922444">
<ele>49.28</ele>
<time>2015-05-01T05:40:02Z</time>
</trkpt>
<trkpt lat="31.9376339" lon="34.7919879">
<ele>48.61</ele>
<time>2015-05-01T05:40:05Z</time>
</trkpt>
<trkpt lat="31.9376309" lon="34.7917050">
<ele>47.60</ele>
<time>2015-05-01T05:40:08Z</time>
</trkpt>
<trkpt lat="31.9376267" lon="34.7914003">
<ele>46.22</ele>
<time>2015-05-01T05:40:11Z</time>
</trkpt>
<trkpt lat="31.9376248" lon="34.7911119">
<ele>43.84</ele>
<time>2015-05-01T05:40:14Z</time>
</trkpt>
<trkpt lat="31.9376217" lon="34.7908981">
<ele>42.42</ele>
<time>2015-05-01T05:40:16Z</time>
</trkpt>
<trkpt lat="31.9376188" lon="34.7906739">
<ele>41.53</ele>
<time>2015-05-01T05:40:18Z</time>
</trkpt>
<trkpt lat="31.9376166" lon="34.7903597">
<ele>40.86</ele>
<time>2015-05-01T05:40:21Z</time>
</trkpt>
<trkpt lat="31.9376179" lon="34.7900778">
<ele>39.74</ele>
<time>2015-05-01T05:40:24Z</time>
</trkpt>
<trkpt lat="31.9376273" lon="34.7897768">
<ele>39.39</ele>
<time>2015-05-01T05:40:27Z</time>
</trkpt>
<trkpt lat="31.9376213" lon="34.7894748">
<ele>38.64</ele>
<time>2015-05-01T05:40:30Z</time>
</trkpt>
<trkpt lat="31.9376161" lon="34.7892611">
<ele>39.41</ele>
<time>2015-05-01T05:40:33Z</time>
</trkpt>
<trkpt lat="31.9376091" lon="34.7889879">
<ele>38.99</ele>
<time>2015-05-01T05:40:37Z</time>
</trkpt>
<trkpt lat="31.9376076" lon="34.7887299">
<ele>38.79</ele>
<time>2015-05-01T05:40:41Z</time>
</trkpt>
<trkpt lat="31.9376102" lon="34.7884754">
<ele>38.44</ele>
<time>2015-05-01T05:40:45Z</time>
</trkpt>
<trkpt lat="31.9376036" lon="34.7882371">
<ele>38.45</ele>
<time>2015-05-01T05:40:49Z</time>
</trkpt>
<trkpt lat="31.9376033" lon="34.7880166">
<ele>38.31</ele>
<time>2015-05-01T05:40:53Z</time>
</trkpt>
<trkpt lat="31.9375847" lon="34.7877871">
<ele>39.08</ele>
<time>2015-05-01T05:40:58Z</time>
</trkpt>
<trkpt lat="31.9375577" lon="34.7875763">
<ele>40.04</ele>
<time>2015-05-01T05:41:03Z</time>
</trkpt>
<trkpt lat="31.9375294" lon="34.7873298">
<ele>40.09</ele>
<time>2015-05-01T05:41:09Z</time>
</trkpt>
<trkpt lat="31.9375147" lon="34.7871148">
<ele>40.22</ele>
<time>2015-05-01T05:41:14Z</time>
</trkpt>
<trkpt lat="31.9375060" lon="34.7868742">
<ele>40.57</ele>
<time>2015-05-01T05:41:21Z</time>
</trkpt>
<trkpt lat="31.9373304" lon="34.7867883">
<ele>41.93</ele>
<time>2015-05-01T05:41:32Z</time>
</trkpt>
<trkpt lat="31.9371303" lon="34.7867937">
<ele>42.33</ele>
<time>2015-05-01T05:41:43Z</time>
</trkpt>
<trkpt lat="31.9369392" lon="34.7868050">
<ele>42.58</ele>
<time>2015-05-01T05:41:50Z</time>
</trkpt>
<trkpt lat="31.9367500" lon="34.7867811">
<ele>43.13</ele>
<time>2015-05-01T05:41:57Z</time>
</trkpt>
<trkpt lat="31.9365650" lon="34.7867819">
<ele>43.76</ele>
<time>2015-05-01T05:42:04Z</time>
</trkpt>
<trkpt lat="31.9365257" lon="34.7870173">
<ele>43.94</ele>
<time>2015-05-01T05:42:12Z</time>
</trkpt>
<trkpt lat="31.9365438" lon="34.7872385">
<ele>44.18</ele>
<time>2015-05-01T05:42:18Z</time>
</trkpt>
<trkpt lat="31.9365419" lon="34.7874663">
<ele>44.22</ele>
<time>2015-05-01T05:42:23Z</time>
</trkpt>
<trkpt lat="31.9365607" lon="34.7876857">
<ele>44.09</ele>
<time>2015-05-01T05:42:30Z</time>
</trkpt>
<trkpt lat="31.9364529" lon="34.7878626">
<ele>44.21</ele>
<time>2015-05-01T05:42:58Z</time>
</trkpt>
<trkpt lat="31.9362510" lon="34.7878465">
<ele>44.05</ele>
<time>2015-05-01T05:43:06Z</time>
</trkpt>
<trkpt lat="31.9360712" lon="34.7878267">
<ele>43.73</ele>
<time>2015-05-01T05:43:11Z</time>
</trkpt>
<trkpt lat="31.9358852" lon="34.7877986">
<ele>43.47</ele>
<time>2015-05-01T05:43:16Z</time>
</trkpt>
<trkpt lat="31.9356801" lon="34.7877462">
<ele>43.61</ele>
<time>2015-05-01T05:43:21Z</time>
</trkpt>
<trkpt lat="31.9354863" lon="34.7877304">
<ele>43.64</ele>
<time>2015-05-01T05:43:26Z</time>
</trkpt>
<trkpt lat="31.9353021" lon="34.7878306">
<ele>42.69</ele>
<time>2015-05-01T05:43:30Z</time>
</trkpt>
<trkpt lat="31.9351497" lon="34.7877167">
<ele>41.98</ele>
<time>2015-05-01T05:43:36Z</time>
</trkpt>
<trkpt lat="31.9350438" lon="34.7875334">
<ele>41.36</ele>
<time>2015-05-01T05:43:42Z</time>
</trkpt>
<trkpt lat="31.9348417" lon="34.7874659">
<ele>41.12</ele>
<time>2015-05-01T05:43:48Z</time>
</trkpt>
<trkpt lat="31.9346674" lon="34.7873788">
<ele>41.28</ele>
<time>2015-05-01T05:43:53Z</time>
</trkpt>
<trkpt lat="31.9344929" lon="34.7872875">
<ele>41.38</ele>
<time>2015-05-01T05:43:58Z</time>
</trkpt>
<trkpt lat="31.9343212" lon="34.7872107">
<ele>41.90</ele>
<time>2015-05-01T05:44:02Z</time>
</trkpt>
<trkpt lat="31.9341456" lon="34.7871376">
<ele>42.88</ele>
<time>2015-05-01T05:44:06Z</time>
</trkpt>
<trkpt lat="31.9339686" lon="34.7870569">
<ele>43.55</ele>
<time>2015-05-01T05:44:10Z</time>
</trkpt>
<trkpt lat="31.9337984" lon="34.7869791">
<ele>42.81</ele>
<time>2015-05-01T05:44:14Z</time>
</trkpt>
<trkpt lat="31.9336185" lon="34.7868975">
<ele>43.21</ele>
<time>2015-05-01T05:44:18Z</time>
</trkpt>
<trkpt lat="31.9334296" lon="34.7868206">
<ele>42.65</ele>
<time>2015-05-01T05:44:22Z</time>
</trkpt>
<trkpt lat="31.9332258" lon="34.7867336">
<ele>40.09</ele>
<time>2015-05-01T05:44:27Z</time>
</trkpt>
<trkpt lat="31.9330289" lon="34.7866485">
<ele>38.68</ele>
<time>2015-05-01T05:44:32Z</time>
</trkpt>
<trkpt lat="31.9330024" lon="34.7864368">
<ele>38.16</ele>
<time>2015-05-01T05:44:43Z</time>
</trkpt>
<trkpt lat="31.9331938" lon="34.7863778">
<ele>38.43</ele>
<time>2015-05-01T05:44:49Z</time>
</trkpt>
<trkpt lat="31.9333660" lon="34.7864472">
<ele>42.93</ele>
<time>2015-05-01T05:45:47Z</time>
</trkpt>
<trkpt lat="31.9335558" lon="34.7864379">
<ele>43.34</ele>
<time>2015-05-01T05:45:55Z</time>
</trkpt>
<trkpt lat="31.9336255" lon="34.7862358">
<ele>44.74</ele>
<time>2015-05-01T05:46:33Z</time>
</trkpt>
<trkpt lat="31.9337297" lon="34.7860616">
<ele>45.72</ele>
<time>2015-05-01T05:46:42Z</time>
</trkpt>
<trkpt lat="31.9337905" lon="34.7858495">
<ele>47.59</ele>
<time>2015-05-01T05:46:53Z</time>
</trkpt>
<trkpt lat="31.9338001" lon="34.7856349">
<ele>48.72</ele>
<time>2015-05-01T05:47:03Z</time>
</trkpt>
<trkpt lat="31.9338097" lon="34.7854202">
<ele>50.82</ele>
<time>2015-05-01T05:47:16Z</time>
</trkpt>
<trkpt lat="31.9338893" lon="34.7852184">
<ele>54.26</ele>
<time>2015-05-01T05:47:31Z</time>
</trkpt>
<trkpt lat="31.9340434" lon="34.7851073">
<ele>58.30</ele>
<time>2015-05-01T05:47:51Z</time>
</trkpt>
<trkpt lat="31.9342312" lon="34.7850275">
<ele>62.65</ele>
<time>2015-05-01T05:49:01Z</time>
</trkpt>
<trkpt lat="31.9344205" lon="34.7850168">
<ele>63.75</ele>
<time>2015-05-01T05:49:05Z</time>
</trkpt>
<trkpt lat="31.9346188" lon="34.7849449">
<ele>63.64</ele>
<time>2015-05-01T05:49:10Z</time>
</trkpt>
<trkpt lat="31.9347367" lon="34.7847566">
<ele>63.64</ele>
<time>2015-05-01T05:49:15Z</time>
</trkpt>
<trkpt lat="31.9347257" lon="34.7845450">
<ele>61.39</ele>
<time>2015-05-01T05:49:19Z</time>
</trkpt>
<trkpt lat="31.9346848" lon="34.7843290">
<ele>59.56</ele>
<time>2015-05-01T05:49:27Z</time>
</trkpt>
<trkpt lat="31.9346144" lon="34.7841056">
<ele>58.96</ele>
<time>2015-05-01T05:49:37Z</time>
</trkpt>
<trkpt lat="31.9344916" lon="34.7839325">
<ele>56.53</ele>
<time>2015-05-01T05:50:15Z</time>
</trkpt>
<trkpt lat="31.9343210" lon="34.7838054">
<ele>55.02</ele>
<time>2015-05-01T05:50:24Z</time>
</trkpt>
<trkpt lat="31.9341405" lon="34.7837115">
<ele>54.18</ele>
<time>2015-05-01T05:50:31Z</time>
</trkpt>
<trkpt lat="31.9339471" lon="34.7836810">
<ele>53.27</ele>
<time>2015-05-01T05:50:37Z</time>
</trkpt>
<trkpt lat="31.9337735" lon="34.7836055">
<ele>52.50</ele>
<time>2015-05-01T05:50:43Z</time>
</trkpt>
<trkpt lat="31.9335779" lon="34.7835050">
<ele>51.81</ele>
<time>2015-05-01T05:50:50Z</time>
</trkpt>
<trkpt lat="31.9334284" lon="34.7833302">
<ele>51.31</ele>
<time>2015-05-01T05:50:56Z</time>
</trkpt>
<trkpt lat="31.9332721" lon="34.7832069">
<ele>51.36</ele>
<time>2015-05-01T05:51:02Z</time>
</trkpt>
<trkpt lat="31.9330824" lon="34.7831974">
<ele>51.16</ele>
<time>2015-05-01T05:51:08Z</time>
</trkpt>
<trkpt lat="31.9328710" lon="34.7832269">
<ele>48.19</ele>
<time>2015-05-01T05:51:13Z</time>
</trkpt>
<trkpt lat="31.9326880" lon="34.7832080">
<ele>46.17</ele>
<time>2015-05-01T05:51:17Z</time>
</trkpt>
<trkpt lat="31.9324708" lon="34.7831806">
<ele>44.43</ele>
<time>2015-05-01T05:51:22Z</time>
</trkpt>
<trkpt lat="31.9322623" lon="34.7832179">
<ele>43.35</ele>
<time>2015-05-01T05:51:26Z</time>
</trkpt>
<trkpt lat="31.9320489" lon="34.7832260">
<ele>42.54</ele>
<time>2015-05-01T05:51:30Z</time>
</trkpt>
<trkpt lat="31.9318520" lon="34.7831777">
<ele>41.13</ele>
<time>2015-05-01T05:51:34Z</time>
</trkpt>
<trkpt lat="31.9316594" lon="34.7830744">
<ele>41.06</ele>
<time>2015-05-01T05:51:39Z</time>
</trkpt>
<trkpt lat="31.9314961" lon="34.7829794">
<ele>41.72</ele>
<time>2015-05-01T05:51:44Z</time>
</trkpt>
<trkpt lat="31.9313819" lon="34.7827769">
<ele>42.45</ele>
<time>2015-05-01T05:51:52Z</time>
</trkpt>
<trkpt lat="31.9312614" lon="34.7826021">
<ele>42.74</ele>
<time>2015-05-01T05:51:59Z</time>
</trkpt>
<trkpt lat="31.9311240" lon="34.7824518">
<ele>43.56</ele>
<time>2015-05-01T05:52:06Z</time>
</trkpt>
<trkpt lat="31.9309558" lon="34.7823519">
<ele>44.78</ele>
<time>2015-05-01T05:52:16Z</time>
</trkpt>
<trkpt lat="31.9307942" lon="34.7822501">
<ele>46.04</ele>
<time>2015-05-01T05:52:25Z</time>
</trkpt>
<trkpt lat="31.9306102" lon="34.7821450">
<ele>47.04</ele>
<time>2015-05-01T05:52:34Z</time>
</trkpt>
<trkpt lat="31.9304205" lon="34.7820832">
<ele>48.11</ele>
<time>2015-05-01T05:52:43Z</time>
</trkpt>
<trkpt lat="31.9302890" lon="34.7819263">
<ele>49.74</ele>
<time>2015-05-01T05:52:59Z</time>
</trkpt>
<trkpt lat="31.9301874" lon="34.7817357">
<ele>51.17</ele>
<time>2015-05-01T05:53:12Z</time>
</trkpt>
<trkpt lat="31.9300792" lon="34.7815545">
<ele>51.60</ele>
<time>2015-05-01T05:53:22Z</time>
</trkpt>
<trkpt lat="31.9299692" lon="34.7813803">
<ele>52.61</ele>
<time>2015-05-01T05:53:32Z</time>
</trkpt>
<trkpt lat="31.9299070" lon="34.7811774">
<ele>53.82</ele>
<time>2015-05-01T05:53:42Z</time>
</trkpt>
<trkpt lat="31.9298475" lon="34.7809678">
<ele>54.61</ele>
<time>2015-05-01T05:53:51Z</time>
</trkpt>
<trkpt lat="31.9298541" lon="34.7807487">
<ele>56.07</ele>
<time>2015-05-01T05:54:05Z</time>
</trkpt>
<trkpt lat="31.9299974" lon="34.7806202">
<ele>56.68</ele>
<time>2015-05-01T05:54:12Z</time>
</trkpt>
<trkpt lat="31.9301673" lon="34.7805353">
<ele>57.25</ele>
<time>2015-05-01T05:54:20Z</time>
</trkpt>
<trkpt lat="31.9303329" lon="34.7804407">
<ele>58.82</ele>
<time>2015-05-01T05:54:34Z</time>
</trkpt>
<trkpt lat="31.9305004" lon="34.7803413">
<ele>60.48</ele>
<time>2015-05-01T05:54:47Z</time>
</trkpt>
<trkpt lat="31.9306842" lon="34.7802692">
<ele>62.73</ele>
<time>2015-05-01T05:55:00Z</time>
</trkpt>
<trkpt lat="31.9308667" lon="34.7802029">
<ele>64.61</ele>
<time>2015-05-01T05:55:12Z</time>
</trkpt>
<trkpt lat="31.9308001" lon="34.7799885">
<ele>67.09</ele>
<time>2015-05-01T05:56:44Z</time>
</trkpt>
<trkpt lat="31.9307498" lon="34.7797741">
<ele>67.58</ele>
<time>2015-05-01T05:56:48Z</time>
</trkpt>
<trkpt lat="31.9305906" lon="34.7796246">
<ele>68.09</ele>
<time>2015-05-01T05:56:53Z</time>
</trkpt>
<trkpt lat="31.9304270" lon="34.7795361">
<ele>68.59</ele>
<time>2015-05-01T05:56:57Z</time>
</trkpt>
<trkpt lat="31.9302438" lon="34.7794403">
<ele>66.21</ele>
<time>2015-05-01T05:57:01Z</time>
</trkpt>
<trkpt lat="31.9300587" lon="34.7793235">
<ele>63.29</ele>
<time>2015-05-01T05:57:05Z</time>
</trkpt>
<trkpt lat="31.9298736" lon="34.7792014">
<ele>61.25</ele>
<time>2015-05-01T05:57:09Z</time>
</trkpt>
<trkpt lat="31.9297142" lon="34.7790962">
<ele>59.38</ele>
<time>2015-05-01T05:57:13Z</time>
</trkpt>
<trkpt lat="31.9295542" lon="34.7789905">
<ele>58.71</ele>
<time>2015-05-01T05:57:17Z</time>
</trkpt>
<trkpt lat="31.9293853" lon="34.7788951">
<ele>57.48</ele>
<time>2015-05-01T05:57:22Z</time>
</trkpt>
<trkpt lat="31.9292040" lon="34.7788018">
<ele>56.95</ele>
<time>2015-05-01T05:57:27Z</time>
</trkpt>
<trkpt lat="31.9290275" lon="34.7787576">
<ele>55.43</ele>
<time>2015-05-01T05:57:34Z</time>
</trkpt>
<trkpt lat="31.9289662" lon="34.7789701">
<ele>54.38</ele>
<time>2015-05-01T05:57:39Z</time>
</trkpt>
<trkpt lat="31.9291086" lon="34.7791484">
<ele>52.28</ele>
<time>2015-05-01T05:57:44Z</time>
</trkpt>
<trkpt lat="31.9292310" lon="34.7793236">
<ele>51.41</ele>
<time>2015-05-01T05:57:49Z</time>
</trkpt>
<trkpt lat="31.9292824" lon="34.7795363">
<ele>50.89</ele>
<time>2015-05-01T05:57:54Z</time>
</trkpt>
<trkpt lat="31.9292088" lon="34.7797713">
<ele>48.36</ele>
<time>2015-05-01T05:57:59Z</time>
</trkpt>
<trkpt lat="31.9291344" lon="34.7800033">
<ele>47.51</ele>
<time>2015-05-01T05:58:04Z</time>
</trkpt>
<trkpt lat="31.9290269" lon="34.7802105">
<ele>47.26</ele>
<time>2015-05-01T05:58:09Z</time>
</trkpt>
<trkpt lat="31.9288694" lon="34.7803903">
<ele>47.19</ele>
<time>2015-05-01T05:58:13Z</time>
</trkpt>
<trkpt lat="31.9287254" lon="34.7805877">
<ele>46.49</ele>
<time>2015-05-01T05:58:16Z</time>
</trkpt>
<trkpt lat="31.9285970" lon="34.7807664">
<ele>45.96</ele>
<time>2015-05-01T05:58:19Z</time>
</trkpt>
<trkpt lat="31.9284783" lon="34.7809278">
<ele>45.48</ele>
<time>2015-05-01T05:58:22Z</time>
</trkpt>
<trkpt lat="31.9283295" lon="34.7811447">
<ele>44.24</ele>
<time>2015-05-01T05:58:26Z</time>
</trkpt>
<trkpt lat="31.9282030" lon="34.7813599">
<ele>42.79</ele>
<time>2015-05-01T05:58:30Z</time>
</trkpt>
<trkpt lat="31.9280789" lon="34.7815657">
<ele>41.84</ele>
<time>2015-05-01T05:58:34Z</time>
</trkpt>
<trkpt lat="31.9279316" lon="34.7817403">
<ele>41.10</ele>
<time>2015-05-01T05:58:38Z</time>
</trkpt>
<trkpt lat="31.9277894" lon="34.7818931">
<ele>40.26</ele>
<time>2015-05-01T05:58:42Z</time>
</trkpt>
<trkpt lat="31.9275650" lon="34.7819703">
<ele>39.57</ele>
<time>2015-05-01T05:58:47Z</time>
</trkpt>
<trkpt lat="31.9273632" lon="34.7819161">
<ele>38.04</ele>
<time>2015-05-01T05:58:51Z</time>
</trkpt>
<trkpt lat="31.9271594" lon="34.7818550">
<ele>34.83</ele>
<time>2015-05-01T05:58:56Z</time>
</trkpt>
<trkpt lat="31.9269824" lon="34.7818117">
<ele>34.14</ele>
<time>2015-05-01T05:59:02Z</time>
</trkpt>
<trkpt lat="31.9267930" lon="34.7817725">
<ele>34.41</ele>
<time>2015-05-01T05:59:09Z</time>
</trkpt>
<trkpt lat="31.9266118" lon="34.7816754">
<ele>35.02</ele>
<time>2015-05-01T05:59:16Z</time>
</trkpt>
<trkpt lat="31.9264639" lon="34.7815370">
<ele>37.41</ele>
<time>2015-05-01T06:00:11Z</time>
</trkpt>
<trkpt lat="31.9262856" lon="34.7814704">
<ele>38.21</ele>
<time>2015-05-01T06:00:20Z</time>
</trkpt>
<trkpt lat="31.9261834" lon="34.7812714">
<ele>39.06</ele>
<time>2015-05-01T06:00:31Z</time>
</trkpt>
<trkpt lat="31.9261004" lon="34.7810785">
<ele>40.11</ele>
<time>2015-05-01T06:00:42Z</time>
</trkpt>
<trkpt lat="31.9260565" lon="34.7808561">
<ele>40.81</ele>
<time>2015-05-01T06:00:52Z</time>
</trkpt>
<trkpt lat="31.9259774" lon="34.7806445">
<ele>41.04</ele>
<time>2015-05-01T06:01:04Z</time>
</trkpt>
<trkpt lat="31.9258901" lon="34.7804537">
<ele>41.47</ele>
<time>2015-05-01T06:01:10Z</time>
</trkpt>
<trkpt lat="31.9258699" lon="34.7802297">
<ele>40.96</ele>
<time>2015-05-01T06:02:17Z</time>
</trkpt>
<trkpt lat="31.9258726" lon="34.7799990">
<ele>41.25</ele>
<time>2015-05-01T06:02:26Z</time>
</trkpt>
<trkpt lat="31.9259267" lon="34.7797771">
<ele>41.79</ele>
<time>2015-05-01T06:02:34Z</time>
</trkpt>
<trkpt lat="31.9257909" lon="34.7796281">
<ele>42.72</ele>
<time>2015-05-01T06:02:56Z</time>
</trkpt>
<trkpt lat="31.9256089" lon="34.7795507">
<ele>43.33</ele>
<time>2015-05-01T06:03:05Z</time>
</trkpt>
<trkpt lat="31.9254328" lon="34.7795029">
<ele>43.79</ele>
<time>2015-05-01T06:03:10Z</time>
</trkpt>
<trkpt lat="31.9252341" lon="34.7794754">
<ele>43.83</ele>
<time>2015-05-01T06:03:16Z</time>
</trkpt>
<trkpt lat="31.9250442" lon="34.7793880">
<ele>43.59</ele>
<time>2015-05-01T06:03:22Z</time>
</trkpt>
<trkpt lat="31.9249283" lon="34.7792217">
<ele>43.17</ele>
<time>2015-05-01T06:03:27Z</time>
</trkpt>
<trkpt lat="31.9248199" lon="34.7790127">
<ele>40.85</ele>
<time>2015-05-01T06:03:32Z</time>
</trkpt>
<trkpt lat="31.9245934" lon="34.7789982">
<ele>39.19</ele>
<time>2015-05-01T06:03:37Z</time>
</trkpt>
<trkpt lat="31.9243583" lon="34.7789941">
<ele>36.99</ele>
<time>2015-05-01T06:03:41Z</time>
</trkpt>
<trkpt lat="31.9241506" lon="34.7789917">
<ele>35.52</ele>
<time>2015-05-01T06:03:45Z</time>
</trkpt>
<trkpt lat="31.9239445" lon="34.7789818">
<ele>34.29</ele>
<time>2015-05-01T06:03:49Z</time>
</trkpt>
<trkpt lat="31.9237419" lon="34.7789735">
<ele>33.45</ele>
<time>2015-05-01T06:03:53Z</time>
</trkpt>
<trkpt lat="31.9235548" lon="34.7789654">
<ele>31.85</ele>
<time>2015-05-01T06:03:57Z</time>
</trkpt>
<trkpt lat="31.9233323" lon="34.7789177">
<ele>28.69</ele>
<time>2015-05-01T06:04:02Z</time>
</trkpt>
<trkpt lat="31.9231414" lon="34.7788951">
<ele>27.27</ele>
<time>2015-05-01T06:04:07Z</time>
</trkpt>
<trkpt lat="31.9230621" lon="34.7790876">
<ele>27.29</ele>
<time>2015-05-01T06:04:17Z</time>
</trkpt>
<trkpt lat="31.9229799" lon="34.7792824">
<ele>28.55</ele>
<time>2015-05-01T06:04:22Z</time>
</trkpt>
<trkpt lat="31.9227914" lon="34.7793199">
<ele>28.75</ele>
<time>2015-05-01T06:04:28Z</time>
</trkpt>
<trkpt lat="31.9225950" lon="34.7793310">
<ele>28.93</ele>
<time>2015-05-01T06:04:33Z</time>
</trkpt>
<trkpt lat="31.9223740" lon="34.7793444">
<ele>28.89</ele>
<time>2015-05-01T06:04:38Z</time>
</trkpt>
<trkpt lat="31.9221506" lon="34.7793366">
<ele>27.63</ele>
<time>2015-05-01T06:04:43Z</time>
</trkpt>
<trkpt lat="31.9219444" lon="34.7793274">
<ele>25.69</ele>
<time>2015-05-01T06:04:48Z</time>
</trkpt>
<trkpt lat="31.9217410" lon="34.7793290">
<ele>24.82</ele>
<time>2015-05-01T06:04:52Z</time>
</trkpt>
<trkpt lat="31.9215431" lon="34.7792771">
<ele>25.47</ele>
<time>2015-05-01T06:04:57Z</time>
</trkpt>
<trkpt lat="31.9215073" lon="34.7790508">
<ele>25.89</ele>
<time>2015-05-01T06:05:01Z</time>
</trkpt>
<trkpt lat="31.9214856" lon="34.7788269">
<ele>25.77</ele>
<time>2015-05-01T06:05:05Z</time>
</trkpt>
<trkpt lat="31.9213817" lon="34.7786184">
<ele>25.06</ele>
<time>2015-05-01T06:05:10Z</time>
</trkpt>
<trkpt lat="31.9211906" lon="34.7785968">
<ele>23.47</ele>
<time>2015-05-01T06:07:09Z</time>
</trkpt>
<trkpt lat="31.9209823" lon="34.7786304">
<ele>22.48</ele>
<time>2015-05-01T06:07:13Z</time>
</trkpt>
<trkpt lat="31.9207842" lon="34.7786728">
<ele>21.18</ele>
<time>2015-05-01T06:07:17Z</time>
</trkpt>
<trkpt lat="31.9205835" lon="34.7786897">
<ele>20.03</ele>
<time>2015-05-01T06:07:21Z</time>
</trkpt>
<trkpt lat="31.9203693" lon="34.7786987">
<ele>19.64</ele>
<time>2015-05-01T06:07:25Z</time>
</trkpt>
<trkpt lat="31.9201643" lon="34.7786956">
<ele>18.31</ele>
<time>2015-05-01T06:07:29Z</time>
</trkpt>
<trkpt lat="31.9199769" lon="34.7786944">
<ele>17.56</ele>
<time>2015-05-01T06:07:33Z</time>
</trkpt>
<trkpt lat="31.9197566" lon="34.7786923">
<ele>17.43</ele>
<time>2015-05-01T06:07:38Z</time>
</trkpt>
<trkpt lat="31.9195984" lon="34.7788302">
<ele>17.92</ele>
<time>2015-05-01T06:07:45Z</time>
</trkpt>
<trkpt lat="31.9196622" lon="34.7790311">
<ele>18.05</ele>
<time>2015-05-01T06:07:57Z</time>
</trkpt>
<trkpt lat="31.9196461" lon="34.7792647">
<ele>18.24</ele>
<time>2015-05-01T06:08:09Z</time>
</trkpt>
<trkpt lat="31.9196392" lon="34.7794893">
<ele>18.46</ele>
<time>2015-05-01T06:08:17Z</time>
</trkpt>
<trkpt lat="31.9196433" lon="34.7797061">
<ele>18.58</ele>
<time>2015-05-01T06:08:23Z</time>
</trkpt>
<trkpt lat="31.9197566" lon="34.7798989">
<ele>18.53</ele>
<time>2015-05-01T06:08:29Z</time>
</trkpt>
<trkpt lat="31.9197430" lon="34.7801214">
<ele>18.65</ele>
<time>2015-05-01T06:08:35Z</time>
</trkpt>
<trkpt lat="31.9197458" lon="34.7803403">
<ele>18.59</ele>
<time>2015-05-01T06:08:43Z</time>
</trkpt>
<trkpt lat="31.9199048" lon="34.7804478">
<ele>18.77</ele>
<time>2015-05-01T06:08:50Z</time>
</trkpt>
<trkpt lat="31.9200907" lon="34.7804368">
<ele>19.07</ele>
<time>2015-05-01T06:08:56Z</time>
</trkpt>
<trkpt lat="31.9202973" lon="34.7804714">
<ele>19.35</ele>
<time>2015-05-01T06:09:02Z</time>
</trkpt>
<trkpt lat="31.9203589" lon="34.7807010">
<ele>19.44</ele>
<time>2015-05-01T06:09:08Z</time>
</trkpt>
<trkpt lat="31.9204012" lon="34.7809298">
<ele>19.56</ele>
<time>2015-05-01T06:09:15Z</time>
</trkpt>
<trkpt lat="31.9204436" lon="34.7811691">
<ele>19.66</ele>
<time>2015-05-01T06:09:21Z</time>
</trkpt>
<trkpt lat="31.9204901" lon="34.7814145">
<ele>19.81</ele>
<time>2015-05-01T06:09:27Z</time>
</trkpt>
<trkpt lat="31.9205484" lon="34.7816192">
<ele>20.09</ele>
<time>2015-05-01T06:09:32Z</time>
</trkpt>
<trkpt lat="31.9206054" lon="34.7818280">
<ele>20.42</ele>
<time>2015-05-01T06:09:37Z</time>
</trkpt>
<trkpt lat="31.9206583" lon="34.7820520">
<ele>21.91</ele>
<time>2015-05-01T06:09:42Z</time>
</trkpt>
<trkpt lat="31.9207050" lon="34.7822781">
<ele>22.32</ele>
<time>2015-05-01T06:09:47Z</time>
</trkpt>
<trkpt lat="31.9207594" lon="34.7824996">
<ele>22.53</ele>
<time>2015-05-01T06:09:52Z</time>
</trkpt>
<trkpt lat="31.9208145" lon="34.7827339">
<ele>22.76</ele>
<time>2015-05-01T06:09:57Z</time>
</trkpt>
<trkpt lat="31.9208710" lon="34.7829684">
<ele>24.05</ele>
<time>2015-05-01T06:10:02Z</time>
</trkpt>
<trkpt lat="31.9209331" lon="34.7831987">
<ele>21.91</ele>
<time>2015-05-01T06:10:07Z</time>
</trkpt>
<trkpt lat="31.9209781" lon="34.7834191">
<ele>21.27</ele>
<time>2015-05-01T06:10:12Z</time>
</trkpt>
<trkpt lat="31.9208995" lon="34.7836246">
<ele>21.50</ele>
<time>2015-05-01T06:10:18Z</time>
</trkpt>
<trkpt lat="31.9207053" lon="34.7836494">
<ele>21.41</ele>
<time>2015-05-01T06:10:23Z</time>
</trkpt>
<trkpt lat="31.9204843" lon="34.7836712">
<ele>20.81</ele>
<time>2015-05-01T06:10:28Z</time>
</trkpt>
<trkpt lat="31.9202775" lon="34.7836985">
<ele>20.82</ele>
<time>2015-05-01T06:10:33Z</time>
</trkpt>
<trkpt lat="31.9200703" lon="34.7837192">
<ele>21.24</ele>
<time>2015-05-01T06:10:38Z</time>
</trkpt>
<trkpt lat="31.9198651" lon="34.7837455">
<ele>21.93</ele>
<time>2015-05-01T06:10:43Z</time>
</trkpt>
<trkpt lat="31.9196748" lon="34.7837756">
<ele>21.19</ele>
<time>2015-05-01T06:10:48Z</time>
</trkpt>
<trkpt lat="31.9194704" lon="34.7837860">
<ele>20.59</ele>
<time>2015-05-01T06:10:53Z</time>
</trkpt>
<trkpt lat="31.9192634" lon="34.7838260">
<ele>21.40</ele>
<time>2015-05-01T06:10:58Z</time>
</trkpt>
<trkpt lat="31.9190793" lon="34.7838655">
<ele>21.96</ele>
<time>2015-05-01T06:11:03Z</time>
</trkpt>
<trkpt lat="31.9188626" lon="34.7838906">
<ele>22.07</ele>
<time>2015-05-01T06:11:08Z</time>
</trkpt>
<trkpt lat="31.9186685" lon="34.7839063">
<ele>21.06</ele>
<time>2015-05-01T06:11:13Z</time>
</trkpt>
<trkpt lat="31.9184530" lon="34.7839312">
<ele>19.87</ele>
<time>2015-05-01T06:11:18Z</time>
</trkpt>
<trkpt lat="31.9182585" lon="34.7839611">
<ele>20.11</ele>
<time>2015-05-01T06:11:23Z</time>
</trkpt>
<trkpt lat="31.9180509" lon="34.7840233">
<ele>20.57</ele>
<time>2015-05-01T06:11:29Z</time>
</trkpt>
<trkpt lat="31.9178628" lon="34.7840513">
<ele>20.91</ele>
<time>2015-05-01T06:11:35Z</time>
</trkpt>
<trkpt lat="31.9176590" lon="34.7840723">
<ele>21.14</ele>
<time>2015-05-01T06:11:42Z</time>
</trkpt>
<trkpt lat="31.9174632" lon="34.7840992">
<ele>21.32</ele>
<time>2015-05-01T06:11:48Z</time>
</trkpt>
<trkpt lat="31.9172589" lon="34.7841327">
<ele>21.56</ele>
<time>2015-05-01T06:11:55Z</time>
</trkpt>
<trkpt lat="31.9170721" lon="34.7841158">
<ele>22.53</ele>
<time>2015-05-01T06:12:10Z</time>
</trkpt>
<trkpt lat="31.9168927" lon="34.7840935">
<ele>23.22</ele>
<time>2015-05-01T06:12:21Z</time>
</trkpt>
<trkpt lat="31.9167185" lon="34.7839820">
<ele>23.60</ele>
<time>2015-05-01T06:12:28Z</time>
</trkpt>
<trkpt lat="31.9165642" lon="34.7838656">
<ele>24.08</ele>
<time>2015-05-01T06:12:35Z</time>
</trkpt>
<trkpt lat="31.9164409" lon="34.7837074">
<ele>24.57</ele>
<time>2015-05-01T06:12:45Z</time>
</trkpt>
<trkpt lat="31.9163788" lon="34.7835058">
<ele>25.70</ele>
<time>2015-05-01T06:12:55Z</time>
</trkpt>
<trkpt lat="31.9163004" lon="34.7833089">
<ele>26.33</ele>
<time>2015-05-01T06:13:04Z</time>
</trkpt>
<trkpt lat="31.9161927" lon="34.7831078">
<ele>26.74</ele>
<time>2015-05-01T06:13:12Z</time>
</trkpt>
<trkpt lat="31.9161048" lon="34.7828979">
<ele>27.19</ele>
<time>2015-05-01T06:13:19Z</time>
</trkpt>
<trkpt lat="31.9160233" lon="34.7827000">
<ele>27.64</ele>
<time>2015-05-01T06:13:25Z</time>
</trkpt>
<trkpt lat="31.9159312" lon="34.7825009">
<ele>28.24</ele>
<time>2015-05-01T06:13:32Z</time>
</trkpt>
<trkpt lat="31.9157992" lon="34.7823335">
<ele>28.52</ele>
<time>2015-05-01T06:13:39Z</time>
</trkpt>
<trkpt lat="31.9159535" lon="34.7825163">
<ele>30.85</ele>
<time>2015-05-01T06:13:58Z</time>
</trkpt>
<trkpt lat="31.9160550" lon="34.7827263">
<ele>31.81</ele>
<time>2015-05-01T06:14:03Z</time>
</trkpt>
<trkpt lat="31.9161332" lon="34.7829438">
<ele>32.03</ele>
<time>2015-05-01T06:14:08Z</time>
</trkpt>
<trkpt lat="31.9162061" lon="34.7827259">
<ele>31.68</ele>
<time>2015-05-01T06:14:32Z</time>
</trkpt>
<trkpt lat="31.9161835" lon="34.7824890">
<ele>31.67</ele>
<time>2015-05-01T06:14:40Z</time>
</trkpt>
<trkpt lat="31.9161940" lon="34.7822653">
<ele>31.78</ele>
<time>2015-05-01T06:14:48Z</time>
</trkpt>
<trkpt lat="31.9161882" lon="34.7820340">
<ele>31.94</ele>
<time>2015-05-01T06:14:57Z</time>
</trkpt>
<trkpt lat="31.9162919" lon="34.7818498">
<ele>32.49</ele>
<time>2015-05-01T06:15:08Z</time>
</trkpt>
<trkpt lat="31.9164704" lon="34.7818920">
<ele>33.81</ele>
<time>2015-05-01T06:15:21Z</time>
</trkpt>
<trkpt lat="31.9166565" lon="34.7819444">
<ele>35.60</ele>
<time>2015-05-01T06:15:34Z</time>
</trkpt>
<trkpt lat="31.9168401" lon="34.7819651">
<ele>36.43</ele>
<time>2015-05-01T06:15:44Z</time>
</trkpt>
<trkpt lat="31.9170396" lon="34.7819765">
<ele>37.13</ele>
<time>2015-05-01T06:15:53Z</time>
</trkpt>
<trkpt lat="31.9171470" lon="34.7817791">
<ele>38.05</ele>
<time>2015-05-01T06:16:09Z</time>
</trkpt>
<trkpt lat="31.9171762" lon="34.7815522">
<ele>37.77</ele>
<time>2015-05-01T06:16:13Z</time>
</trkpt>
<trkpt lat="31.9172272" lon="34.7813102">
<ele>37.22</ele>
<time>2015-05-01T06:16:16Z</time>
</trkpt>
<trkpt lat="31.9172873" lon="34.7810481">
<ele>36.28</ele>
<time>2015-05-01T06:16:19Z</time>
</trkpt>
<trkpt lat="31.9173753" lon="34.7807954">
<ele>34.24</ele>
<time>2015-05-01T06:16:22Z</time>
</trkpt>
<trkpt lat="31.9174512" lon="34.7805854">
<ele>32.16</ele>
<time>2015-05-01T06:16:25Z</time>
</trkpt>
<trkpt lat="31.9174949" lon="34.7803250">
<ele>29.46</ele>
<time>2015-05-01T06:16:30Z</time>
</trkpt>
<trkpt lat="31.9175287" lon="34.7801125">
<ele>28.52</ele>
<time>2015-05-01T06:16:33Z</time>
</trkpt>
<trkpt lat="31.9175553" lon="34.7798992">
<ele>27.44</ele>
<time>2015-05-01T06:16:36Z</time>
</trkpt>
<trkpt lat="31.9175675" lon="34.7796550">
<ele>26.59</ele>
<time>2015-05-01T06:16:40Z</time>
</trkpt>
<trkpt lat="31.9175386" lon="34.7794429">
<ele>26.55</ele>
<time>2015-05-01T06:16:46Z</time>
</trkpt>
<trkpt lat="31.9175901" lon="34.7792391">
<ele>26.38</ele>
<time>2015-05-01T06:16:51Z</time>
</trkpt>
<trkpt lat="31.9176136" lon="34.7790199">
<ele>26.15</ele>
<time>2015-05-01T06:16:56Z</time>
</trkpt>
<trkpt lat="31.9176022" lon="34.7787974">
<ele>25.92</ele>
<time>2015-05-01T06:17:02Z</time>
</trkpt>
<trkpt lat="31.9174375" lon="34.7786768">
<ele>25.38</ele>
<time>2015-05-01T06:17:12Z</time>
</trkpt>
<trkpt lat="31.9172322" lon="34.7786914">
<ele>25.35</ele>
<time>2015-05-01T06:17:18Z</time>
</trkpt>
<trkpt lat="31.9170932" lon="34.7785523">
<ele>25.12</ele>
<time>2015-05-01T06:17:26Z</time>
</trkpt>
<trkpt lat="31.9170990" lon="34.7783361">
<ele>22.76</ele>
<time>2015-05-01T06:17:30Z</time>
</trkpt>
<trkpt lat="31.9171146" lon="34.7780969">
<ele>20.54</ele>
<time>2015-05-01T06:17:35Z</time>
</trkpt>
<trkpt lat="31.9171310" lon="34.7778856">
<ele>20.33</ele>
<time>2015-05-01T06:17:40Z</time>
</trkpt>
<trkpt lat="31.9171522" lon="34.7776541">
<ele>20.92</ele>
<time>2015-05-01T06:17:45Z</time>
</trkpt>
<trkpt lat="31.9171727" lon="34.7774265">
<ele>21.03</ele>
<time>2015-05-01T06:17:50Z</time>
</trkpt>
<trkpt lat="31.9171806" lon="34.7771725">
<ele>21.01</ele>
<time>2015-05-01T06:17:56Z</time>
</trkpt>
<trkpt lat="31.9172038" lon="34.7769532">
<ele>20.73</ele>
<time>2015-05-01T06:18:01Z</time>
</trkpt>
<trkpt lat="31.9172459" lon="34.7767130">
<ele>20.58</ele>
<time>2015-05-01T06:18:07Z</time>
</trkpt>
<trkpt lat="31.9173263" lon="34.7765078">
<ele>20.03</ele>
<time>2015-05-01T06:18:12Z</time>
</trkpt>
<trkpt lat="31.9174524" lon="34.7762991">
<ele>19.12</ele>
<time>2015-05-01T06:18:17Z</time>
</trkpt>
<trkpt lat="31.9174868" lon="34.7760826">
<ele>18.74</ele>
<time>2015-05-01T06:18:21Z</time>
</trkpt>
<trkpt lat="31.9174836" lon="34.7758640">
<ele>18.45</ele>
<time>2015-05-01T06:18:25Z</time>
</trkpt>
<trkpt lat="31.9174633" lon="34.7756088">
<ele>18.90</ele>
<time>2015-05-01T06:18:30Z</time>
</trkpt>
<trkpt lat="31.9174615" lon="34.7753454">
<ele>19.34</ele>
<time>2015-05-01T06:18:35Z</time>
</trkpt>
<trkpt lat="31.9173888" lon="34.7751035">
<ele>18.67</ele>
<time>2015-05-01T06:18:40Z</time>
</trkpt>
<trkpt lat="31.9173093" lon="34.7749078">
<ele>19.28</ele>
<time>2015-05-01T06:18:44Z</time>
</trkpt>
<trkpt lat="31.9172296" lon="34.7746763">
<ele>18.82</ele>
<time>2015-05-01T06:18:49Z</time>
</trkpt>
<trkpt lat="31.9171840" lon="34.7744646">
<ele>17.78</ele>
<time>2015-05-01T06:18:53Z</time>
</trkpt>
<trkpt lat="31.9170716" lon="34.7742366">
<ele>17.25</ele>
<time>2015-05-01T06:18:58Z</time>
</trkpt>
<trkpt lat="31.9169826" lon="34.7740253">
<ele>16.45</ele>
<time>2015-05-01T06:19:03Z</time>
</trkpt>
<trkpt lat="31.9168921" lon="34.7738217">
<ele>17.35</ele>
<time>2015-05-01T06:19:08Z</time>
</trkpt>
<trkpt lat="31.9168113" lon="34.7736311">
<ele>17.55</ele>
<time>2015-05-01T06:19:13Z</time>
</trkpt>
<trkpt lat="31.9167115" lon="34.7734406">
<ele>16.29</ele>
<time>2015-05-01T06:19:18Z</time>
</trkpt>
<trkpt lat="31.9166733" lon="34.7732042">
<ele>16.76</ele>
<time>2015-05-01T06:19:23Z</time>
</trkpt>
<trkpt lat="31.9166650" lon="34.7729505">
<ele>17.46</ele>
<time>2015-05-01T06:19:28Z</time>
</trkpt>
<trkpt lat="31.9165400" lon="34.7727657">
<ele>16.63</ele>
<time>2015-05-01T06:19:34Z</time>
</trkpt>
<trkpt lat="31.9163561" lon="34.7727636">
<ele>15.93</ele>
<time>2015-05-01T06:19:39Z</time>
</trkpt>
<trkpt lat="31.9162256" lon="34.7725822">
<ele>16.14</ele>
<time>2015-05-01T06:19:45Z</time>
</trkpt>
<trkpt lat="31.9161483" lon="34.7723883">
<ele>16.38</ele>
<time>2015-05-01T06:19:50Z</time>
</trkpt>
<trkpt lat="31.9160070" lon="34.7722521">
<ele>16.42</ele>
<time>2015-05-01T06:19:56Z</time>
</trkpt>
<trkpt lat="31.9158548" lon="34.7723705">
<ele>16.87</ele>
<time>2015-05-01T06:20:06Z</time>
</trkpt>
<trkpt lat="31.9160439" lon="34.7722804">
<ele>18.10</ele>
<time>2015-05-01T06:20:23Z</time>
</trkpt>
<trkpt lat="31.9160196" lon="34.7720586">
<ele>18.03</ele>
<time>2015-05-01T06:20:30Z</time>
</trkpt>
<trkpt lat="31.9159039" lon="34.7718517">
<ele>17.90</ele>
<time>2015-05-01T06:20:36Z</time>
</trkpt>
<trkpt lat="31.9158077" lon="34.7716712">
<ele>17.82</ele>
<time>2015-05-01T06:20:45Z</time>
</trkpt>
<trkpt lat="31.9159117" lon="34.7718798">
<ele>16.60</ele>
<time>2015-05-01T06:32:24Z</time>
</trkpt>
<trkpt lat="31.9160087" lon="34.7720925">
<ele>16.73</ele>
<time>2015-05-01T06:32:30Z</time>
</trkpt>
<trkpt lat="31.9159908" lon="34.7723227">
<ele>16.93</ele>
<time>2015-05-01T06:32:37Z</time>
</trkpt>
<trkpt lat="31.9158149" lon="34.7724253">
<ele>17.24</ele>
<time>2015-05-01T06:32:43Z</time>
</trkpt>
<trkpt lat="31.9156355" lon="34.7724935">
<ele>17.49</ele>
<time>2015-05-01T06:32:48Z</time>
</trkpt>
<trkpt lat="31.9154555" lon="34.7725472">
<ele>18.02</ele>
<time>2015-05-01T06:32:53Z</time>
</trkpt>
<trkpt lat="31.9152882" lon="34.7726379">
<ele>19.06</ele>
<time>2015-05-01T06:32:58Z</time>
</trkpt>
<trkpt lat="31.9151161" lon="34.7727047">
<ele>21.52</ele>
<time>2015-05-01T06:33:03Z</time>
</trkpt>
<trkpt lat="31.9149336" lon="34.7728031">
<ele>21.53</ele>
<time>2015-05-01T06:33:12Z</time>
</trkpt>
<trkpt lat="31.9147947" lon="34.7729481">
<ele>21.88</ele>
<time>2015-05-01T06:33:25Z</time>
</trkpt>
<trkpt lat="31.9146226" lon="34.7730224">
<ele>22.83</ele>
<time>2015-05-01T06:33:54Z</time>
</trkpt>
<trkpt lat="31.9144432" lon="34.7729314">
<ele>23.80</ele>
<time>2015-05-01T06:34:33Z</time>
</trkpt>
<trkpt lat="31.9142633" lon="34.7728655">
<ele>24.21</ele>
<time>2015-05-01T06:34:42Z</time>
</trkpt>
<trkpt lat="31.9140683" lon="34.7728061">
<ele>24.68</ele>
<time>2015-05-01T06:34:50Z</time>
</trkpt>
<trkpt lat="31.9142775" lon="34.7728660">
<ele>28.06</ele>
<time>2015-05-01T06:36:07Z</time>
</trkpt>
<trkpt lat="31.9144602" lon="34.7729287">
<ele>27.66</ele>
<time>2015-05-01T06:36:12Z</time>
</trkpt>
<trkpt lat="31.9146555" lon="34.7730119">
<ele>26.43</ele>
<time>2015-05-01T06:36:18Z</time>
</trkpt>
<trkpt lat="31.9148279" lon="34.7729066">
<ele>26.06</ele>
<time>2015-05-01T06:36:24Z</time>
</trkpt>
<trkpt lat="31.9147838" lon="34.7726860">
<ele>25.16</ele>
<time>2015-05-01T06:36:36Z</time>
</trkpt>
<trkpt lat="31.9146099" lon="34.7725913">
<ele>25.46</ele>
<time>2015-05-01T06:36:47Z</time>
</trkpt>
<trkpt lat="31.9144297" lon="34.7725357">
<ele>27.93</ele>
<time>2015-05-01T06:37:18Z</time>
</trkpt>
<trkpt lat="31.9143001" lon="34.7723820">
<ele>30.25</ele>
<time>2015-05-01T06:38:24Z</time>
</trkpt>
<trkpt lat="31.9141227" lon="34.7723449">
<ele>30.96</ele>
<time>2015-05-01T06:38:35Z</time>
</trkpt>
<trkpt lat="31.9139298" lon="34.7723288">
<ele>32.23</ele>
<time>2015-05-01T06:38:47Z</time>
</trkpt>
<trkpt lat="31.9137533" lon="34.7723723">
<ele>33.56</ele>
<time>2015-05-01T06:38:58Z</time>
</trkpt>
<trkpt lat="31.9135687" lon="34.7724010">
<ele>35.40</ele>
<time>2015-05-01T06:39:14Z</time>
</trkpt>
<trkpt lat="31.9134280" lon="34.7722670">
<ele>36.99</ele>
<time>2015-05-01T06:39:28Z</time>
</trkpt>
<trkpt lat="31.9132595" lon="34.7723717">
<ele>38.54</ele>
<time>2015-05-01T06:39:40Z</time>
</trkpt>
<trkpt lat="31.9130948" lon="34.7724636">
<ele>40.11</ele>
<time>2015-05-01T06:39:56Z</time>
</trkpt>
<trkpt lat="31.9129321" lon="34.7725656">
<ele>40.70</ele>
<time>2015-05-01T06:40:05Z</time>
</trkpt>
<trkpt lat="31.9128106" lon="34.7727395">
<ele>40.82</ele>
<time>2015-05-01T06:40:10Z</time>
</trkpt>
<trkpt lat="31.9127339" lon="34.7729384">
<ele>40.48</ele>
<time>2015-05-01T06:40:18Z</time>
</trkpt>
<trkpt lat="31.9126564" lon="34.7727452">
<ele>38.92</ele>
<time>2015-05-01T06:40:35Z</time>
</trkpt>
<trkpt lat="31.9126055" lon="34.7725151">
<ele>38.31</ele>
<time>2015-05-01T06:40:44Z</time>
</trkpt>
<trkpt lat="31.9125253" lon="34.7723091">
<ele>38.15</ele>
<time>2015-05-01T06:40:50Z</time>
</trkpt>
<trkpt lat="31.9123552" lon="34.7721845">
<ele>37.83</ele>
<time>2015-05-01T06:40:56Z</time>
</trkpt>
<trkpt lat="31.9121405" lon="34.7721937">
<ele>37.40</ele>
<time>2015-05-01T06:41:02Z</time>
</trkpt>
<trkpt lat="31.9119575" lon="34.7721992">
<ele>36.95</ele>
<time>2015-05-01T06:41:09Z</time>
</trkpt>
<trkpt lat="31.9117892" lon="34.7723052">
<ele>37.02</ele>
<time>2015-05-01T06:41:15Z</time>
</trkpt>
<trkpt lat="31.9116284" lon="34.7724295">
<ele>36.99</ele>
<time>2015-05-01T06:41:21Z</time>
</trkpt>
<trkpt lat="31.9114629" lon="34.7725402">
<ele>37.13</ele>
<time>2015-05-01T06:41:27Z</time>
</trkpt>
<trkpt lat="31.9113056" lon="34.7726499">
<ele>37.09</ele>
<time>2015-05-01T06:41:33Z</time>
</trkpt>
<trkpt lat="31.9111182" lon="34.7727776">
<ele>36.94</ele>
<time>2015-05-01T06:41:40Z</time>
</trkpt>
<trkpt lat="31.9109541" lon="34.7728695">
<ele>37.15</ele>
<time>2015-05-01T06:41:46Z</time>
</trkpt>
<trkpt lat="31.9107750" lon="34.7729558">
<ele>37.11</ele>
<time>2015-05-01T06:41:54Z</time>
</trkpt>
<trkpt lat="31.9106061" lon="34.7730478">
<ele>37.49</ele>
<time>2015-05-01T06:42:01Z</time>
</trkpt>
<trkpt lat="31.9104353" lon="34.7731271">
<ele>37.76</ele>
<time>2015-05-01T06:42:08Z</time>
</trkpt>
<trkpt lat="31.9102517" lon="34.7731950">
<ele>37.88</ele>
<time>2015-05-01T06:42:15Z</time>
</trkpt>
<trkpt lat="31.9100705" lon="34.7732357">
<ele>37.92</ele>
<time>2015-05-01T06:42:21Z</time>
</trkpt>
<trkpt lat="31.9098761" lon="34.7732607">
<ele>37.93</ele>
<time>2015-05-01T06:42:27Z</time>
</trkpt>
<trkpt lat="31.9096838" lon="34.7732669">
<ele>37.66</ele>
<time>2015-05-01T06:42:32Z</time>
</trkpt>
<trkpt lat="31.9094737" lon="34.7732844">
<ele>37.10</ele>
<time>2015-05-01T06:42:38Z</time>
</trkpt>
<trkpt lat="31.9092669" lon="34.7732919">
<ele>36.65</ele>
<time>2015-05-01T06:42:44Z</time>
</trkpt>
<trkpt lat="31.9090763" lon="34.7732892">
<ele>36.25</ele>
<time>2015-05-01T06:42:50Z</time>
</trkpt>
<trkpt lat="31.9088902" lon="34.7732965">
<ele>35.77</ele>
<time>2015-05-01T06:42:55Z</time>
</trkpt>
<trkpt lat="31.9087087" lon="34.7733279">
<ele>35.50</ele>
<time>2015-05-01T06:43:00Z</time>
</trkpt>
<trkpt lat="31.9085045" lon="34.7733424">
<ele>35.26</ele>
<time>2015-05-01T06:43:06Z</time>
</trkpt>
<trkpt lat="31.9083188" lon="34.7733377">
<ele>35.00</ele>
<time>2015-05-01T06:43:11Z</time>
</trkpt>
<trkpt lat="31.9081365" lon="34.7733458">
<ele>34.58</ele>
<time>2015-05-01T06:43:17Z</time>
</trkpt>
<trkpt lat="31.9079562" lon="34.7733653">
<ele>34.80</ele>
<time>2015-05-01T06:43:23Z</time>
</trkpt>
<trkpt lat="31.9077716" lon="34.7733697">
<ele>34.82</ele>
<time>2015-05-01T06:43:29Z</time>
</trkpt>
<trkpt lat="31.9075758" lon="34.7733702">
<ele>34.90</ele>
<time>2015-05-01T06:43:35Z</time>
</trkpt>
<trkpt lat="31.9073864" lon="34.7733758">
<ele>35.06</ele>
<time>2015-05-01T06:43:41Z</time>
</trkpt>
<trkpt lat="31.9071993" lon="34.7733794">
<ele>35.21</ele>
<time>2015-05-01T06:43:46Z</time>
</trkpt>
<trkpt lat="31.9069957" lon="34.7733839">
<ele>35.24</ele>
<time>2015-05-01T06:43:52Z</time>
</trkpt>
<trkpt lat="31.9068151" lon="34.7733895">
<ele>34.96</ele>
<time>2015-05-01T06:43:57Z</time>
</trkpt>
<trkpt lat="31.9066054" lon="34.7733928">
<ele>33.71</ele>
<time>2015-05-01T06:44:02Z</time>
</trkpt>
<trkpt lat="31.9063961" lon="34.7733969">
<ele>33.34</ele>
<time>2015-05-01T06:44:07Z</time>
</trkpt>
<trkpt lat="31.9061963" lon="34.7733925">
<ele>32.94</ele>
<time>2015-05-01T06:44:12Z</time>
</trkpt>
<trkpt lat="31.9059789" lon="34.7733847">
<ele>32.63</ele>
<time>2015-05-01T06:44:17Z</time>
</trkpt>
<trkpt lat="31.9057620" lon="34.7733687">
<ele>31.50</ele>
<time>2015-05-01T06:44:22Z</time>
</trkpt>
<trkpt lat="31.9055623" lon="34.7733446">
<ele>30.76</ele>
<time>2015-05-01T06:44:27Z</time>
</trkpt>
<trkpt lat="31.9053515" lon="34.7733443">
<ele>30.90</ele>
<time>2015-05-01T06:44:38Z</time>
</trkpt>
<trkpt lat="31.9051639" lon="34.7733025">
<ele>30.02</ele>
<time>2015-05-01T06:44:43Z</time>
</trkpt>
<trkpt lat="31.9049620" lon="34.7732702">
<ele>29.95</ele>
<time>2015-05-01T06:44:49Z</time>
</trkpt>
<trkpt lat="31.9047661" lon="34.7732443">
<ele>30.79</ele>
<time>2015-05-01T06:44:54Z</time>
</trkpt>
<trkpt lat="31.9045639" lon="34.7732124">
<ele>30.09</ele>
<time>2015-05-01T06:44:59Z</time>
</trkpt>
<trkpt lat="31.9043611" lon="34.7731819">
<ele>30.03</ele>
<time>2015-05-01T06:45:04Z</time>
</trkpt>
<trkpt lat="31.9041548" lon="34.7731514">
<ele>30.00</ele>
<time>2015-05-01T06:45:09Z</time>
</trkpt>
<trkpt lat="31.9039479" lon="34.7731178">
<ele>30.20</ele>
<time>2015-05-01T06:45:14Z</time>
</trkpt>
<trkpt lat="31.9037705" lon="34.7730774">
<ele>30.18</ele>
<time>2015-05-01T06:45:18Z</time>
</trkpt>
<trkpt lat="31.9035809" lon="34.7730422">
<ele>30.02</ele>
<time>2015-05-01T06:45:23Z</time>
</trkpt>
<trkpt lat="31.9033617" lon="34.7729886">
<ele>28.87</ele>
<time>2015-05-01T06:45:28Z</time>
</trkpt>
<trkpt lat="31.9031482" lon="34.7729455">
<ele>28.29</ele>
<time>2015-05-01T06:45:33Z</time>
</trkpt>
<trkpt lat="31.9029546" lon="34.7729044">
<ele>27.70</ele>
<time>2015-05-01T06:45:38Z</time>
</trkpt>
<trkpt lat="31.9027503" lon="34.7728410">
<ele>27.63</ele>
<time>2015-05-01T06:45:44Z</time>
</trkpt>
<trkpt lat="31.9026180" lon="34.7730036">
<ele>27.35</ele>
<time>2015-05-01T06:45:51Z</time>
</trkpt>
<trkpt lat="31.9026519" lon="34.7732224">
<ele>27.06</ele>
<time>2015-05-01T06:45:56Z</time>
</trkpt>
<trkpt lat="31.9026902" lon="34.7734389">
<ele>27.03</ele>
<time>2015-05-01T06:46:01Z</time>
</trkpt>
<trkpt lat="31.9027240" lon="34.7736804">
<ele>27.13</ele>
<time>2015-05-01T06:46:07Z</time>
</trkpt>
<trkpt lat="31.9027263" lon="34.7739082">
<ele>27.34</ele>
<time>2015-05-01T06:46:13Z</time>
</trkpt>
<trkpt lat="31.9027244" lon="34.7741388">
<ele>27.48</ele>
<time>2015-05-01T06:46:19Z</time>
</trkpt>
<trkpt lat="31.9027181" lon="34.7743828">
<ele>27.66</ele>
<time>2015-05-01T06:46:25Z</time>
</trkpt>
<trkpt lat="31.9027049" lon="34.7746005">
<ele>27.94</ele>
<time>2015-05-01T06:46:31Z</time>
</trkpt>
<trkpt lat="31.9027068" lon="34.7748324">
<ele>28.31</ele>
<time>2015-05-01T06:46:38Z</time>
</trkpt>
<trkpt lat="31.9027143" lon="34.7750521">
<ele>28.66</ele>
<time>2015-05-01T06:46:45Z</time>
</trkpt>
<trkpt lat="31.9025757" lon="34.7752167">
<ele>29.03</ele>
<time>2015-05-01T06:46:53Z</time>
</trkpt>
<trkpt lat="31.9024997" lon="34.7754246">
<ele>29.78</ele>
<time>2015-05-01T06:47:02Z</time>
</trkpt>
<trkpt lat="31.9025183" lon="34.7756411">
<ele>30.24</ele>
<time>2015-05-01T06:47:09Z</time>
</trkpt>
<trkpt lat="31.9023436" lon="34.7756952">
<ele>30.82</ele>
<time>2015-05-01T06:47:19Z</time>
</trkpt>
<trkpt lat="31.9021561" lon="34.7756761">
<ele>31.80</ele>
<time>2015-05-01T06:47:29Z</time>
</trkpt>
<trkpt lat="31.9021286" lon="34.7758951">
<ele>33.51</ele>
<time>2015-05-01T06:47:41Z</time>
</trkpt>
<trkpt lat="31.9021231" lon="34.7761111">
<ele>35.34</ele>
<time>2015-05-01T06:47:53Z</time>
</trkpt>
<trkpt lat="31.9021201" lon="34.7763287">
<ele>37.27</ele>
<time>2015-05-01T06:48:05Z</time>
</trkpt>
<trkpt lat="31.9021005" lon="34.7765401">
<ele>39.69</ele>
<time>2015-05-01T06:48:19Z</time>
</trkpt>
<trkpt lat="31.9020904" lon="34.7767614">
<ele>42.84</ele>
<time>2015-05-01T06:48:35Z</time>
</trkpt>
<trkpt lat="31.9021122" lon="34.7769760">
<ele>45.10</ele>
<time>2015-05-01T06:48:50Z</time>
</trkpt>
<trkpt lat="31.9021452" lon="34.7771995">
<ele>47.68</ele>
<time>2015-05-01T06:49:05Z</time>
</trkpt>
<trkpt lat="31.9021580" lon="34.7774191">
<ele>50.03</ele>
<time>2015-05-01T06:49:19Z</time>
</trkpt>
<trkpt lat="31.9021921" lon="34.7776280">
<ele>52.23</ele>
<time>2015-05-01T06:49:33Z</time>
</trkpt>
<trkpt lat="31.9022184" lon="34.7778477">
<ele>54.76</ele>
<time>2015-05-01T06:49:50Z</time>
</trkpt>
<trkpt lat="31.9023628" lon="34.7780057">
<ele>56.29</ele>
<time>2015-05-01T06:50:02Z</time>
</trkpt>
<trkpt lat="31.9023508" lon="34.7782337">
<ele>57.72</ele>
<time>2015-05-01T06:50:08Z</time>
</trkpt>
<trkpt lat="31.9022244" lon="34.7784171">
<ele>57.79</ele>
<time>2015-05-01T06:50:12Z</time>
</trkpt>
<trkpt lat="31.9020446" lon="34.7785150">
<ele>57.29</ele>
<time>2015-05-01T06:50:17Z</time>
</trkpt>
<trkpt lat="31.9018560" lon="34.7784650">
<ele>56.98</ele>
<time>2015-05-01T06:50:45Z</time>
</trkpt>
<trkpt lat="31.9017104" lon="34.7783315">
<ele>56.66</ele>
<time>2015-05-01T06:50:53Z</time>
</trkpt>
<trkpt lat="31.9015491" lon="34.7782024">
<ele>56.48</ele>
<time>2015-05-01T06:51:01Z</time>
</trkpt>
<trkpt lat="31.9013869" lon="34.7780899">
<ele>56.32</ele>
<time>2015-05-01T06:51:09Z</time>
</trkpt>
<trkpt lat="31.9012838" lon="34.7779160">
<ele>55.67</ele>
<time>2015-05-01T06:51:43Z</time>
</trkpt>
<trkpt lat="31.9012989" lon="34.7776951">
<ele>55.43</ele>
<time>2015-05-01T06:51:49Z</time>
</trkpt>
<trkpt lat="31.9013690" lon="34.7774678">
<ele>55.38</ele>
<time>2015-05-01T06:51:56Z</time>
</trkpt>
<trkpt lat="31.9013491" lon="34.7772493">
<ele>55.38</ele>
<time>2015-05-01T06:52:02Z</time>
</trkpt>
<trkpt lat="31.9012348" lon="34.7770418">
<ele>55.36</ele>
<time>2015-05-01T06:52:07Z</time>
</trkpt>
<trkpt lat="31.9011798" lon="34.7768002">
<ele>54.40</ele>
<time>2015-05-01T06:52:11Z</time>
</trkpt>
<trkpt lat="31.9011545" lon="34.7765335">
<ele>52.40</ele>
<time>2015-05-01T06:52:15Z</time>
</trkpt>
<trkpt lat="31.9010686" lon="34.7762779">
<ele>50.38</ele>
<time>2015-05-01T06:52:18Z</time>
</trkpt>
<trkpt lat="31.9009705" lon="34.7760743">
<ele>48.03</ele>
<time>2015-05-01T06:52:21Z</time>
</trkpt>
<trkpt lat="31.9007895" lon="34.7760148">
<ele>45.40</ele>
<time>2015-05-01T06:52:25Z</time>
</trkpt>
<trkpt lat="31.9006087" lon="34.7761120">
<ele>43.41</ele>
<time>2015-05-01T06:52:28Z</time>
</trkpt>
<trkpt lat="31.9004397" lon="34.7762461">
<ele>41.88</ele>
<time>2015-05-01T06:52:31Z</time>
</trkpt>
<trkpt lat="31.9003460" lon="34.7764522">
<ele>40.17</ele>
<time>2015-05-01T06:52:35Z</time>
</trkpt>
<trkpt lat="31.9003877" lon="34.7766759">
<ele>39.63</ele>
<time>2015-05-01T06:52:42Z</time>
</trkpt>
<trkpt lat="31.9004309" lon="34.7768967">
<ele>40.04</ele>
<time>2015-05-01T06:52:49Z</time>
</trkpt>
<trkpt lat="31.9005006" lon="34.7770958">
<ele>40.85</ele>
<time>2015-05-01T06:52:58Z</time>
</trkpt>
<trkpt lat="31.9005517" lon="34.7773584">
<ele>40.88</ele>
<time>2015-05-01T06:53:03Z</time>
</trkpt>
<trkpt lat="31.9005293" lon="34.7776121">
<ele>39.58</ele>
<time>2015-05-01T06:53:08Z</time>
</trkpt>
<trkpt lat="31.9004917" lon="34.7778303">
<ele>40.38</ele>
<time>2015-05-01T06:53:13Z</time>
</trkpt>
<trkpt lat="31.9005282" lon="34.7780650">
<ele>40.67</ele>
<time>2015-05-01T06:53:20Z</time>
</trkpt>
<trkpt lat="31.9005927" lon="34.7782845">
<ele>40.29</ele>
<time>2015-05-01T06:53:25Z</time>
</trkpt>
<trkpt lat="31.9007087" lon="34.7784519">
<ele>40.03</ele>
<time>2015-05-01T06:53:31Z</time>
</trkpt>
<trkpt lat="31.9008200" lon="34.7786284">
<ele>40.10</ele>
<time>2015-05-01T06:53:37Z</time>
</trkpt>
<trkpt lat="31.9008945" lon="34.7788266">
<ele>40.20</ele>
<time>2015-05-01T06:53:42Z</time>
</trkpt>
<trkpt lat="31.9009602" lon="34.7790296">
<ele>40.51</ele>
<time>2015-05-01T06:53:47Z</time>
</trkpt>
<trkpt lat="31.9009157" lon="34.7792399">
<ele>40.70</ele>
<time>2015-05-01T06:53:54Z</time>
</trkpt>
<trkpt lat="31.9008346" lon="34.7794324">
<ele>41.14</ele>
<time>2015-05-01T06:54:18Z</time>
</trkpt>
<trkpt lat="31.9007653" lon="34.7796528">
<ele>41.29</ele>
<time>2015-05-01T06:54:26Z</time>
</trkpt>
<trkpt lat="31.9007037" lon="34.7798654">
<ele>41.40</ele>
<time>2015-05-01T06:54:33Z</time>
</trkpt>
<trkpt lat="31.9006498" lon="34.7800937">
<ele>41.55</ele>
<time>2015-05-01T06:54:41Z</time>
</trkpt>
<trkpt lat="31.9006227" lon="34.7803087">
<ele>41.81</ele>
<time>2015-05-01T06:54:49Z</time>
</trkpt>
<trkpt lat="31.9005736" lon="34.7805250">
<ele>42.04</ele>
<time>2015-05-01T06:54:56Z</time>
</trkpt>
<trkpt lat="31.9005268" lon="34.7807447">
<ele>42.45</ele>
<time>2015-05-01T06:55:04Z</time>
</trkpt>
<trkpt lat="31.9004825" lon="34.7809648">
<ele>42.93</ele>
<time>2015-05-01T06:55:11Z</time>
</trkpt>
<trkpt lat="31.9004357" lon="34.7811831">
<ele>43.28</ele>
<time>2015-05-01T06:55:17Z</time>
</trkpt>
<trkpt lat="31.9003767" lon="34.7814094">
<ele>43.60</ele>
<time>2015-05-01T06:55:24Z</time>
</trkpt>
<trkpt lat="31.9003246" lon="34.7816328">
<ele>43.63</ele>
<time>2015-05-01T06:55:32Z</time>
</trkpt>
<trkpt lat="31.9004641" lon="34.7817844">
<ele>43.74</ele>
<time>2015-05-01T06:55:38Z</time>
</trkpt>
<trkpt lat="31.9006029" lon="34.7819409">
<ele>44.12</ele>
<time>2015-05-01T06:55:44Z</time>
</trkpt>
<trkpt lat="31.9007544" lon="34.7821051">
<ele>44.30</ele>
<time>2015-05-01T06:55:51Z</time>
</trkpt>
<trkpt lat="31.9008944" lon="34.7822703">
<ele>44.72</ele>
<time>2015-05-01T06:55:58Z</time>
</trkpt>
<trkpt lat="31.9010248" lon="34.7824421">
<ele>45.06</ele>
<time>2015-05-01T06:56:05Z</time>
</trkpt>
<trkpt lat="31.9009952" lon="34.7826629">
<ele>45.56</ele>
<time>2015-05-01T06:56:12Z</time>
</trkpt>
<trkpt lat="31.9009729" lon="34.7828801">
<ele>45.97</ele>
<time>2015-05-01T06:56:20Z</time>
</trkpt>
<trkpt lat="31.9011285" lon="34.7830114">
<ele>46.28</ele>
<time>2015-05-01T06:56:28Z</time>
</trkpt>
<trkpt lat="31.9013080" lon="34.7831266">
<ele>46.55</ele>
<time>2015-05-01T06:56:34Z</time>
</trkpt>
<trkpt lat="31.9014768" lon="34.7832799">
<ele>46.15</ele>
<time>2015-05-01T06:56:39Z</time>
</trkpt>
<trkpt lat="31.9016223" lon="34.7834467">
<ele>46.77</ele>
<time>2015-05-01T06:56:44Z</time>
</trkpt>
<trkpt lat="31.9017409" lon="34.7836202">
<ele>47.61</ele>
<time>2015-05-01T06:56:49Z</time>
</trkpt>
<trkpt lat="31.9018544" lon="34.7838096">
<ele>47.76</ele>
<time>2015-05-01T06:56:55Z</time>
</trkpt>
<trkpt lat="31.9019607" lon="34.7839962">
<ele>47.99</ele>
<time>2015-05-01T06:57:01Z</time>
</trkpt>
<trkpt lat="31.9020650" lon="34.7841879">
<ele>48.18</ele>
<time>2015-05-01T06:57:07Z</time>
</trkpt>
<trkpt lat="31.9021642" lon="34.7843978">
<ele>48.35</ele>
<time>2015-05-01T06:57:13Z</time>
</trkpt>
<trkpt lat="31.9022418" lon="34.7845928">
<ele>48.85</ele>
<time>2015-05-01T06:57:18Z</time>
</trkpt>
<trkpt lat="31.9023333" lon="34.7847819">
<ele>49.89</ele>
<time>2015-05-01T06:57:22Z</time>
</trkpt>
<trkpt lat="31.9024595" lon="34.7849864">
<ele>50.78</ele>
<time>2015-05-01T06:57:27Z</time>
</trkpt>
<trkpt lat="31.9025901" lon="34.7851465">
<ele>50.58</ele>
<time>2015-05-01T06:57:31Z</time>
</trkpt>
<trkpt lat="31.9027183" lon="34.7853638">
<ele>50.75</ele>
<time>2015-05-01T06:57:36Z</time>
</trkpt>
<trkpt lat="31.9028583" lon="34.7855446">
<ele>50.00</ele>
<time>2015-05-01T06:57:41Z</time>
</trkpt>
<trkpt lat="31.9030294" lon="34.7856757">
<ele>48.89</ele>
<time>2015-05-01T06:58:03Z</time>
</trkpt>
<trkpt lat="31.9031218" lon="34.7858683">
<ele>48.60</ele>
<time>2015-05-01T06:58:10Z</time>
</trkpt>
<trkpt lat="31.9032262" lon="34.7860921">
<ele>48.33</ele>
<time>2015-05-01T06:58:17Z</time>
</trkpt>
<trkpt lat="31.9033276" lon="34.7862886">
<ele>48.17</ele>
<time>2015-05-01T06:58:23Z</time>
</trkpt>
<trkpt lat="31.9034359" lon="34.7864683">
<ele>47.99</ele>
<time>2015-05-01T06:58:30Z</time>
</trkpt>
<trkpt lat="31.9035787" lon="34.7866396">
<ele>47.59</ele>
<time>2015-05-01T06:58:39Z</time>
</trkpt>
<trkpt lat="31.9036926" lon="34.7868172">
<ele>47.34</ele>
<time>2015-05-01T06:58:47Z</time>
</trkpt>
<trkpt lat="31.9037525" lon="34.7870276">
<ele>47.27</ele>
<time>2015-05-01T06:58:54Z</time>
</trkpt>
<trkpt lat="31.9037913" lon="34.7872514">
<ele>47.20</ele>
<time>2015-05-01T06:59:00Z</time>
</trkpt>
<trkpt lat="31.9038734" lon="34.7874611">
<ele>47.13</ele>
<time>2015-05-01T06:59:06Z</time>
</trkpt>
<trkpt lat="31.9039737" lon="34.7876449">
<ele>46.94</ele>
<time>2015-05-01T06:59:15Z</time>
</trkpt>
<trkpt lat="31.9040886" lon="34.7878218">
<ele>46.71</ele>
<time>2015-05-01T06:59:21Z</time>
</trkpt>
<trkpt lat="31.9042166" lon="34.7880088">
<ele>46.64</ele>
<time>2015-05-01T06:59:29Z</time>
</trkpt>
<trkpt lat="31.9043546" lon="34.7881868">
<ele>46.75</ele>
<time>2015-05-01T06:59:39Z</time>
</trkpt>
<trkpt lat="31.9044158" lon="34.7883960">
<ele>46.74</ele>
<time>2015-05-01T06:59:45Z</time>
</trkpt>
<trkpt lat="31.9043772" lon="34.7886572">
<ele>46.23</ele>
<time>2015-05-01T06:59:51Z</time>
</trkpt>
<trkpt lat="31.9044669" lon="34.7888636">
<ele>46.06</ele>
<time>2015-05-01T06:59:55Z</time>
</trkpt>
<trkpt lat="31.9045711" lon="34.7890592">
<ele>45.94</ele>
<time>2015-05-01T06:59:59Z</time>
</trkpt>
<trkpt lat="31.9046872" lon="34.7892875">
<ele>45.67</ele>
<time>2015-05-01T07:00:04Z</time>
</trkpt>
<trkpt lat="31.9048049" lon="34.7894711">
<ele>45.94</ele>
<time>2015-05-01T07:00:09Z</time>
</trkpt>
<trkpt lat="31.9048986" lon="34.7896627">
<ele>45.64</ele>
<time>2015-05-01T07:00:14Z</time>
</trkpt>
<trkpt lat="31.9049988" lon="34.7898417">
<ele>45.20</ele>
<time>2015-05-01T07:00:19Z</time>
</trkpt>
<trkpt lat="31.9051642" lon="34.7899724">
<ele>45.18</ele>
<time>2015-05-01T07:00:25Z</time>
</trkpt>
<trkpt lat="31.9053370" lon="34.7900496">
<ele>45.14</ele>
<time>2015-05-01T07:00:31Z</time>
</trkpt>
<trkpt lat="31.9055257" lon="34.7900579">
<ele>45.19</ele>
<time>2015-05-01T07:00:36Z</time>
</trkpt>
<trkpt lat="31.9057150" lon="34.7901084">
<ele>45.36</ele>
<time>2015-05-01T07:00:43Z</time>
</trkpt>
<trkpt lat="31.9056670" lon="34.7903433">
<ele>45.48</ele>
<time>2015-05-01T07:00:50Z</time>
</trkpt>
<trkpt lat="31.9056218" lon="34.7905728">
<ele>45.49</ele>
<time>2015-05-01T07:00:56Z</time>
</trkpt>
<trkpt lat="31.9056443" lon="34.7907836">
<ele>45.52</ele>
<time>2015-05-01T07:01:01Z</time>
</trkpt>
<trkpt lat="31.9057431" lon="34.7909807">
<ele>45.60</ele>
<time>2015-05-01T07:01:09Z</time>
</trkpt>
<trkpt lat="31.9058043" lon="34.7912096">
<ele>45.83</ele>
<time>2015-05-01T07:01:18Z</time>
</trkpt>
<trkpt lat="31.9058033" lon="34.7914492">
<ele>46.12</ele>
<time>2015-05-01T07:01:27Z</time>
</trkpt>
<trkpt lat="31.9058063" lon="34.7916634">
<ele>46.42</ele>
<time>2015-05-01T07:01:35Z</time>
</trkpt>
<trkpt lat="31.9058670" lon="34.7918942">
<ele>46.62</ele>
<time>2015-05-01T07:01:42Z</time>
</trkpt>
<trkpt lat="31.9059648" lon="34.7920741">
<ele>46.90</ele>
<time>2015-05-01T07:01:47Z</time>
</trkpt>
<trkpt lat="31.9060711" lon="34.7922722">
<ele>47.18</ele>
<time>2015-05-01T07:01:53Z</time>
</trkpt>
<trkpt lat="31.9061990" lon="34.7924227">
<ele>47.38</ele>
<time>2015-05-01T07:02:00Z</time>
</trkpt>
<trkpt lat="31.9063877" lon="34.7924363">
<ele>47.75</ele>
<time>2015-05-01T07:02:07Z</time>
</trkpt>
<trkpt lat="31.9065870" lon="34.7925013">
<ele>48.21</ele>
<time>2015-05-01T07:02:14Z</time>
</trkpt>
<trkpt lat="31.9067482" lon="34.7926457">
<ele>48.70</ele>
<time>2015-05-01T07:02:21Z</time>
</trkpt>
<trkpt lat="31.9068914" lon="34.7927880">
<ele>49.11</ele>
<time>2015-05-01T07:02:27Z</time>
</trkpt>
<trkpt lat="31.9069342" lon="34.7930193">
<ele>49.62</ele>
<time>2015-05-01T07:02:36Z</time>
</trkpt>
<trkpt lat="31.9070746" lon="34.7931669">
<ele>49.83</ele>
<time>2015-05-01T07:02:43Z</time>
</trkpt>
<trkpt lat="31.9072452" lon="34.7932939">
<ele>50.13</ele>
<time>2015-05-01T07:02:49Z</time>
</trkpt>
<trkpt lat="31.9073550" lon="34.7934876">
<ele>50.19</ele>
<time>2015-05-01T07:02:55Z</time>
</trkpt>
<trkpt lat="31.9075468" lon="34.7935760">
<ele>50.32</ele>
<time>2015-05-01T07:03:01Z</time>
</trkpt>
<trkpt lat="31.9077538" lon="34.7936217">
<ele>51.14</ele>
<time>2015-05-01T07:03:06Z</time>
</trkpt>
<trkpt lat="31.9079431" lon="34.7936868">
<ele>51.24</ele>
<time>2015-05-01T07:03:11Z</time>
</trkpt>
<trkpt lat="31.9081248" lon="34.7937102">
<ele>50.64</ele>
<time>2015-05-01T07:03:15Z</time>
</trkpt>
<trkpt lat="31.9083075" lon="34.7937471">
<ele>49.92</ele>
<time>2015-05-01T07:03:19Z</time>
</trkpt>
<trkpt lat="31.9084948" lon="34.7938623">
<ele>49.54</ele>
<time>2015-05-01T07:03:23Z</time>
</trkpt>
<trkpt lat="31.9086918" lon="34.7938114">
<ele>49.08</ele>
<time>2015-05-01T07:03:27Z</time>
</trkpt>
<trkpt lat="31.9088767" lon="34.7938158">
<ele>48.37</ele>
<time>2015-05-01T07:03:31Z</time>
</trkpt>
<trkpt lat="31.9090712" lon="34.7938522">
<ele>47.25</ele>
<time>2015-05-01T07:03:35Z</time>
</trkpt>
<trkpt lat="31.9092832" lon="34.7938616">
<ele>47.79</ele>
<time>2015-05-01T07:03:40Z</time>
</trkpt>
<trkpt lat="31.9094499" lon="34.7939458">
<ele>48.31</ele>
<time>2015-05-01T07:03:44Z</time>
</trkpt>
<trkpt lat="31.9096256" lon="34.7940668">
<ele>47.86</ele>
<time>2015-05-01T07:03:49Z</time>
</trkpt>
<trkpt lat="31.9098088" lon="34.7941575">
<ele>47.11</ele>
<time>2015-05-01T07:03:54Z</time>
</trkpt>
<trkpt lat="31.9100150" lon="34.7942179">
<ele>46.71</ele>
<time>2015-05-01T07:03:59Z</time>
</trkpt>
<trkpt lat="31.9102292" lon="34.7942815">
<ele>46.57</ele>
<time>2015-05-01T07:04:04Z</time>
</trkpt>
<trkpt lat="31.9104365" lon="34.7943766">
<ele>45.76</ele>
<time>2015-05-01T07:04:09Z</time>
</trkpt>
<trkpt lat="31.9106354" lon="34.7944640">
<ele>45.19</ele>
<time>2015-05-01T07:04:14Z</time>
</trkpt>
<trkpt lat="31.9108299" lon="34.7945628">
<ele>44.78</ele>
<time>2015-05-01T07:04:20Z</time>
</trkpt>
<trkpt lat="31.9109913" lon="34.7946671">
<ele>44.72</ele>
<time>2015-05-01T07:04:25Z</time>
</trkpt>
<trkpt lat="31.9111644" lon="34.7947973">
<ele>45.05</ele>
<time>2015-05-01T07:04:31Z</time>
</trkpt>
<trkpt lat="31.9113269" lon="34.7948954">
<ele>45.30</ele>
<time>2015-05-01T07:04:38Z</time>
</trkpt>
<trkpt lat="31.9115055" lon="34.7949206">
<ele>46.94</ele>
<time>2015-05-01T07:05:08Z</time>
</trkpt>
<trkpt lat="31.9114880" lon="34.7951400">
<ele>46.99</ele>
<time>2015-05-01T07:05:16Z</time>
</trkpt>
<trkpt lat="31.9115578" lon="34.7953674">
<ele>47.00</ele>
<time>2015-05-01T07:05:29Z</time>
</trkpt>
<trkpt lat="31.9117052" lon="34.7955121">
<ele>46.92</ele>
<time>2015-05-01T07:05:40Z</time>
</trkpt>
<trkpt lat="31.9118747" lon="34.7955933">
<ele>46.93</ele>
<time>2015-05-01T07:05:49Z</time>
</trkpt>
<trkpt lat="31.9120249" lon="34.7957286">
<ele>46.90</ele>
<time>2015-05-01T07:05:55Z</time>
</trkpt>
<trkpt lat="31.9121523" lon="34.7959140">
<ele>46.49</ele>
<time>2015-05-01T07:06:00Z</time>
</trkpt>
<trkpt lat="31.9122565" lon="34.7960972">
<ele>45.91</ele>
<time>2015-05-01T07:06:04Z</time>
</trkpt>
<trkpt lat="31.9123366" lon="34.7962899">
<ele>45.68</ele>
<time>2015-05-01T07:06:08Z</time>
</trkpt>
<trkpt lat="31.9124312" lon="34.7965188">
<ele>45.89</ele>
<time>2015-05-01T07:06:13Z</time>
</trkpt>
<trkpt lat="31.9125112" lon="34.7967367">
<ele>45.95</ele>
<time>2015-05-01T07:06:17Z</time>
</trkpt>
<trkpt lat="31.9125159" lon="34.7969823">
<ele>45.71</ele>
<time>2015-05-01T07:06:21Z</time>
</trkpt>
<trkpt lat="31.9124270" lon="34.7971716">
<ele>44.13</ele>
<time>2015-05-01T07:06:24Z</time>
</trkpt>
<trkpt lat="31.9123398" lon="34.7973894">
<ele>42.28</ele>
<time>2015-05-01T07:06:27Z</time>
</trkpt>
<trkpt lat="31.9122820" lon="34.7976238">
<ele>41.49</ele>
<time>2015-05-01T07:06:30Z</time>
</trkpt>
<trkpt lat="31.9122977" lon="34.7978535">
<ele>41.53</ele>
<time>2015-05-01T07:06:33Z</time>
</trkpt>
<trkpt lat="31.9124247" lon="34.7980185">
<ele>41.81</ele>
<time>2015-05-01T07:06:36Z</time>
</trkpt>
<trkpt lat="31.9125901" lon="34.7981909">
<ele>41.08</ele>
<time>2015-05-01T07:06:40Z</time>
</trkpt>
<trkpt lat="31.9125870" lon="34.7984455">
<ele>39.73</ele>
<time>2015-05-01T07:06:44Z</time>
</trkpt>
<trkpt lat="31.9125084" lon="34.7986620">
<ele>38.37</ele>
<time>2015-05-01T07:06:48Z</time>
</trkpt>
<trkpt lat="31.9124464" lon="34.7988651">
<ele>38.17</ele>
<time>2015-05-01T07:06:52Z</time>
</trkpt>
<trkpt lat="31.9123769" lon="34.7991098">
<ele>41.32</ele>
<time>2015-05-01T07:06:57Z</time>
</trkpt>
<trkpt lat="31.9123108" lon="34.7993114">
<ele>42.83</ele>
<time>2015-05-01T07:07:02Z</time>
</trkpt>
<trkpt lat="31.9122390" lon="34.7995092">
<ele>43.21</ele>
<time>2015-05-01T07:07:08Z</time>
</trkpt>
<trkpt lat="31.9121751" lon="34.7997235">
<ele>43.59</ele>
<time>2015-05-01T07:07:18Z</time>
</trkpt>
<trkpt lat="31.9120927" lon="34.7999253">
<ele>44.00</ele>
<time>2015-05-01T07:07:25Z</time>
</trkpt>
<trkpt lat="31.9120264" lon="34.8001757">
<ele>45.07</ele>
<time>2015-05-01T07:07:30Z</time>
</trkpt>
<trkpt lat="31.9119829" lon="34.8003830">
<ele>45.09</ele>
<time>2015-05-01T07:07:33Z</time>
</trkpt>
<trkpt lat="31.9119513" lon="34.8006055">
<ele>44.43</ele>
<time>2015-05-01T07:07:36Z</time>
</trkpt>
<trkpt lat="31.9119340" lon="34.8008380">
<ele>43.14</ele>
<time>2015-05-01T07:07:39Z</time>
</trkpt>
<trkpt lat="31.9119273" lon="34.8010765">
<ele>42.28</ele>
<time>2015-05-01T07:07:42Z</time>
</trkpt>
<trkpt lat="31.9119332" lon="34.8012964">
<ele>41.01</ele>
<time>2015-05-01T07:07:45Z</time>
</trkpt>
<trkpt lat="31.9119493" lon="34.8015193">
<ele>39.84</ele>
<time>2015-05-01T07:07:48Z</time>
</trkpt>
<trkpt lat="31.9119394" lon="34.8017322">
<ele>39.08</ele>
<time>2015-05-01T07:07:51Z</time>
</trkpt>
<trkpt lat="31.9119103" lon="34.8019416">
<ele>38.50</ele>
<time>2015-05-01T07:07:54Z</time>
</trkpt>
<trkpt lat="31.9118246" lon="34.8021487">
<ele>38.66</ele>
<time>2015-05-01T07:07:58Z</time>
</trkpt>
<trkpt lat="31.9116641" lon="34.8022700">
<ele>38.74</ele>
<time>2015-05-01T07:08:05Z</time>
</trkpt>
<trkpt lat="31.9116093" lon="34.8024730">
<ele>39.32</ele>
<time>2015-05-01T07:09:25Z</time>
</trkpt>
<trkpt lat="31.9114539" lon="34.8025995">
<ele>39.01</ele>
<time>2015-05-01T07:09:37Z</time>
</trkpt>
<trkpt lat="31.9116043" lon="34.8027402">
<ele>39.85</ele>
<time>2015-05-01T07:10:00Z</time>
</trkpt>
<trkpt lat="31.9117663" lon="34.8028662">
<ele>40.08</ele>
<time>2015-05-01T07:10:06Z</time>
</trkpt>
<trkpt lat="31.9119071" lon="34.8030552">
<ele>39.94</ele>
<time>2015-05-01T07:10:26Z</time>
</trkpt>
<trkpt lat="31.9120155" lon="34.8032575">
<ele>39.68</ele>
<time>2015-05-01T07:10:35Z</time>
</trkpt>
<trkpt lat="31.9121154" lon="34.8034479">
<ele>39.41</ele>
<time>2015-05-01T07:10:45Z</time>
</trkpt>
<trkpt lat="31.9122218" lon="34.8036255">
<ele>39.24</ele>
<time>2015-05-01T07:10:51Z</time>
</trkpt>
<trkpt lat="31.9123353" lon="34.8037950">
<ele>39.42</ele>
<time>2015-05-01T07:10:57Z</time>
</trkpt>
<trkpt lat="31.9124393" lon="34.8039724">
<ele>39.57</ele>
<time>2015-05-01T07:11:04Z</time>
</trkpt>
<trkpt lat="31.9125398" lon="34.8041737">
<ele>39.52</ele>
<time>2015-05-01T07:11:13Z</time>
</trkpt>
<trkpt lat="31.9125896" lon="34.8043982">
<ele>45.07</ele>
<time>2015-05-01T07:12:33Z</time>
</trkpt>
<trkpt lat="31.9126473" lon="34.8046314">
<ele>52.70</ele>
<time>2015-05-01T07:12:41Z</time>
</trkpt>
<trkpt lat="31.9126940" lon="34.8048678">
<ele>57.76</ele>
<time>2015-05-01T07:12:49Z</time>
</trkpt>
<trkpt lat="31.9128419" lon="34.8050519">
<ele>59.38</ele>
<time>2015-05-01T07:12:54Z</time>
</trkpt>
<trkpt lat="31.9129953" lon="34.8052026">
<ele>59.04</ele>
<time>2015-05-01T07:13:00Z</time>
</trkpt>
<trkpt lat="31.9130825" lon="34.8054258">
<ele>51.46</ele>
<time>2015-05-01T07:13:07Z</time>
</trkpt>
<trkpt lat="31.9131486" lon="34.8056270">
<ele>53.26</ele>
<time>2015-05-01T07:13:11Z</time>
</trkpt>
<trkpt lat="31.9132051" lon="34.8058321">
<ele>57.94</ele>
<time>2015-05-01T07:13:15Z</time>
</trkpt>
<trkpt lat="31.9132830" lon="34.8060551">
<ele>56.04</ele>
<time>2015-05-01T07:13:20Z</time>
</trkpt>
<trkpt lat="31.9133694" lon="34.8062497">
<ele>52.59</ele>
<time>2015-05-01T07:13:24Z</time>
</trkpt>
<trkpt lat="31.9134544" lon="34.8064490">
<ele>49.57</ele>
<time>2015-05-01T07:13:28Z</time>
</trkpt>
<trkpt lat="31.9135394" lon="34.8066455">
<ele>45.25</ele>
<time>2015-05-01T07:13:32Z</time>
</trkpt>
<trkpt lat="31.9136240" lon="34.8068690">
<ele>42.36</ele>
<time>2015-05-01T07:13:37Z</time>
</trkpt>
<trkpt lat="31.9136888" lon="34.8070810">
<ele>40.04</ele>
<time>2015-05-01T07:13:41Z</time>
</trkpt>
<trkpt lat="31.9137744" lon="34.8073089">
<ele>38.36</ele>
<time>2015-05-01T07:13:46Z</time>
</trkpt>
<trkpt lat="31.9138304" lon="34.8075546">
<ele>38.21</ele>
<time>2015-05-01T07:13:51Z</time>
</trkpt>
<trkpt lat="31.9138887" lon="34.8077653">
<ele>39.55</ele>
<time>2015-05-01T07:13:56Z</time>
</trkpt>
<trkpt lat="31.9139346" lon="34.8079756">
<ele>39.94</ele>
<time>2015-05-01T07:14:01Z</time>
</trkpt>
<trkpt lat="31.9141328" lon="34.8079894">
<ele>39.90</ele>
<time>2015-05-01T07:14:09Z</time>
</trkpt>
<trkpt lat="31.9143139" lon="34.8079445">
<ele>40.50</ele>
<time>2015-05-01T07:14:15Z</time>
</trkpt>
<trkpt lat="31.9144936" lon="34.8078904">
<ele>44.87</ele>
<time>2015-05-01T07:14:21Z</time>
</trkpt>
<trkpt lat="31.9146837" lon="34.8078558">
<ele>46.15</ele>
<time>2015-05-01T07:14:29Z</time>
</trkpt>
<trkpt lat="31.9148590" lon="34.8077857">
<ele>47.14</ele>
<time>2015-05-01T07:15:44Z</time>
</trkpt>
<trkpt lat="31.9150342" lon="34.8078654">
<ele>50.10</ele>
<time>2015-05-01T07:23:03Z</time>
</trkpt>
<trkpt lat="31.9148589" lon="34.8078130">
<ele>50.39</ele>
<time>2015-05-01T07:23:26Z</time>
</trkpt>
<trkpt lat="31.9148923" lon="34.8076013">
<ele>49.51</ele>
<time>2015-05-01T07:26:04Z</time>
</trkpt>
<trkpt lat="31.9150175" lon="34.8077668">
<ele>49.64</ele>
<time>2015-05-01T07:40:50Z</time>
</trkpt>
<trkpt lat="31.9152035" lon="34.8077833">
<ele>48.82</ele>
<time>2015-05-01T07:43:13Z</time>
</trkpt>
<trkpt lat="31.9153862" lon="34.8078085">
<ele>48.94</ele>
<time>2015-05-01T07:43:20Z</time>
</trkpt>
<trkpt lat="31.9155573" lon="34.8079234">
<ele>48.60</ele>
<time>2015-05-01T07:43:26Z</time>
</trkpt>
<trkpt lat="31.9155945" lon="34.8081323">
<ele>48.31</ele>
<time>2015-05-01T07:43:32Z</time>
</trkpt>
<trkpt lat="31.9155845" lon="34.8083651">
<ele>48.53</ele>
<time>2015-05-01T07:43:39Z</time>
</trkpt>
<trkpt lat="31.9155630" lon="34.8085858">
<ele>48.92</ele>
<time>2015-05-01T07:43:47Z</time>
</trkpt>
<trkpt lat="31.9157330" lon="34.8086798">
<ele>49.47</ele>
<time>2015-05-01T07:43:55Z</time>
</trkpt>
<trkpt lat="31.9159135" lon="34.8086817">
<ele>50.36</ele>
<time>2015-05-01T07:44:05Z</time>
</trkpt>
<trkpt lat="31.9161082" lon="34.8086599">
<ele>50.76</ele>
<time>2015-05-01T07:44:12Z</time>
</trkpt>
<trkpt lat="31.9163025" lon="34.8086686">
<ele>51.30</ele>
<time>2015-05-01T07:44:20Z</time>
</trkpt>
<trkpt lat="31.9164852" lon="34.8086935">
<ele>51.72</ele>
<time>2015-05-01T07:44:26Z</time>
</trkpt>
<trkpt lat="31.9167142" lon="34.8087225">
<ele>51.71</ele>
<time>2015-05-01T07:44:30Z</time>
</trkpt>
<trkpt lat="31.9169210" lon="34.8087776">
<ele>50.16</ele>
<time>2015-05-01T07:44:33Z</time>
</trkpt>
<trkpt lat="31.9171550" lon="34.8087166">
<ele>49.03</ele>
<time>2015-05-01T07:44:36Z</time>
</trkpt>
<trkpt lat="31.9173481" lon="34.8085505">
<ele>46.79</ele>
<time>2015-05-01T07:44:39Z</time>
</trkpt>
<trkpt lat="31.9175187" lon="34.8084144">
<ele>44.46</ele>
<time>2015-05-01T07:44:42Z</time>
</trkpt>
<trkpt lat="31.9177393" lon="34.8084158">
<ele>42.86</ele>
<time>2015-05-01T07:44:45Z</time>
</trkpt>
<trkpt lat="31.9179651" lon="34.8084735">
<ele>42.62</ele>
<time>2015-05-01T07:44:48Z</time>
</trkpt>
<trkpt lat="31.9181727" lon="34.8085621">
<ele>42.22</ele>
<time>2015-05-01T07:44:52Z</time>
</trkpt>
<trkpt lat="31.9183612" lon="34.8086611">
<ele>41.15</ele>
<time>2015-05-01T07:44:56Z</time>
</trkpt>
<trkpt lat="31.9185355" lon="34.8087698">
<ele>40.55</ele>
<time>2015-05-01T07:45:00Z</time>
</trkpt>
<trkpt lat="31.9187132" lon="34.8088826">
<ele>40.15</ele>
<time>2015-05-01T07:45:04Z</time>
</trkpt>
<trkpt lat="31.9188897" lon="34.8090168">
<ele>40.68</ele>
<time>2015-05-01T07:45:09Z</time>
</trkpt>
<trkpt lat="31.9190456" lon="34.8091604">
<ele>40.70</ele>
<time>2015-05-01T07:45:14Z</time>
</trkpt>
<trkpt lat="31.9192175" lon="34.8092978">
<ele>41.23</ele>
<time>2015-05-01T07:45:19Z</time>
</trkpt>
<trkpt lat="31.9193950" lon="34.8094286">
<ele>40.96</ele>
<time>2015-05-01T07:45:24Z</time>
</trkpt>
<trkpt lat="31.9195668" lon="34.8095470">
<ele>41.00</ele>
<time>2015-05-01T07:45:31Z</time>
</trkpt>
<trkpt lat="31.9197566" lon="34.8095731">
<ele>40.77</ele>
<time>2015-05-01T07:45:37Z</time>
</trkpt>
<trkpt lat="31.9198832" lon="34.8097720">
<ele>40.73</ele>
<time>2015-05-01T07:45:47Z</time>
</trkpt>
<trkpt lat="31.9200218" lon="34.8099589">
<ele>40.86</ele>
<time>2015-05-01T07:45:53Z</time>
</trkpt>
<trkpt lat="31.9201190" lon="34.8101427">
<ele>41.03</ele>
<time>2015-05-01T07:45:58Z</time>
</trkpt>
<trkpt lat="31.9201773" lon="34.8103791">
<ele>41.72</ele>
<time>2015-05-01T07:46:04Z</time>
</trkpt>
<trkpt lat="31.9201634" lon="34.8106320">
<ele>41.95</ele>
<time>2015-05-01T07:46:10Z</time>
</trkpt>
<trkpt lat="31.9201423" lon="34.8108617">
<ele>42.49</ele>
<time>2015-05-01T07:46:15Z</time>
</trkpt>
<trkpt lat="31.9201143" lon="34.8110887">
<ele>42.36</ele>
<time>2015-05-01T07:46:20Z</time>
</trkpt>
<trkpt lat="31.9200894" lon="34.8113037">
<ele>42.92</ele>
<time>2015-05-01T07:46:25Z</time>
</trkpt>
<trkpt lat="31.9200532" lon="34.8115490">
<ele>42.98</ele>
<time>2015-05-01T07:46:31Z</time>
</trkpt>
<trkpt lat="31.9200052" lon="34.8117772">
<ele>43.05</ele>
<time>2015-05-01T07:46:37Z</time>
</trkpt>
<trkpt lat="31.9201649" lon="34.8119117">
<ele>43.13</ele>
<time>2015-05-01T07:46:44Z</time>
</trkpt>
<trkpt lat="31.9203585" lon="34.8119321">
<ele>44.26</ele>
<time>2015-05-01T07:46:49Z</time>
</trkpt>
<trkpt lat="31.9205626" lon="34.8119521">
<ele>44.94</ele>
<time>2015-05-01T07:46:54Z</time>
</trkpt>
<trkpt lat="31.9207105" lon="34.8120913">
<ele>45.04</ele>
<time>2015-05-01T07:47:01Z</time>
</trkpt>
<trkpt lat="31.9206952" lon="34.8123100">
<ele>44.98</ele>
<time>2015-05-01T07:47:07Z</time>
</trkpt>
<trkpt lat="31.9206897" lon="34.8125349">
<ele>45.01</ele>
<time>2015-05-01T07:47:13Z</time>
</trkpt>
<trkpt lat="31.9206710" lon="34.8127691">
<ele>45.09</ele>
<time>2015-05-01T07:47:19Z</time>
</trkpt>
<trkpt lat="31.9206467" lon="34.8129962">
<ele>45.18</ele>
<time>2015-05-01T07:47:25Z</time>
</trkpt>
<trkpt lat="31.9206252" lon="34.8132305">
<ele>45.23</ele>
<time>2015-05-01T07:47:31Z</time>
</trkpt>
<trkpt lat="31.9206274" lon="34.8134532">
<ele>45.30</ele>
<time>2015-05-01T07:47:37Z</time>
</trkpt>
<trkpt lat="31.9207378" lon="34.8136416">
<ele>45.31</ele>
<time>2015-05-01T07:47:43Z</time>
</trkpt>
<trkpt lat="31.9208974" lon="34.8137980">
<ele>45.47</ele>
<time>2015-05-01T07:47:50Z</time>
</trkpt>
<trkpt lat="31.9210749" lon="34.8139266">
<ele>45.63</ele>
<time>2015-05-01T07:47:56Z</time>
</trkpt>
<trkpt lat="31.9212516" lon="34.8140571">
<ele>45.63</ele>
<time>2015-05-01T07:48:02Z</time>
</trkpt>
<trkpt lat="31.9214323" lon="34.8141773">
<ele>45.91</ele>
<time>2015-05-01T07:48:08Z</time>
</trkpt>
<trkpt lat="31.9216166" lon="34.8142453">
<ele>46.25</ele>
<time>2015-05-01T07:48:14Z</time>
</trkpt>
<trkpt lat="31.9217977" lon="34.8142867">
<ele>46.67</ele>
<time>2015-05-01T07:48:19Z</time>
</trkpt>
<trkpt lat="31.9219840" lon="34.8143562">
<ele>47.32</ele>
<time>2015-05-01T07:48:24Z</time>
</trkpt>
<trkpt lat="31.9221850" lon="34.8144023">
<ele>47.52</ele>
<time>2015-05-01T07:48:30Z</time>
</trkpt>
<trkpt lat="31.9223909" lon="34.8144679">
<ele>48.21</ele>
<time>2015-05-01T07:48:36Z</time>
</trkpt>
<trkpt lat="31.9225766" lon="34.8145390">
<ele>49.46</ele>
<time>2015-05-01T07:48:41Z</time>
</trkpt>
<trkpt lat="31.9227804" lon="34.8146076">
<ele>49.78</ele>
<time>2015-05-01T07:48:47Z</time>
</trkpt>
<trkpt lat="31.9229820" lon="34.8146322">
<ele>50.99</ele>
<time>2015-05-01T07:48:52Z</time>
</trkpt>
<trkpt lat="31.9231862" lon="34.8145844">
<ele>51.28</ele>
<time>2015-05-01T07:48:57Z</time>
</trkpt>
<trkpt lat="31.9233926" lon="34.8144999">
<ele>51.25</ele>
<time>2015-05-01T07:49:03Z</time>
</trkpt>
<trkpt lat="31.9236024" lon="34.8144391">
<ele>51.39</ele>
<time>2015-05-01T07:49:09Z</time>
</trkpt>
<trkpt lat="31.9237773" lon="34.8143895">
<ele>51.64</ele>
<time>2015-05-01T07:49:15Z</time>
</trkpt>
<trkpt lat="31.9239803" lon="34.8144173">
<ele>51.98</ele>
<time>2015-05-01T07:49:21Z</time>
</trkpt>
<trkpt lat="31.9241807" lon="34.8144825">
<ele>52.47</ele>
<time>2015-05-01T07:49:27Z</time>
</trkpt>
<trkpt lat="31.9243659" lon="34.8145492">
<ele>53.02</ele>
<time>2015-05-01T07:49:33Z</time>
</trkpt>
<trkpt lat="31.9245693" lon="34.8146213">
<ele>53.32</ele>
<time>2015-05-01T07:49:39Z</time>
</trkpt>
<trkpt lat="31.9247564" lon="34.8146751">
<ele>53.52</ele>
<time>2015-05-01T07:49:45Z</time>
</trkpt>
<trkpt lat="31.9249330" lon="34.8147518">
<ele>53.76</ele>
<time>2015-05-01T07:49:51Z</time>
</trkpt>
<trkpt lat="31.9249897" lon="34.8149547">
<ele>54.16</ele>
<time>2015-05-01T07:49:55Z</time>
</trkpt>
<trkpt lat="31.9250049" lon="34.8151928">
<ele>54.91</ele>
<time>2015-05-01T07:49:59Z</time>
</trkpt>
<trkpt lat="31.9250263" lon="34.8154245">
<ele>54.59</ele>
<time>2015-05-01T07:50:03Z</time>
</trkpt>
<trkpt lat="31.9250451" lon="34.8156471">
<ele>54.33</ele>
<time>2015-05-01T07:50:07Z</time>
</trkpt>
<trkpt lat="31.9250546" lon="34.8158689">
<ele>54.03</ele>
<time>2015-05-01T07:50:11Z</time>
</trkpt>
<trkpt lat="31.9250632" lon="34.8161303">
<ele>55.18</ele>
<time>2015-05-01T07:50:16Z</time>
</trkpt>
<trkpt lat="31.9250890" lon="34.8163475">
<ele>56.25</ele>
<time>2015-05-01T07:50:21Z</time>
</trkpt>
<trkpt lat="31.9251049" lon="34.8165936">
<ele>56.56</ele>
<time>2015-05-01T07:50:27Z</time>
</trkpt>
<trkpt lat="31.9251171" lon="34.8168077">
<ele>56.88</ele>
<time>2015-05-01T07:50:33Z</time>
</trkpt>
<trkpt lat="31.9251323" lon="34.8170203">
<ele>57.78</ele>
<time>2015-05-01T07:50:43Z</time>
</trkpt>
<trkpt lat="31.9251713" lon="34.8172368">
<ele>58.16</ele>
<time>2015-05-01T07:50:49Z</time>
</trkpt>
<trkpt lat="31.9252118" lon="34.8174880">
<ele>58.31</ele>
<time>2015-05-01T07:50:55Z</time>
</trkpt>
<trkpt lat="31.9252362" lon="34.8177040">
<ele>58.57</ele>
<time>2015-05-01T07:51:00Z</time>
</trkpt>
<trkpt lat="31.9252548" lon="34.8179175">
<ele>59.10</ele>
<time>2015-05-01T07:51:05Z</time>
</trkpt>
<trkpt lat="31.9252718" lon="34.8181330">
<ele>61.53</ele>
<time>2015-05-01T07:51:10Z</time>
</trkpt>
<trkpt lat="31.9253009" lon="34.8183530">
<ele>62.04</ele>
<time>2015-05-01T07:51:15Z</time>
</trkpt>
<trkpt lat="31.9253270" lon="34.8185737">
<ele>62.21</ele>
<time>2015-05-01T07:51:20Z</time>
</trkpt>
<trkpt lat="31.9253593" lon="34.8188020">
<ele>62.49</ele>
<time>2015-05-01T07:51:25Z</time>
</trkpt>
<trkpt lat="31.9253832" lon="34.8190125">
<ele>63.19</ele>
<time>2015-05-01T07:51:30Z</time>
</trkpt>
<trkpt lat="31.9254157" lon="34.8192625">
<ele>63.38</ele>
<time>2015-05-01T07:51:36Z</time>
</trkpt>
<trkpt lat="31.9254609" lon="34.8195199">
<ele>62.56</ele>
<time>2015-05-01T07:51:41Z</time>
</trkpt>
<trkpt lat="31.9255114" lon="34.8197512">
<ele>63.47</ele>
<time>2015-05-01T07:51:45Z</time>
</trkpt>
<trkpt lat="31.9255525" lon="34.8199841">
<ele>64.27</ele>
<time>2015-05-01T07:51:49Z</time>
</trkpt>
<trkpt lat="31.9255921" lon="34.8201973">
<ele>64.99</ele>
<time>2015-05-01T07:51:53Z</time>
</trkpt>
<trkpt lat="31.9256272" lon="34.8204175">
<ele>65.00</ele>
<time>2015-05-01T07:51:57Z</time>
</trkpt>
<trkpt lat="31.9256564" lon="34.8206762">
<ele>65.66</ele>
<time>2015-05-01T07:52:02Z</time>
</trkpt>
<trkpt lat="31.9257009" lon="34.8209136">
<ele>63.97</ele>
<time>2015-05-01T07:52:07Z</time>
</trkpt>
<trkpt lat="31.9257622" lon="34.8211397">
<ele>63.97</ele>
<time>2015-05-01T07:52:12Z</time>
</trkpt>
<trkpt lat="31.9258908" lon="34.8213358">
<ele>64.02</ele>
<time>2015-05-01T07:52:17Z</time>
</trkpt>
<trkpt lat="31.9260102" lon="34.8215177">
<ele>64.17</ele>
<time>2015-05-01T07:52:22Z</time>
</trkpt>
<trkpt lat="31.9261917" lon="34.8215236">
<ele>64.79</ele>
<time>2015-05-01T07:52:30Z</time>
</trkpt>
<trkpt lat="31.9262849" lon="34.8213143">
<ele>65.57</ele>
<time>2015-05-01T07:52:39Z</time>
</trkpt>
<trkpt lat="31.9262749" lon="34.8210970">
<ele>66.73</ele>
<time>2015-05-01T07:53:41Z</time>
</trkpt>
<trkpt lat="31.9262724" lon="34.8208400">
<ele>66.67</ele>
<time>2015-05-01T07:53:50Z</time>
</trkpt>
<trkpt lat="31.9260957" lon="34.8207118">
<ele>66.44</ele>
<time>2015-05-01T07:53:59Z</time>
</trkpt>
<trkpt lat="31.9259547" lon="34.8205635">
<ele>66.51</ele>
<time>2015-05-01T07:54:04Z</time>
</trkpt>
<trkpt lat="31.9259844" lon="34.8208006">
<ele>66.86</ele>
<time>2015-05-01T07:54:17Z</time>
</trkpt>
<trkpt lat="31.9259714" lon="34.8210173">
<ele>66.97</ele>
<time>2015-05-01T07:54:23Z</time>
</trkpt>
<trkpt lat="31.9261469" lon="34.8211454">
<ele>67.02</ele>
<time>2015-05-01T07:54:32Z</time>
</trkpt>
<trkpt lat="31.9262820" lon="34.8212856">
<ele>67.10</ele>
<time>2015-05-01T07:54:38Z</time>
</trkpt>
<trkpt lat="31.9264683" lon="34.8213231">
<ele>67.10</ele>
<time>2015-05-01T07:54:46Z</time>
</trkpt>
<trkpt lat="31.9264923" lon="34.8211129">
<ele>66.68</ele>
<time>2015-05-01T07:54:54Z</time>
</trkpt>
<trkpt lat="31.9266628" lon="34.8210361">
<ele>67.06</ele>
<time>2015-05-01T07:55:16Z</time>
</trkpt>
<trkpt lat="31.9266250" lon="34.8208164">
<ele>66.94</ele>
<time>2015-05-01T07:55:37Z</time>
</trkpt>
<trkpt lat="31.9264130" lon="34.8207921">
<ele>66.74</ele>
<time>2015-05-01T07:55:43Z</time>
</trkpt>
<trkpt lat="31.9264495" lon="34.8210189">
<ele>66.73</ele>
<time>2015-05-01T07:55:51Z</time>
</trkpt>
<trkpt lat="31.9264940" lon="34.8212270">
<ele>67.00</ele>
<time>2015-05-01T07:56:00Z</time>
</trkpt>
<trkpt lat="31.9264619" lon="34.8209641">
<ele>68.54</ele>
<time>2015-05-01T07:56:21Z</time>
</trkpt>
<trkpt lat="31.9263338" lon="34.8208091">
<ele>69.60</ele>
<time>2015-05-01T07:56:24Z</time>
</trkpt>
<trkpt lat="31.9261349" lon="34.8207259">
<ele>69.24</ele>
<time>2015-05-01T07:56:30Z</time>
</trkpt>
<trkpt lat="31.9259699" lon="34.8205658">
<ele>68.14</ele>
<time>2015-05-01T07:56:36Z</time>
</trkpt>
<trkpt lat="31.9259931" lon="34.8207884">
<ele>68.30</ele>
<time>2015-05-01T07:56:48Z</time>
</trkpt>
<trkpt lat="31.9259673" lon="34.8210081">
<ele>68.03</ele>
<time>2015-05-01T07:56:54Z</time>
</trkpt>
<trkpt lat="31.9260594" lon="34.8211962">
<ele>67.87</ele>
<time>2015-05-01T07:57:02Z</time>
</trkpt>
<trkpt lat="31.9262108" lon="34.8213137">
<ele>68.19</ele>
<time>2015-05-01T07:57:11Z</time>
</trkpt>
<trkpt lat="31.9263933" lon="34.8213284">
<ele>68.56</ele>
<time>2015-05-01T07:57:24Z</time>
</trkpt>
<trkpt lat="31.9265861" lon="34.8213202">
<ele>69.04</ele>
<time>2015-05-01T07:57:37Z</time>
</trkpt>
<trkpt lat="31.9265790" lon="34.8210759">
<ele>69.49</ele>
<time>2015-05-01T07:57:44Z</time>
</trkpt>
<trkpt lat="31.9264409" lon="34.8209387">
<ele>69.04</ele>
<time>2015-05-01T07:57:49Z</time>
</trkpt>
<trkpt lat="31.9264778" lon="34.8211707">
<ele>68.56</ele>
<time>2015-05-01T07:58:18Z</time>
</trkpt>
<trkpt lat="31.9263553" lon="34.8213454">
<ele>67.85</ele>
<time>2015-05-01T07:58:30Z</time>
</trkpt>
<trkpt lat="31.9261954" lon="34.8214889">
<ele>67.58</ele>
<time>2015-05-01T07:58:38Z</time>
</trkpt>
<trkpt lat="31.9260128" lon="34.8215146">
<ele>67.86</ele>
<time>2015-05-01T07:58:45Z</time>
</trkpt>
<trkpt lat="31.9258750" lon="34.8212984">
<ele>68.88</ele>
<time>2015-05-01T07:58:50Z</time>
</trkpt>
<trkpt lat="31.9257558" lon="34.8211114">
<ele>69.01</ele>
<time>2015-05-01T07:58:53Z</time>
</trkpt>
<trkpt lat="31.9257097" lon="34.8209007">
<ele>68.46</ele>
<time>2015-05-01T07:58:56Z</time>
</trkpt>
<trkpt lat="31.9256753" lon="34.8206898">
<ele>67.45</ele>
<time>2015-05-01T07:58:59Z</time>
</trkpt>
<trkpt lat="31.9256364" lon="34.8204426">
<ele>67.03</ele>
<time>2015-05-01T07:59:03Z</time>
</trkpt>
<trkpt lat="31.9255898" lon="34.8201895">
<ele>65.94</ele>
<time>2015-05-01T07:59:07Z</time>
</trkpt>
<trkpt lat="31.9255533" lon="34.8199673">
<ele>65.26</ele>
<time>2015-05-01T07:59:11Z</time>
</trkpt>
<trkpt lat="31.9255101" lon="34.8197458">
<ele>65.17</ele>
<time>2015-05-01T07:59:15Z</time>
</trkpt>
<trkpt lat="31.9254763" lon="34.8195374">
<ele>63.95</ele>
<time>2015-05-01T07:59:19Z</time>
</trkpt>
<trkpt lat="31.9254352" lon="34.8193099">
<ele>63.95</ele>
<time>2015-05-01T07:59:24Z</time>
</trkpt>
<trkpt lat="31.9254069" lon="34.8190652">
<ele>64.12</ele>
<time>2015-05-01T07:59:30Z</time>
</trkpt>
<trkpt lat="31.9253729" lon="34.8188316">
<ele>64.30</ele>
<time>2015-05-01T07:59:35Z</time>
</trkpt>
<trkpt lat="31.9253537" lon="34.8185739">
<ele>65.55</ele>
<time>2015-05-01T07:59:40Z</time>
</trkpt>
<trkpt lat="31.9253305" lon="34.8183553">
<ele>64.68</ele>
<time>2015-05-01T07:59:44Z</time>
</trkpt>
<trkpt lat="31.9252999" lon="34.8181425">
<ele>62.96</ele>
<time>2015-05-01T07:59:48Z</time>
</trkpt>
<trkpt lat="31.9252703" lon="34.8179285">
<ele>62.21</ele>
<time>2015-05-01T07:59:52Z</time>
</trkpt>
<trkpt lat="31.9252358" lon="34.8176920">
<ele>61.70</ele>
<time>2015-05-01T07:59:56Z</time>
</trkpt>
<trkpt lat="31.9252023" lon="34.8174505">
<ele>62.52</ele>
<time>2015-05-01T08:00:00Z</time>
</trkpt>
<trkpt lat="31.9251795" lon="34.8172362">
<ele>62.87</ele>
<time>2015-05-01T08:00:04Z</time>
</trkpt>
<trkpt lat="31.9251578" lon="34.8170202">
<ele>62.46</ele>
<time>2015-05-01T08:00:08Z</time>
</trkpt>
<trkpt lat="31.9251347" lon="34.8167996">
<ele>61.74</ele>
<time>2015-05-01T08:00:12Z</time>
</trkpt>
<trkpt lat="31.9251059" lon="34.8165401">
<ele>60.21</ele>
<time>2015-05-01T08:00:16Z</time>
</trkpt>
<trkpt lat="31.9250825" lon="34.8163243">
<ele>60.23</ele>
<time>2015-05-01T08:00:19Z</time>
</trkpt>
<trkpt lat="31.9250499" lon="34.8160817">
<ele>59.12</ele>
<time>2015-05-01T08:00:23Z</time>
</trkpt>
<trkpt lat="31.9250374" lon="34.8158175">
<ele>58.28</ele>
<time>2015-05-01T08:00:27Z</time>
</trkpt>
<trkpt lat="31.9250350" lon="34.8155900">
<ele>58.62</ele>
<time>2015-05-01T08:00:30Z</time>
</trkpt>
<trkpt lat="31.9250223" lon="34.8153535">
<ele>58.09</ele>
<time>2015-05-01T08:00:33Z</time>
</trkpt>
<trkpt lat="31.9250036" lon="34.8150963">
<ele>57.63</ele>
<time>2015-05-01T08:00:36Z</time>
</trkpt>
<trkpt lat="31.9249842" lon="34.8148607">
<ele>57.02</ele>
<time>2015-05-01T08:00:39Z</time>
</trkpt>
<trkpt lat="31.9249514" lon="34.8146051">
<ele>55.36</ele>
<time>2015-05-01T08:00:43Z</time>
</trkpt>
<trkpt lat="31.9249194" lon="34.8143877">
<ele>53.54</ele>
<time>2015-05-01T08:00:47Z</time>
</trkpt>
<trkpt lat="31.9248922" lon="34.8141607">
<ele>53.89</ele>
<time>2015-05-01T08:00:52Z</time>
</trkpt>
<trkpt lat="31.9248590" lon="34.8139128">
<ele>54.16</ele>
<time>2015-05-01T08:00:58Z</time>
</trkpt>
<trkpt lat="31.9248247" lon="34.8136901">
<ele>54.57</ele>
<time>2015-05-01T08:01:04Z</time>
</trkpt>
<trkpt lat="31.9248075" lon="34.8134730">
<ele>55.12</ele>
<time>2015-05-01T08:01:10Z</time>
</trkpt>
<trkpt lat="31.9247884" lon="34.8132237">
<ele>55.80</ele>
<time>2015-05-01T08:01:16Z</time>
</trkpt>
<trkpt lat="31.9249841" lon="34.8131962">
<ele>56.84</ele>
<time>2015-05-01T08:01:25Z</time>
</trkpt>
<trkpt lat="31.9251575" lon="34.8132726">
<ele>57.68</ele>
<time>2015-05-01T08:01:31Z</time>
</trkpt>
<trkpt lat="31.9253223" lon="34.8133640">
<ele>58.55</ele>
<time>2015-05-01T08:01:37Z</time>
</trkpt>
<trkpt lat="31.9255206" lon="34.8134157">
<ele>59.08</ele>
<time>2015-05-01T08:01:42Z</time>
</trkpt>
<trkpt lat="31.9257359" lon="34.8134338">
<ele>59.47</ele>
<time>2015-05-01T08:01:48Z</time>
</trkpt>
<trkpt lat="31.9259280" lon="34.8134503">
<ele>59.81</ele>
<time>2015-05-01T08:01:53Z</time>
</trkpt>
<trkpt lat="31.9261407" lon="34.8134504">
<ele>59.85</ele>
<time>2015-05-01T08:01:59Z</time>
</trkpt>
<trkpt lat="31.9263399" lon="34.8134370">
<ele>59.55</ele>
<time>2015-05-01T08:02:04Z</time>
</trkpt>
<trkpt lat="31.9265228" lon="34.8134347">
<ele>59.21</ele>
<time>2015-05-01T08:02:08Z</time>
</trkpt>
<trkpt lat="31.9267092" lon="34.8134141">
<ele>58.78</ele>
<time>2015-05-01T08:02:12Z</time>
</trkpt>
<trkpt lat="31.9268949" lon="34.8133658">
<ele>58.92</ele>
<time>2015-05-01T08:02:16Z</time>
</trkpt>
<trkpt lat="31.9270858" lon="34.8132651">
<ele>59.35</ele>
<time>2015-05-01T08:02:20Z</time>
</trkpt>
<trkpt lat="31.9272358" lon="34.8131099">
<ele>58.20</ele>
<time>2015-05-01T08:02:24Z</time>
</trkpt>
<trkpt lat="31.9273562" lon="34.8128928">
<ele>57.54</ele>
<time>2015-05-01T08:02:28Z</time>
</trkpt>
<trkpt lat="31.9275389" lon="34.8128515">
<ele>57.21</ele>
<time>2015-05-01T08:02:33Z</time>
</trkpt>
<trkpt lat="31.9277080" lon="34.8129348">
<ele>57.70</ele>
<time>2015-05-01T08:02:37Z</time>
</trkpt>
<trkpt lat="31.9278858" lon="34.8129916">
<ele>61.42</ele>
<time>2015-05-01T08:02:41Z</time>
</trkpt>
<trkpt lat="31.9280817" lon="34.8130022">
<ele>65.52</ele>
<time>2015-05-01T08:02:45Z</time>
</trkpt>
<trkpt lat="31.9282947" lon="34.8129762">
<ele>66.79</ele>
<time>2015-05-01T08:02:49Z</time>
</trkpt>
<trkpt lat="31.9285193" lon="34.8129447">
<ele>65.06</ele>
<time>2015-05-01T08:02:53Z</time>
</trkpt>
<trkpt lat="31.9286989" lon="34.8128794">
<ele>61.97</ele>
<time>2015-05-01T08:02:57Z</time>
</trkpt>
<trkpt lat="31.9288926" lon="34.8129918">
<ele>60.62</ele>
<time>2015-05-01T08:03:03Z</time>
</trkpt>
<trkpt lat="31.9290396" lon="34.8131145">
<ele>60.17</ele>
<time>2015-05-01T08:03:08Z</time>
</trkpt>
<trkpt lat="31.9292446" lon="34.8132063">
<ele>56.54</ele>
<time>2015-05-01T08:03:13Z</time>
</trkpt>
<trkpt lat="31.9294261" lon="34.8132203">
<ele>54.33</ele>
<time>2015-05-01T08:03:16Z</time>
</trkpt>
<trkpt lat="31.9296156" lon="34.8132192">
<ele>53.50</ele>
<time>2015-05-01T08:03:19Z</time>
</trkpt>
<trkpt lat="31.9298272" lon="34.8131877">
<ele>53.25</ele>
<time>2015-05-01T08:03:22Z</time>
</trkpt>
<trkpt lat="31.9300379" lon="34.8131408">
<ele>52.98</ele>
<time>2015-05-01T08:03:25Z</time>
</trkpt>
<trkpt lat="31.9302897" lon="34.8130887">
<ele>52.43</ele>
<time>2015-05-01T08:03:28Z</time>
</trkpt>
<trkpt lat="31.9305465" lon="34.8130279">
<ele>52.44</ele>
<time>2015-05-01T08:03:31Z</time>
</trkpt>
<trkpt lat="31.9307990" lon="34.8129734">
<ele>51.36</ele>
<time>2015-05-01T08:03:34Z</time>
</trkpt>
<trkpt lat="31.9310640" lon="34.8129233">
<ele>49.36</ele>
<time>2015-05-01T08:03:37Z</time>
</trkpt>
<trkpt lat="31.9312470" lon="34.8128908">
<ele>48.18</ele>
<time>2015-05-01T08:03:39Z</time>
</trkpt>
<trkpt lat="31.9314338" lon="34.8128594">
<ele>47.01</ele>
<time>2015-05-01T08:03:41Z</time>
</trkpt>
<trkpt lat="31.9316149" lon="34.8128301">
<ele>46.17</ele>
<time>2015-05-01T08:03:43Z</time>
</trkpt>
<trkpt lat="31.9318756" lon="34.8127856">
<ele>45.17</ele>
<time>2015-05-01T08:03:46Z</time>
</trkpt>
<trkpt lat="31.9321245" lon="34.8127315">
<ele>44.58</ele>
<time>2015-05-01T08:03:49Z</time>
</trkpt>
<trkpt lat="31.9323673" lon="34.8126747">
<ele>44.15</ele>
<time>2015-05-01T08:03:52Z</time>
</trkpt>
<trkpt lat="31.9326158" lon="34.8126443">
<ele>43.84</ele>
<time>2015-05-01T08:03:55Z</time>
</trkpt>
<trkpt lat="31.9328343" lon="34.8126692">
<ele>44.21</ele>
<time>2015-05-01T08:03:58Z</time>
</trkpt>
<trkpt lat="31.9330273" lon="34.8127489">
<ele>44.66</ele>
<time>2015-05-01T08:04:01Z</time>
</trkpt>
<trkpt lat="31.9332059" lon="34.8128457">
<ele>45.07</ele>
<time>2015-05-01T08:04:05Z</time>
</trkpt>
<trkpt lat="31.9334031" lon="34.8128888">
<ele>45.63</ele>
<time>2015-05-01T08:04:33Z</time>
</trkpt>
<trkpt lat="31.9335305" lon="34.8127014">
<ele>45.75</ele>
<time>2015-05-01T08:04:42Z</time>
</trkpt>
<trkpt lat="31.9336868" lon="34.8125887">
<ele>45.59</ele>
<time>2015-05-01T08:04:48Z</time>
</trkpt>
<trkpt lat="31.9338527" lon="34.8124940">
<ele>45.38</ele>
<time>2015-05-01T08:04:55Z</time>
</trkpt>
<trkpt lat="31.9340349" lon="34.8124651">
<ele>45.30</ele>
<time>2015-05-01T08:05:01Z</time>
</trkpt>
<trkpt lat="31.9342181" lon="34.8124550">
<ele>45.40</ele>
<time>2015-05-01T08:05:07Z</time>
</trkpt>
<trkpt lat="31.9344131" lon="34.8124693">
<ele>45.40</ele>
<time>2015-05-01T08:05:13Z</time>
</trkpt>
<trkpt lat="31.9345968" lon="34.8124732">
<ele>45.49</ele>
<time>2015-05-01T08:05:19Z</time>
</trkpt>
<trkpt lat="31.9347776" lon="34.8124451">
<ele>45.43</ele>
<time>2015-05-01T08:05:26Z</time>
</trkpt>
<trkpt lat="31.9349492" lon="34.8123307">
<ele>45.56</ele>
<time>2015-05-01T08:05:35Z</time>
</trkpt>
<trkpt lat="31.9351030" lon="34.8122121">
<ele>46.12</ele>
<time>2015-05-01T08:05:43Z</time>
</trkpt>
<trkpt lat="31.9352955" lon="34.8121430">
<ele>46.75</ele>
<time>2015-05-01T08:05:51Z</time>
</trkpt>
<trkpt lat="31.9354948" lon="34.8121308">
<ele>47.66</ele>
<time>2015-05-01T08:05:59Z</time>
</trkpt>
<trkpt lat="31.9356547" lon="34.8122282">
<ele>48.21</ele>
<time>2015-05-01T08:06:05Z</time>
</trkpt>
<trkpt lat="31.9357969" lon="34.8123998">
<ele>49.13</ele>
<time>2015-05-01T08:06:10Z</time>
</trkpt>
<trkpt lat="31.9359777" lon="34.8125366">
<ele>50.78</ele>
<time>2015-05-01T08:06:16Z</time>
</trkpt>
<trkpt lat="31.9361661" lon="34.8126525">
<ele>51.88</ele>
<time>2015-05-01T08:06:22Z</time>
</trkpt>
<trkpt lat="31.9363160" lon="34.8128091">
<ele>53.95</ele>
<time>2015-05-01T08:06:27Z</time>
</trkpt>
<trkpt lat="31.9365096" lon="34.8128292">
<ele>53.36</ele>
<time>2015-05-01T08:06:42Z</time>
</trkpt>
<trkpt lat="31.9366988" lon="34.8128500">
<ele>51.97</ele>
<time>2015-05-01T08:06:47Z</time>
</trkpt>
<trkpt lat="31.9369053" lon="34.8128760">
<ele>50.00</ele>
<time>2015-05-01T08:06:51Z</time>
</trkpt>
<trkpt lat="31.9370876" lon="34.8128938">
<ele>49.43</ele>
<time>2015-05-01T08:06:55Z</time>
</trkpt>
<trkpt lat="31.9372144" lon="34.8127161">
<ele>48.94</ele>
<time>2015-05-01T08:07:03Z</time>
</trkpt>
<trkpt lat="31.9371844" lon="34.8125000">
<ele>48.50</ele>
<time>2015-05-01T08:07:12Z</time>
</trkpt>
<trkpt lat="31.9371907" lon="34.8122584">
<ele>48.46</ele>
<time>2015-05-01T08:07:18Z</time>
</trkpt>
<trkpt lat="31.9373511" lon="34.8121463">
<ele>48.12</ele>
<time>2015-05-01T08:07:26Z</time>
</trkpt>
<trkpt lat="31.9375523" lon="34.8122069">
<ele>47.92</ele>
<time>2015-05-01T08:07:32Z</time>
</trkpt>
<trkpt lat="31.9377428" lon="34.8122497">
<ele>47.67</ele>
<time>2015-05-01T08:07:37Z</time>
</trkpt>
<trkpt lat="31.9379499" lon="34.8122836">
<ele>47.22</ele>
<time>2015-05-01T08:07:43Z</time>
</trkpt>
<trkpt lat="31.9381191" lon="34.8122075">
<ele>46.85</ele>
<time>2015-05-01T08:07:49Z</time>
</trkpt>
<trkpt lat="31.9381368" lon="34.8119908">
<ele>46.79</ele>
<time>2015-05-01T08:07:54Z</time>
</trkpt>
<trkpt lat="31.9381658" lon="34.8117537">
<ele>46.44</ele>
<time>2015-05-01T08:07:59Z</time>
</trkpt>
<trkpt lat="31.9382094" lon="34.8115296">
<ele>45.93</ele>
<time>2015-05-01T08:08:05Z</time>
</trkpt>
<trkpt lat="31.9383832" lon="34.8114191">
<ele>45.46</ele>
<time>2015-05-01T08:08:11Z</time>
</trkpt>
<trkpt lat="31.9385772" lon="34.8114950">
<ele>45.06</ele>
<time>2015-05-01T08:08:18Z</time>
</trkpt>
<trkpt lat="31.9387513" lon="34.8115505">
<ele>44.96</ele>
<time>2015-05-01T08:08:24Z</time>
</trkpt>
<trkpt lat="31.9389387" lon="34.8115869">
<ele>44.98</ele>
<time>2015-05-01T08:08:30Z</time>
</trkpt>
<trkpt lat="31.9391409" lon="34.8116420">
<ele>44.88</ele>
<time>2015-05-01T08:08:38Z</time>
</trkpt>
<trkpt lat="31.9393356" lon="34.8116895">
<ele>44.87</ele>
<time>2015-05-01T08:08:46Z</time>
</trkpt>
<trkpt lat="31.9395225" lon="34.8117167">
<ele>44.84</ele>
<time>2015-05-01T08:08:54Z</time>
</trkpt>
<trkpt lat="31.9397063" lon="34.8117653">
<ele>44.85</ele>
<time>2015-05-01T08:09:01Z</time>
</trkpt>
<trkpt lat="31.9398865" lon="34.8118258">
<ele>44.64</ele>
<time>2015-05-01T08:09:11Z</time>
</trkpt>
<trkpt lat="31.9400947" lon="34.8118786">
<ele>44.53</ele>
<time>2015-05-01T08:09:19Z</time>
</trkpt>
<trkpt lat="31.9402826" lon="34.8119224">
<ele>44.69</ele>
<time>2015-05-01T08:09:25Z</time>
</trkpt>
<trkpt lat="31.9404663" lon="34.8118799">
<ele>44.87</ele>
<time>2015-05-01T08:09:30Z</time>
</trkpt>
<trkpt lat="31.9405995" lon="34.8117016">
<ele>45.21</ele>
<time>2015-05-01T08:09:36Z</time>
</trkpt>
<trkpt lat="31.9406274" lon="34.8114900">
<ele>45.86</ele>
<time>2015-05-01T08:10:06Z</time>
</trkpt>
<trkpt lat="31.9406367" lon="34.8112770">
<ele>46.89</ele>
<time>2015-05-01T08:10:28Z</time>
</trkpt>
<trkpt lat="31.9406506" lon="34.8110630">
<ele>48.08</ele>
<time>2015-05-01T08:10:50Z</time>
</trkpt>
<trkpt lat="31.9406467" lon="34.8108468">
<ele>49.24</ele>
<time>2015-05-01T08:11:15Z</time>
</trkpt>
<trkpt lat="31.9407000" lon="34.8106436">
<ele>51.91</ele>
<time>2015-05-01T08:12:54Z</time>
</trkpt>
<trkpt lat="31.9407102" lon="34.8104229">
<ele>53.50</ele>
<time>2015-05-01T08:13:16Z</time>
</trkpt>
<trkpt lat="31.9407845" lon="34.8102264">
<ele>55.15</ele>
<time>2015-05-01T08:13:41Z</time>
</trkpt>
<trkpt lat="31.9408487" lon="34.8100226">
<ele>58.10</ele>
<time>2015-05-01T08:14:08Z</time>
</trkpt>
<trkpt lat="31.9408864" lon="34.8098124">
<ele>60.29</ele>
<time>2015-05-01T08:15:49Z</time>
</trkpt>
<trkpt lat="31.9409081" lon="34.8095941">
<ele>60.60</ele>
<time>2015-05-01T08:15:57Z</time>
</trkpt>
<trkpt lat="31.9409017" lon="34.8093476">
<ele>60.93</ele>
<time>2015-05-01T08:16:03Z</time>
</trkpt>
<trkpt lat="31.9409148" lon="34.8091115">
<ele>60.46</ele>
<time>2015-05-01T08:16:07Z</time>
</trkpt>
<trkpt lat="31.9409678" lon="34.8088896">
<ele>60.06</ele>
<time>2015-05-01T08:16:10Z</time>
</trkpt>
<trkpt lat="31.9410504" lon="34.8086712">
<ele>59.66</ele>
<time>2015-05-01T08:16:13Z</time>
</trkpt>
<trkpt lat="31.9411376" lon="34.8084378">
<ele>58.85</ele>
<time>2015-05-01T08:16:17Z</time>
</trkpt>
<trkpt lat="31.9412280" lon="34.8082337">
<ele>58.44</ele>
<time>2015-05-01T08:16:22Z</time>
</trkpt>
<trkpt lat="31.9413285" lon="34.8080529">
<ele>58.61</ele>
<time>2015-05-01T08:16:28Z</time>
</trkpt>
<trkpt lat="31.9414119" lon="34.8078590">
<ele>58.86</ele>
<time>2015-05-01T08:16:34Z</time>
</trkpt>
<trkpt lat="31.9414864" lon="34.8076498">
<ele>59.43</ele>
<time>2015-05-01T08:16:45Z</time>
</trkpt>
<trkpt lat="31.9415302" lon="34.8074353">
<ele>59.96</ele>
<time>2015-05-01T08:16:54Z</time>
</trkpt>
<trkpt lat="31.9415703" lon="34.8072270">
<ele>59.94</ele>
<time>2015-05-01T08:17:01Z</time>
</trkpt>
<trkpt lat="31.9416141" lon="34.8069964">
<ele>60.09</ele>
<time>2015-05-01T08:17:08Z</time>
</trkpt>
<trkpt lat="31.9416324" lon="34.8067622">
<ele>60.25</ele>
<time>2015-05-01T08:17:15Z</time>
</trkpt>
<trkpt lat="31.9416707" lon="34.8065136">
<ele>60.98</ele>
<time>2015-05-01T08:17:20Z</time>
</trkpt>
<trkpt lat="31.9417070" lon="34.8062678">
<ele>60.05</ele>
<time>2015-05-01T08:17:25Z</time>
</trkpt>
<trkpt lat="31.9416029" lon="34.8060819">
<ele>59.58</ele>
<time>2015-05-01T08:17:31Z</time>
</trkpt>
<trkpt lat="31.9414149" lon="34.8060633">
<ele>59.82</ele>
<time>2015-05-01T08:17:39Z</time>
</trkpt>
<trkpt lat="31.9412309" lon="34.8060334">
<ele>60.28</ele>
<time>2015-05-01T08:17:46Z</time>
</trkpt>
<trkpt lat="31.9410268" lon="34.8060276">
<ele>60.66</ele>
<time>2015-05-01T08:17:54Z</time>
</trkpt>
<trkpt lat="31.9408208" lon="34.8060002">
<ele>60.46</ele>
<time>2015-05-01T08:18:02Z</time>
</trkpt>
<trkpt lat="31.9406368" lon="34.8059763">
<ele>60.28</ele>
<time>2015-05-01T08:18:09Z</time>
</trkpt>
<trkpt lat="31.9404528" lon="34.8058819">
<ele>60.74</ele>
<time>2015-05-01T08:18:16Z</time>
</trkpt>
<trkpt lat="31.9404283" lon="34.8056402">
<ele>61.42</ele>
<time>2015-05-01T08:18:25Z</time>
</trkpt>
<trkpt lat="31.9404656" lon="34.8054267">
<ele>61.74</ele>
<time>2015-05-01T08:18:30Z</time>
</trkpt>
<trkpt lat="31.9405007" lon="34.8051803">
<ele>61.45</ele>
<time>2015-05-01T08:18:34Z</time>
</trkpt>
<trkpt lat="31.9405461" lon="34.8049125">
<ele>59.99</ele>
<time>2015-05-01T08:18:38Z</time>
</trkpt>
<trkpt lat="31.9405709" lon="34.8046916">
<ele>58.58</ele>
<time>2015-05-01T08:18:41Z</time>
</trkpt>
<trkpt lat="31.9405997" lon="34.8044370">
<ele>56.69</ele>
<time>2015-05-01T08:18:44Z</time>
</trkpt>
<trkpt lat="31.9406504" lon="34.8041463">
<ele>54.56</ele>
<time>2015-05-01T08:18:47Z</time>
</trkpt>
<trkpt lat="31.9406977" lon="34.8038490">
<ele>52.73</ele>
<time>2015-05-01T08:18:50Z</time>
</trkpt>
<trkpt lat="31.9407351" lon="34.8035632">
<ele>50.78</ele>
<time>2015-05-01T08:18:53Z</time>
</trkpt>
<trkpt lat="31.9407746" lon="34.8032827">
<ele>49.88</ele>
<time>2015-05-01T08:18:56Z</time>
</trkpt>
<trkpt lat="31.9408148" lon="34.8030045">
<ele>49.60</ele>
<time>2015-05-01T08:18:59Z</time>
</trkpt>
<trkpt lat="31.9408550" lon="34.8027103">
<ele>48.74</ele>
<time>2015-05-01T08:19:02Z</time>
</trkpt>
<trkpt lat="31.9408953" lon="34.8024079">
<ele>47.04</ele>
<time>2015-05-01T08:19:05Z</time>
</trkpt>
<trkpt lat="31.9409462" lon="34.8021122">
<ele>44.91</ele>
<time>2015-05-01T08:19:08Z</time>
</trkpt>
<trkpt lat="31.9409923" lon="34.8018307">
<ele>42.93</ele>
<time>2015-05-01T08:19:11Z</time>
</trkpt>
<trkpt lat="31.9410345" lon="34.8015635">
<ele>42.04</ele>
<time>2015-05-01T08:19:14Z</time>
</trkpt>
<trkpt lat="31.9410638" lon="34.8013384">
<ele>41.44</ele>
<time>2015-05-01T08:19:17Z</time>
</trkpt>
<trkpt lat="31.9411008" lon="34.8010781">
<ele>40.65</ele>
<time>2015-05-01T08:19:21Z</time>
</trkpt>
<trkpt lat="31.9411513" lon="34.8008632">
<ele>40.36</ele>
<time>2015-05-01T08:19:26Z</time>
</trkpt>
<trkpt lat="31.9413259" lon="34.8007447">
<ele>40.41</ele>
<time>2015-05-01T08:19:34Z</time>
</trkpt>
<trkpt lat="31.9415352" lon="34.8007982">
<ele>40.38</ele>
<time>2015-05-01T08:19:40Z</time>
</trkpt>
<trkpt lat="31.9417469" lon="34.8008352">
<ele>40.22</ele>
<time>2015-05-01T08:19:47Z</time>
</trkpt>
<trkpt lat="31.9419589" lon="34.8008740">
<ele>40.00</ele>
<time>2015-05-01T08:19:52Z</time>
</trkpt>
<trkpt lat="31.9421802" lon="34.8009032">
<ele>40.17</ele>
<time>2015-05-01T08:19:57Z</time>
</trkpt>
<trkpt lat="31.9424016" lon="34.8009382">
<ele>39.97</ele>
<time>2015-05-01T08:20:02Z</time>
</trkpt>
<trkpt lat="31.9425806" lon="34.8009614">
<ele>39.36</ele>
<time>2015-05-01T08:20:06Z</time>
</trkpt>
<trkpt lat="31.9427846" lon="34.8009888">
<ele>38.74</ele>
<time>2015-05-01T08:20:10Z</time>
</trkpt>
<trkpt lat="31.9429709" lon="34.8010222">
<ele>38.67</ele>
<time>2015-05-01T08:20:14Z</time>
</trkpt>
<trkpt lat="31.9432000" lon="34.8010524">
<ele>38.95</ele>
<time>2015-05-01T08:20:19Z</time>
</trkpt>
<trkpt lat="31.9434160" lon="34.8010880">
<ele>40.09</ele>
<time>2015-05-01T08:20:24Z</time>
</trkpt>
<trkpt lat="31.9435942" lon="34.8011241">
<ele>41.08</ele>
<time>2015-05-01T08:20:28Z</time>
</trkpt>
<trkpt lat="31.9437924" lon="34.8011541">
<ele>41.17</ele>
<time>2015-05-01T08:20:32Z</time>
</trkpt>
<trkpt lat="31.9439761" lon="34.8011911">
<ele>41.54</ele>
<time>2015-05-01T08:20:37Z</time>
</trkpt>
<trkpt lat="31.9441662" lon="34.8012230">
<ele>42.12</ele>
<time>2015-05-01T08:20:41Z</time>
</trkpt>
<trkpt lat="31.9443919" lon="34.8012495">
<ele>41.40</ele>
<time>2015-05-01T08:20:46Z</time>
</trkpt>
<trkpt lat="31.9445723" lon="34.8012767">
<ele>38.34</ele>
<time>2015-05-01T08:20:50Z</time>
</trkpt>
<trkpt lat="31.9447927" lon="34.8013033">
<ele>38.20</ele>
<time>2015-05-01T08:20:55Z</time>
</trkpt>
<trkpt lat="31.9450087" lon="34.8013228">
<ele>36.52</ele>
<time>2015-05-01T08:21:00Z</time>
</trkpt>
<trkpt lat="31.9451941" lon="34.8013459">
<ele>36.29</ele>
<time>2015-05-01T08:21:05Z</time>
</trkpt>
<trkpt lat="31.9453884" lon="34.8013838">
<ele>36.79</ele>
<time>2015-05-01T08:21:11Z</time>
</trkpt>
<trkpt lat="31.9455983" lon="34.8013896">
<ele>37.23</ele>
<time>2015-05-01T08:21:17Z</time>
</trkpt>
<trkpt lat="31.9458126" lon="34.8014347">
<ele>39.67</ele>
<time>2015-05-01T08:21:22Z</time>
</trkpt>
<trkpt lat="31.9460215" lon="34.8014714">
<ele>39.90</ele>
<time>2015-05-01T08:21:27Z</time>
</trkpt>
<trkpt lat="31.9462266" lon="34.8015304">
<ele>39.10</ele>
<time>2015-05-01T08:21:32Z</time>
</trkpt>
<trkpt lat="31.9464311" lon="34.8015910">
<ele>38.56</ele>
<time>2015-05-01T08:21:37Z</time>
</trkpt>
<trkpt lat="31.9466228" lon="34.8016514">
<ele>38.57</ele>
<time>2015-05-01T08:21:42Z</time>
</trkpt>
<trkpt lat="31.9468106" lon="34.8015772">
<ele>39.37</ele>
<time>2015-05-01T08:21:51Z</time>
</trkpt>
<trkpt lat="31.9469980" lon="34.8016016">
<ele>39.12</ele>
<time>2015-05-01T08:21:57Z</time>
</trkpt>
<trkpt lat="31.9471804" lon="34.8016432">
<ele>38.84</ele>
<time>2015-05-01T08:22:02Z</time>
</trkpt>
<trkpt lat="31.9473655" lon="34.8017080">
<ele>38.75</ele>
<time>2015-05-01T08:22:07Z</time>
</trkpt>
<trkpt lat="31.9475397" lon="34.8017674">
<ele>39.65</ele>
<time>2015-05-01T08:22:19Z</time>
</trkpt>
<trkpt lat="31.9477124" lon="34.8016937">
<ele>40.26</ele>
<time>2015-05-01T08:22:27Z</time>
</trkpt>
<trkpt lat="31.9478980" lon="34.8017342">
<ele>41.14</ele>
<time>2015-05-01T08:22:33Z</time>
</trkpt>
<trkpt lat="31.9480152" lon="34.8019205">
<ele>41.65</ele>
<time>2015-05-01T08:22:41Z</time>
</trkpt>
<trkpt lat="31.9482140" lon="34.8018823">
<ele>43.13</ele>
<time>2015-05-01T08:22:46Z</time>
</trkpt>
<trkpt lat="31.9484051" lon="34.8018862">
<ele>44.06</ele>
<time>2015-05-01T08:22:51Z</time>
</trkpt>
<trkpt lat="31.9486191" lon="34.8019101">
<ele>45.29</ele>
<time>2015-05-01T08:22:56Z</time>
</trkpt>
<trkpt lat="31.9488043" lon="34.8019417">
<ele>45.23</ele>
<time>2015-05-01T08:23:01Z</time>
</trkpt>
<trkpt lat="31.9490236" lon="34.8019998">
<ele>44.12</ele>
<time>2015-05-01T08:23:06Z</time>
</trkpt>
<trkpt lat="31.9492185" lon="34.8020677">
<ele>43.27</ele>
<time>2015-05-01T08:23:10Z</time>
</trkpt>
<trkpt lat="31.9494098" lon="34.8021216">
<ele>42.89</ele>
<time>2015-05-01T08:23:15Z</time>
</trkpt>
<trkpt lat="31.9496033" lon="34.8021469">
<ele>44.37</ele>
<time>2015-05-01T08:23:19Z</time>
</trkpt>
<trkpt lat="31.9497920" lon="34.8021823">
<ele>44.80</ele>
<time>2015-05-01T08:23:23Z</time>
</trkpt>
<trkpt lat="31.9499907" lon="34.8021943">
<ele>46.27</ele>
<time>2015-05-01T08:23:28Z</time>
</trkpt>
<trkpt lat="31.9501955" lon="34.8022153">
<ele>47.15</ele>
<time>2015-05-01T08:23:33Z</time>
</trkpt>
<trkpt lat="31.9503814" lon="34.8022412">
<ele>46.98</ele>
<time>2015-05-01T08:23:38Z</time>
</trkpt>
<trkpt lat="31.9505528" lon="34.8023249">
<ele>47.08</ele>
<time>2015-05-01T08:23:44Z</time>
</trkpt>
<trkpt lat="31.9507468" lon="34.8022717">
<ele>47.41</ele>
<time>2015-05-01T08:23:59Z</time>
</trkpt>
<trkpt lat="31.9509279" lon="34.8022995">
<ele>47.59</ele>
<time>2015-05-01T08:24:04Z</time>
</trkpt>
<trkpt lat="31.9511051" lon="34.8023840">
<ele>47.66</ele>
<time>2015-05-01T08:24:12Z</time>
</trkpt>
<trkpt lat="31.9512862" lon="34.8023840">
<ele>47.83</ele>
<time>2015-05-01T08:24:17Z</time>
</trkpt>
<trkpt lat="31.9514790" lon="34.8024137">
<ele>49.04</ele>
<time>2015-05-01T08:24:22Z</time>
</trkpt>
<trkpt lat="31.9516794" lon="34.8024436">
<ele>49.65</ele>
<time>2015-05-01T08:24:27Z</time>
</trkpt>
<trkpt lat="31.9518782" lon="34.8024817">
<ele>49.49</ele>
<time>2015-05-01T08:24:32Z</time>
</trkpt>
<trkpt lat="31.9520680" lon="34.8025275">
<ele>48.98</ele>
<time>2015-05-01T08:24:37Z</time>
</trkpt>
<trkpt lat="31.9522806" lon="34.8025649">
<ele>48.84</ele>
<time>2015-05-01T08:24:43Z</time>
</trkpt>
<trkpt lat="31.9524836" lon="34.8025764">
<ele>48.98</ele>
<time>2015-05-01T08:24:48Z</time>
</trkpt>
<trkpt lat="31.9526715" lon="34.8026003">
<ele>49.72</ele>
<time>2015-05-01T08:24:53Z</time>
</trkpt>
<trkpt lat="31.9528848" lon="34.8026402">
<ele>49.92</ele>
<time>2015-05-01T08:24:58Z</time>
</trkpt>
<trkpt lat="31.9530769" lon="34.8026899">
<ele>50.83</ele>
<time>2015-05-01T08:25:03Z</time>
</trkpt>
<trkpt lat="31.9532789" lon="34.8027276">
<ele>51.74</ele>
<time>2015-05-01T08:25:08Z</time>
</trkpt>
<trkpt lat="31.9534674" lon="34.8027488">
<ele>51.89</ele>
<time>2015-05-01T08:25:13Z</time>
</trkpt>
<trkpt lat="31.9536697" lon="34.8027825">
<ele>51.98</ele>
<time>2015-05-01T08:25:19Z</time>
</trkpt>
<trkpt lat="31.9538527" lon="34.8028129">
<ele>52.59</ele>
<time>2015-05-01T08:25:26Z</time>
</trkpt>
<trkpt lat="31.9540453" lon="34.8027785">
<ele>52.94</ele>
<time>2015-05-01T08:25:36Z</time>
</trkpt>
<trkpt lat="31.9542271" lon="34.8027723">
<ele>53.46</ele>
<time>2015-05-01T08:25:44Z</time>
</trkpt>
<trkpt lat="31.9542117" lon="34.8025420">
<ele>55.47</ele>
<time>2015-05-01T08:28:09Z</time>
</trkpt>
<trkpt lat="31.9542400" lon="34.8022994">
<ele>55.53</ele>
<time>2015-05-01T08:28:16Z</time>
</trkpt>
<trkpt lat="31.9542010" lon="34.8020824">
<ele>55.63</ele>
<time>2015-05-01T08:28:22Z</time>
</trkpt>
<trkpt lat="31.9542091" lon="34.8018643">
<ele>55.61</ele>
<time>2015-05-01T08:28:28Z</time>
</trkpt>
<trkpt lat="31.9542345" lon="34.8016263">
<ele>55.46</ele>
<time>2015-05-01T08:28:34Z</time>
</trkpt>
<trkpt lat="31.9542642" lon="34.8013844">
<ele>55.45</ele>
<time>2015-05-01T08:28:40Z</time>
</trkpt>
<trkpt lat="31.9542980" lon="34.8011743">
<ele>55.60</ele>
<time>2015-05-01T08:28:45Z</time>
</trkpt>
<trkpt lat="31.9543317" lon="34.8009353">
<ele>55.75</ele>
<time>2015-05-01T08:28:51Z</time>
</trkpt>
<trkpt lat="31.9543611" lon="34.8007240">
<ele>55.90</ele>
<time>2015-05-01T08:28:56Z</time>
</trkpt>
<trkpt lat="31.9543844" lon="34.8005076">
<ele>56.09</ele>
<time>2015-05-01T08:29:02Z</time>
</trkpt>
<trkpt lat="31.9543983" lon="34.8002685">
<ele>56.37</ele>
<time>2015-05-01T08:29:09Z</time>
</trkpt>
<trkpt lat="31.9544181" lon="34.8000522">
<ele>56.76</ele>
<time>2015-05-01T08:29:16Z</time>
</trkpt>
<trkpt lat="31.9544496" lon="34.7998388">
<ele>57.27</ele>
<time>2015-05-01T08:29:23Z</time>
</trkpt>
<trkpt lat="31.9544750" lon="34.7996197">
<ele>58.13</ele>
<time>2015-05-01T08:29:31Z</time>
</trkpt>
<trkpt lat="31.9545219" lon="34.7994144">
<ele>58.66</ele>
<time>2015-05-01T08:29:38Z</time>
</trkpt>
<trkpt lat="31.9545613" lon="34.7991910">
<ele>59.73</ele>
<time>2015-05-01T08:29:47Z</time>
</trkpt>
<trkpt lat="31.9546095" lon="34.7989836">
<ele>60.62</ele>
<time>2015-05-01T08:29:55Z</time>
</trkpt>
<trkpt lat="31.9548130" lon="34.7989797">
<ele>61.53</ele>
<time>2015-05-01T08:30:02Z</time>
</trkpt>
<trkpt lat="31.9550145" lon="34.7990161">
<ele>62.28</ele>
<time>2015-05-01T08:30:08Z</time>
</trkpt>
<trkpt lat="31.9552258" lon="34.7990407">
<ele>63.02</ele>
<time>2015-05-01T08:30:14Z</time>
</trkpt>
<trkpt lat="31.9554118" lon="34.7990872">
<ele>63.46</ele>
<time>2015-05-01T08:30:19Z</time>
</trkpt>
<trkpt lat="31.9556054" lon="34.7991353">
<ele>63.89</ele>
<time>2015-05-01T08:30:24Z</time>
</trkpt>
<trkpt lat="31.9558178" lon="34.7991684">
<ele>67.20</ele>
<time>2015-05-01T08:30:30Z</time>
</trkpt>
<trkpt lat="31.9560108" lon="34.7992012">
<ele>68.24</ele>
<time>2015-05-01T08:30:35Z</time>
</trkpt>
<trkpt lat="31.9561998" lon="34.7992052">
<ele>68.30</ele>
<time>2015-05-01T08:30:41Z</time>
</trkpt>
<trkpt lat="31.9563731" lon="34.7992713">
<ele>68.75</ele>
<time>2015-05-01T08:30:49Z</time>
</trkpt>
<trkpt lat="31.9564599" lon="34.7990580">
<ele>69.67</ele>
<time>2015-05-01T08:31:08Z</time>
</trkpt>
<trkpt lat="31.9565751" lon="34.7988898">
<ele>69.62</ele>
<time>2015-05-01T08:31:18Z</time>
</trkpt>
<trkpt lat="31.9566212" lon="34.7986503">
<ele>70.25</ele>
<time>2015-05-01T08:31:28Z</time>
</trkpt>
<trkpt lat="31.9566500" lon="34.7984163">
<ele>71.12</ele>
<time>2015-05-01T08:31:36Z</time>
</trkpt>
<trkpt lat="31.9566843" lon="34.7982010">
<ele>72.09</ele>
<time>2015-05-01T08:31:43Z</time>
</trkpt>
<trkpt lat="31.9567022" lon="34.7979898">
<ele>72.57</ele>
<time>2015-05-01T08:31:52Z</time>
</trkpt>
<trkpt lat="31.9567307" lon="34.7977606">
<ele>72.91</ele>
<time>2015-05-01T08:32:01Z</time>
</trkpt>
<trkpt lat="31.9567610" lon="34.7975308">
<ele>72.73</ele>
<time>2015-05-01T08:32:10Z</time>
</trkpt>
<trkpt lat="31.9567926" lon="34.7973139">
<ele>72.58</ele>
<time>2015-05-01T08:32:18Z</time>
</trkpt>
<trkpt lat="31.9568184" lon="34.7970959">
<ele>72.43</ele>
<time>2015-05-01T08:32:25Z</time>
</trkpt>
<trkpt lat="31.9568546" lon="34.7968813">
<ele>72.38</ele>
<time>2015-05-01T08:32:32Z</time>
</trkpt>
<trkpt lat="31.9568828" lon="34.7966492">
<ele>72.08</ele>
<time>2015-05-01T08:32:39Z</time>
</trkpt>
<trkpt lat="31.9569164" lon="34.7964045">
<ele>71.90</ele>
<time>2015-05-01T08:32:47Z</time>
</trkpt>
<trkpt lat="31.9569550" lon="34.7961664">
<ele>72.02</ele>
<time>2015-05-01T08:32:53Z</time>
</trkpt>
<trkpt lat="31.9569838" lon="34.7959534">
<ele>71.60</ele>
<time>2015-05-01T08:32:58Z</time>
</trkpt>
<trkpt lat="31.9570065" lon="34.7957029">
<ele>71.23</ele>
<time>2015-05-01T08:33:04Z</time>
</trkpt>
<trkpt lat="31.9570414" lon="34.7954641">
<ele>71.11</ele>
<time>2015-05-01T08:33:10Z</time>
</trkpt>
<trkpt lat="31.9570691" lon="34.7952136">
<ele>70.99</ele>
<time>2015-05-01T08:33:16Z</time>
</trkpt>
<trkpt lat="31.9571001" lon="34.7949578">
<ele>70.83</ele>
<time>2015-05-01T08:33:22Z</time>
</trkpt>
<trkpt lat="31.9571360" lon="34.7947342">
<ele>70.66</ele>
<time>2015-05-01T08:33:27Z</time>
</trkpt>
<trkpt lat="31.9571979" lon="34.7945298">
<ele>70.70</ele>
<time>2015-05-01T08:33:33Z</time>
</trkpt>
<trkpt lat="31.9573989" lon="34.7945539">
<ele>70.75</ele>
<time>2015-05-01T08:33:39Z</time>
</trkpt>
<trkpt lat="31.9575441" lon="34.7944263">
<ele>70.16</ele>
<time>2015-05-01T08:33:54Z</time>
</trkpt>
<trkpt lat="31.9575640" lon="34.7941851">
<ele>70.03</ele>
<time>2015-05-01T08:33:59Z</time>
</trkpt>
<trkpt lat="31.9575850" lon="34.7939688">
<ele>69.97</ele>
<time>2015-05-01T08:34:04Z</time>
</trkpt>
<trkpt lat="31.9576061" lon="34.7937546">
<ele>70.30</ele>
<time>2015-05-01T08:34:09Z</time>
</trkpt>
<trkpt lat="31.9576361" lon="34.7935358">
<ele>70.21</ele>
<time>2015-05-01T08:34:14Z</time>
</trkpt>
<trkpt lat="31.9576609" lon="34.7933237">
<ele>69.58</ele>
<time>2015-05-01T08:34:20Z</time>
</trkpt>
<trkpt lat="31.9576880" lon="34.7931036">
<ele>69.11</ele>
<time>2015-05-01T08:34:25Z</time>
</trkpt>
<trkpt lat="31.9577201" lon="34.7928675">
<ele>68.83</ele>
<time>2015-05-01T08:34:33Z</time>
</trkpt>
<trkpt lat="31.9577588" lon="34.7926459">
<ele>68.98</ele>
<time>2015-05-01T08:34:41Z</time>
</trkpt>
<trkpt lat="31.9577907" lon="34.7924233">
<ele>68.86</ele>
<time>2015-05-01T08:34:49Z</time>
</trkpt>
<trkpt lat="31.9578221" lon="34.7921961">
<ele>68.27</ele>
<time>2015-05-01T08:34:56Z</time>
</trkpt>
<trkpt lat="31.9578440" lon="34.7919529">
<ele>67.29</ele>
<time>2015-05-01T08:35:02Z</time>
</trkpt>
<trkpt lat="31.9578732" lon="34.7917012">
<ele>66.27</ele>
<time>2015-05-01T08:35:07Z</time>
</trkpt>
<trkpt lat="31.9579028" lon="34.7914656">
<ele>64.00</ele>
<time>2015-05-01T08:35:11Z</time>
</trkpt>
<trkpt lat="31.9579340" lon="34.7912348">
<ele>63.19</ele>
<time>2015-05-01T08:35:16Z</time>
</trkpt>
<trkpt lat="31.9578330" lon="34.7910449">
<ele>62.94</ele>
<time>2015-05-01T08:35:23Z</time>
</trkpt>
<trkpt lat="31.9578421" lon="34.7908007">
<ele>62.69</ele>
<time>2015-05-01T08:35:49Z</time>
</trkpt>
<trkpt lat="31.9579251" lon="34.7906029">
<ele>62.93</ele>
<time>2015-05-01T08:35:54Z</time>
</trkpt>
<trkpt lat="31.9580202" lon="34.7903874">
<ele>63.96</ele>
<time>2015-05-01T08:35:59Z</time>
</trkpt>
<trkpt lat="31.9582300" lon="34.7904046">
<ele>62.15</ele>
<time>2015-05-01T08:36:03Z</time>
</trkpt>
<trkpt lat="31.9584123" lon="34.7904424">
<ele>59.87</ele>
<time>2015-05-01T08:36:07Z</time>
</trkpt>
<trkpt lat="31.9585969" lon="34.7904865">
<ele>58.37</ele>
<time>2015-05-01T08:36:11Z</time>
</trkpt>
<trkpt lat="31.9587886" lon="34.7905368">
<ele>58.18</ele>
<time>2015-05-01T08:36:15Z</time>
</trkpt>
<trkpt lat="31.9589612" lon="34.7903888">
<ele>58.54</ele>
<time>2015-05-01T08:36:20Z</time>
</trkpt>
<trkpt lat="31.9589791" lon="34.7901690">
<ele>57.57</ele>
<time>2015-05-01T08:36:23Z</time>
</trkpt>
<trkpt lat="31.9589967" lon="34.7898922">
<ele>57.55</ele>
<time>2015-05-01T08:36:27Z</time>
</trkpt>
<trkpt lat="31.9590323" lon="34.7896465">
<ele>57.37</ele>
<time>2015-05-01T08:36:31Z</time>
</trkpt>
<trkpt lat="31.9590755" lon="34.7894041">
<ele>57.00</ele>
<time>2015-05-01T08:36:35Z</time>
</trkpt>
<trkpt lat="31.9590863" lon="34.7891401">
<ele>55.73</ele>
<time>2015-05-01T08:36:39Z</time>
</trkpt>
<trkpt lat="31.9591068" lon="34.7888967">
<ele>54.85</ele>
<time>2015-05-01T08:36:43Z</time>
</trkpt>
<trkpt lat="31.9591445" lon="34.7886548">
<ele>53.80</ele>
<time>2015-05-01T08:36:47Z</time>
</trkpt>
<trkpt lat="31.9591931" lon="34.7884244">
<ele>53.85</ele>
<time>2015-05-01T08:36:51Z</time>
</trkpt>
<trkpt lat="31.9593890" lon="34.7883769">
<ele>54.12</ele>
<time>2015-05-01T08:36:57Z</time>
</trkpt>
<trkpt lat="31.9595798" lon="34.7884242">
<ele>54.52</ele>
<time>2015-05-01T08:37:02Z</time>
</trkpt>
<trkpt lat="31.9597690" lon="34.7884646">
<ele>54.89</ele>
<time>2015-05-01T08:37:07Z</time>
</trkpt>
<trkpt lat="31.9599661" lon="34.7884721">
<ele>55.24</ele>
<time>2015-05-01T08:37:13Z</time>
</trkpt>
<trkpt lat="31.9601668" lon="34.7885091">
<ele>55.68</ele>
<time>2015-05-01T08:37:19Z</time>
</trkpt>
<trkpt lat="31.9603514" lon="34.7885872">
<ele>56.14</ele>
<time>2015-05-01T08:37:25Z</time>
</trkpt>
<trkpt lat="31.9605423" lon="34.7886615">
<ele>56.39</ele>
<time>2015-05-01T08:37:31Z</time>
</trkpt>
<trkpt lat="31.9607298" lon="34.7886963">
<ele>56.01</ele>
<time>2015-05-01T08:37:38Z</time>
</trkpt>
<trkpt lat="31.9609285" lon="34.7887194">
<ele>55.77</ele>
<time>2015-05-01T08:37:46Z</time>
</trkpt>
<trkpt lat="31.9611374" lon="34.7887538">
<ele>55.73</ele>
<time>2015-05-01T08:37:54Z</time>
</trkpt>
<trkpt lat="31.9613496" lon="34.7887576">
<ele>55.55</ele>
<time>2015-05-01T08:38:01Z</time>
</trkpt>
<trkpt lat="31.9615510" lon="34.7888219">
<ele>55.60</ele>
<time>2015-05-01T08:38:07Z</time>
</trkpt>
<trkpt lat="31.9616274" lon="34.7890285">
<ele>55.48</ele>
<time>2015-05-01T08:38:13Z</time>
</trkpt>
<trkpt lat="31.9615952" lon="34.7892588">
<ele>55.36</ele>
<time>2015-05-01T08:38:19Z</time>
</trkpt>
<trkpt lat="31.9615606" lon="34.7895078">
<ele>55.62</ele>
<time>2015-05-01T08:38:25Z</time>
</trkpt>
<trkpt lat="31.9615293" lon="34.7897609">
<ele>56.22</ele>
<time>2015-05-01T08:38:30Z</time>
</trkpt>
<trkpt lat="31.9614903" lon="34.7899727">
<ele>56.33</ele>
<time>2015-05-01T08:38:35Z</time>
</trkpt>
<trkpt lat="31.9616220" lon="34.7901616">
<ele>56.53</ele>
<time>2015-05-01T08:38:41Z</time>
</trkpt>
<trkpt lat="31.9618185" lon="34.7902382">
<ele>56.52</ele>
<time>2015-05-01T08:38:45Z</time>
</trkpt>
<trkpt lat="31.9619996" lon="34.7902506">
<ele>58.21</ele>
<time>2015-05-01T08:38:49Z</time>
</trkpt>
<trkpt lat="31.9620921" lon="34.7900553">
<ele>58.36</ele>
<time>2015-05-01T08:38:55Z</time>
</trkpt>
<trkpt lat="31.9620964" lon="34.7898221">
<ele>58.19</ele>
<time>2015-05-01T08:39:01Z</time>
</trkpt>
<trkpt lat="31.9621224" lon="34.7896010">
<ele>58.22</ele>
<time>2015-05-01T08:39:09Z</time>
</trkpt>
<trkpt lat="31.9623381" lon="34.7895764">
<ele>58.29</ele>
<time>2015-05-01T08:39:20Z</time>
</trkpt>
<trkpt lat="31.9625314" lon="34.7895314">
<ele>58.46</ele>
<time>2015-05-01T08:39:25Z</time>
</trkpt>
<trkpt lat="31.9627152" lon="34.7894448">
<ele>58.35</ele>
<time>2015-05-01T08:39:32Z</time>
</trkpt>
<trkpt lat="31.9627628" lon="34.7892310">
<ele>57.76</ele>
<time>2015-05-01T08:39:45Z</time>
</trkpt>
</trkseg>
</trk>
</gpx>
